CC702 / TF-AMC 7700 Squawk Report (2nd of December, 2020)

Time Lat Lon Altitude Heading Speed Vertical Rate
2020-12-02 07:54:16 GMT 50.626144 5.426306 650 44 161 -896
2020-12-02 07:54:11 GMT 50.623230 5.421679 750 45 166 -896
2020-12-02 07:54:00 GMT 50.617722 5.412863 900 45 166 -960
2020-12-02 07:53:49 GMT 50.611500 5.403121 1,075 45 166 -960
2020-12-02 07:53:40 GMT 50.605957 5.394287 1,225 45 167 -896
2020-12-02 07:53:29 GMT 50.600468 5.385602 1,400 45 169 -960
2020-12-02 07:53:19 GMT 50.595020 5.376991 1,525 45 167 -896
2020-12-02 07:53:14 GMT 50.592648 5.373205 1,625 45 166 -896
2020-12-02 07:53:10 GMT 50.590179 5.369345 1,700 45 166 -960
2020-12-02 07:53:07 GMT 50.588791 5.367110 1,725 45 166 -960
2020-12-02 07:53:00 GMT 50.584671 5.360533 1,850 45 167 -896
2020-12-02 07:52:57 GMT 50.583012 5.357988 1,875 45 168 -896
2020-12-02 07:52:48 GMT 50.578121 5.350045 2,025 45 170 -1024
2020-12-02 07:52:45 GMT 50.576248 5.347162 2,075 44 171 -1024
2020-12-02 07:52:39 GMT 50.571579 5.339934 2,225 44 174 -960
2020-12-02 07:52:30 GMT 50.568253 5.334679 2,350 47 176 -960
2020-12-02 07:52:27 GMT 50.566360 5.331477 2,375 48 177 -832
2020-12-02 07:52:18 GMT 50.561222 5.321911 2,550 52 182 -960
2020-12-02 07:52:13 GMT 50.559128 5.317531 2,575 51 185 -960
2020-12-02 07:52:09 GMT 50.556709 5.312855 2,650 47 186 -1152
2020-12-02 07:52:06 GMT 50.554848 5.309811 2,700 41 187 -1088
2020-12-02 07:51:59 GMT 50.549911 5.304021 2,875 31 187 -1152
2020-12-02 07:51:56 GMT 50.547165 5.301349 2,925 31 187 -1088
2020-12-02 07:51:47 GMT 50.541576 5.295559 3,025 37 184 -1216
2020-12-02 07:51:44 GMT 50.539398 5.292664 3,125 43 182 -1216
2020-12-02 07:51:38 GMT 50.536514 5.287315 3,225 52 175 -1088
2020-12-02 07:51:35 GMT 50.534912 5.283846 3,275 54 172 -640
2020-12-02 07:51:28 GMT 50.531242 5.276333 3,425 45 169 -1152
2020-12-02 07:51:24 GMT 50.529659 5.273809 3,425 45 168 -1088
2020-12-02 07:51:18 GMT 50.526031 5.268161 3,550 45 166 -960
2020-12-02 07:51:15 GMT 50.524403 5.265569 3,575 45 168 -832
2020-12-02 07:51:07 GMT 50.519745 5.258220 3,700 45 176 -1088
2020-12-02 07:51:04 GMT 50.518349 5.255919 3,750 45 178 -1152
2020-12-02 07:51:01 GMT 50.516068 5.252356 3,825 45 179 -1024
2020-12-02 07:50:58 GMT 50.514763 5.250351 3,850 45 181 -960
2020-12-02 07:50:55 GMT 50.512802 5.247273 3,900 44 184 -896
2020-12-02 07:50:48 GMT 50.508682 5.240840 4,075 44 188 -1088
2020-12-02 07:50:44 GMT 50.506577 5.237587 4,100 44 187 -832
2020-12-02 07:50:38 GMT 50.502289 5.230828 4,175 45 183 -640
2020-12-02 07:50:35 GMT 50.500671 5.228263 4,200 45 183 -320
2020-12-02 07:50:27 GMT 50.494492 5.218217 4,200 46 183 0
2020-12-02 07:50:24 GMT 50.494492 5.218217 4,225 44 183 -192
2020-12-02 07:50:17 GMT 50.490044 5.211157 4,225 43 183 -128
2020-12-02 07:50:14 GMT 50.488449 5.208748 4,225 43 183 -128
2020-12-02 07:50:07 GMT 50.484085 5.202175 4,250 44 185 -256
2020-12-02 07:50:04 GMT 50.482269 5.199352 4,250 45 184 -320
2020-12-02 07:49:57 GMT 50.478127 5.192376 4,275 50 185 -192
2020-12-02 07:49:54 GMT 50.476501 5.189233 4,300 54 185 -448
2020-12-02 07:49:51 GMT 50.474915 5.185770 4,325 58 184 -512
2020-12-02 07:49:47 GMT 50.473240 5.181241 4,375 66 185 -512
2020-12-02 07:49:44 GMT 50.472153 5.177596 4,375 67 184 -576
2020-12-02 07:49:37 GMT 50.470352 5.169067 4,450 79 185 -384
2020-12-02 07:49:34 GMT 50.469841 5.165282 4,450 78 184 -320
2020-12-02 07:49:26 GMT 50.468765 5.153817 4,550 81 185 -576
2020-12-02 07:49:23 GMT 50.468445 5.150658 4,575 82 185 -448
2020-12-02 07:49:17 GMT 50.467701 5.141824 4,725 82 185 -1024
2020-12-02 07:49:14 GMT 50.467392 5.138204 4,675 82 185 -1024
2020-12-02 07:49:07 GMT 50.466614 5.129314 4,975 82 187 -1472
2020-12-02 07:49:04 GMT 50.466248 5.124544 4,850 82 188 -832
2020-12-02 07:48:57 GMT 50.465420 5.114730 5,000 82 187 -1536
2020-12-02 07:48:54 GMT 50.465103 5.110955 5,050 82 187 -1472
2020-12-02 07:48:47 GMT 50.464439 5.102704 5,325 82 189 -1536
2020-12-02 07:48:44 GMT 50.464050 5.098307 5,300 82 189 -1536
2020-12-02 07:48:41 GMT 50.463696 5.094093 5,375 82 190 -1536
2020-12-02 07:48:36 GMT 50.463043 5.086670 5,550 82 193 -1536
2020-12-02 07:48:33 GMT 50.462673 5.081845 5,600 82 194 -1472
2020-12-02 07:48:27 GMT 50.462036 5.074383 5,750 83 198 -1216
2020-12-02 07:48:24 GMT 50.461647 5.069225 5,800 83 200 -1216
2020-12-02 07:48:17 GMT 50.460983 5.059565 5,950 85 205 -1024
2020-12-02 07:48:14 GMT 50.460812 5.055196 5,975 86 208 -576
2020-12-02 07:48:11 GMT 50.460670 5.050816 6,000 89 213 -128
2020-12-02 07:48:06 GMT 50.460670 5.042799 6,025 91 213 -64
2020-12-02 07:48:03 GMT 50.460754 5.038822 6,025 91 213 -64
2020-12-02 07:47:56 GMT 50.460983 5.027691 6,025 91 213 -128
2020-12-02 07:47:53 GMT 50.461075 5.023209 6,025 91 213 -128
2020-12-02 07:47:46 GMT 50.461277 5.013180 6,025 91 212 0
2020-12-02 07:47:43 GMT 50.461395 5.007670 6,025 91 213 128
2020-12-02 07:47:40 GMT 50.461487 5.002538 6,025 91 213 0
2020-12-02 07:47:35 GMT 50.461624 4.995165 6,000 91 214 64
2020-12-02 07:47:32 GMT 50.461716 4.990973 6,000 91 214 64
2020-12-02 07:47:24 GMT 50.461929 4.977475 5,975 91 216 128
2020-12-02 07:47:14 GMT 50.462219 4.961773 5,975 91 219 64
2020-12-02 07:47:11 GMT 50.462254 4.958546 6,000 91 220 -64
2020-12-02 07:47:06 GMT 50.462402 4.950280 6,000 91 221 64
2020-12-02 07:47:03 GMT 50.462532 4.944516 6,000 91 221 64
2020-12-02 07:46:57 GMT 50.462673 4.934643 6,000 91 220 -64
2020-12-02 07:46:54 GMT 50.462765 4.929669 6,000 91 220 64
2020-12-02 07:46:44 GMT 50.462997 4.915009 6,000 91 219 -64
2020-12-02 07:46:41 GMT 50.463093 4.909627 6,000 91 217 64
2020-12-02 07:46:37 GMT 50.463181 4.903661 6,000 91 216 -64
2020-12-02 07:46:34 GMT 50.463280 4.899605 6,000 91 215 -64
2020-12-02 07:46:31 GMT 50.463364 4.893976 6,000 91 213 0
2020-12-02 07:46:27 GMT 50.463455 4.887687 6,000 91 211 0
2020-12-02 07:46:24 GMT 50.463558 4.883052 6,000 91 211 0
2020-12-02 07:46:20 GMT 50.463650 4.876297 6,000 91 210 0
2020-12-02 07:46:17 GMT 50.463730 4.871352 6,000 91 209 128
2020-12-02 07:46:14 GMT 50.463776 4.868100 6,000 91 210 64
2020-12-02 07:46:11 GMT 50.463882 4.863232 6,000 91 211 0
2020-12-02 07:46:04 GMT 50.464161 4.848534 6,050 91 216 0
2020-12-02 07:45:54 GMT 50.464394 4.837473 6,000 91 222 0
2020-12-02 07:45:51 GMT 50.464489 4.832797 6,000 91 223 128
2020-12-02 07:45:45 GMT 50.464691 4.823143 6,000 91 228 -64
2020-12-02 07:45:42 GMT 50.464813 4.817208 6,000 91 231 64
2020-12-02 07:45:37 GMT 50.464954 4.809414 6,000 91 232 -128
2020-12-02 07:45:34 GMT 50.465092 4.799689 6,000 91 232 -128
2020-12-02 07:45:25 GMT 50.465332 4.788088 6,000 91 232 0
2020-12-02 07:45:22 GMT 50.465378 4.783823 6,000 91 232 0
2020-12-02 07:45:19 GMT 50.465469 4.779631 6,000 91 233 -64
2020-12-02 07:45:16 GMT 50.465607 4.773054 6,000 91 233 128
2020-12-02 07:45:13 GMT 50.465698 4.768861 6,000 91 233 64
2020-12-02 07:45:10 GMT 50.465790 4.763464 6,000 91 233 -64
2020-12-02 07:45:05 GMT 50.465931 4.756189 6,000 91 233 -64
2020-12-02 07:45:02 GMT 50.466064 4.750430 6,000 91 234 -64
2020-12-02 07:44:59 GMT 50.466209 4.744312 6,000 91 234 -64
2020-12-02 07:44:55 GMT 50.466351 4.737706 6,000 91 234 128
2020-12-02 07:44:52 GMT 50.466442 4.732138 6,000 91 235 128
2020-12-02 07:44:48 GMT 50.466568 4.727374 6,000 91 235 64
2020-12-02 07:44:45 GMT 50.466705 4.720724 6,000 91 235 -64
2020-12-02 07:44:42 GMT 50.466816 4.715584 6,000 92 236 0
2020-12-02 07:44:39 GMT 50.466888 4.711689 6,000 92 236 -128
2020-12-02 07:44:35 GMT 50.467117 4.702799 6,000 92 236 -128
2020-12-02 07:44:32 GMT 50.467209 4.700197 6,000 93 236 128
2020-12-02 07:44:29 GMT 50.467373 4.695245 6,000 93 236 0
2020-12-02 07:44:24 GMT 50.468166 4.680398 6,000 97 234 -192
2020-12-02 07:44:21 GMT 50.468166 4.680398 6,025 98 234 -128
2020-12-02 07:44:18 GMT 50.468674 4.675044 6,025 100 234 128
2020-12-02 07:44:14 GMT 50.469330 4.669041 6,000 100 233 0
2020-12-02 07:44:11 GMT 50.469955 4.663696 6,000 100 233 0
2020-12-02 07:44:08 GMT 50.470680 4.657684 6,000 100 233 128
2020-12-02 07:44:04 GMT 50.471329 4.651698 6,000 100 234 192
2020-12-02 07:44:01 GMT 50.471889 4.646623 5,975 100 240 -64
2020-12-02 07:43:58 GMT 50.472401 4.642392 5,975 100 241 -192
2020-12-02 07:43:54 GMT 50.473297 4.634424 6,000 100 246 -128
2020-12-02 07:43:51 GMT 50.473846 4.629847 6,025 100 246 -64
2020-12-02 07:43:48 GMT 50.474442 4.624594 6,025 100 244 -128
2020-12-02 07:43:43 GMT 50.475613 4.614629 6,050 100 239 -128
2020-12-02 07:43:40 GMT 50.476265 4.609359 6,050 100 235 64
2020-12-02 07:43:37 GMT 50.476639 4.606163 6,025 100 235 64
2020-12-02 07:43:34 GMT 50.477280 4.601031 6,025 100 228 0
2020-12-02 07:43:31 GMT 50.478012 4.595104 6,050 100 223 -320
2020-12-02 07:43:28 GMT 50.478561 4.590478 6,050 100 224 -384
2020-12-02 07:43:25 GMT 50.479340 4.584262 6,075 100 227 -704
2020-12-02 07:43:21 GMT 50.479797 4.580504 6,125 100 229 -1024
2020-12-02 07:43:18 GMT 50.480392 4.575444 6,200 100 230 -1088
2020-12-02 07:43:14 GMT 50.481201 4.568828 6,250 100 231 -1344
2020-12-02 07:43:11 GMT 50.482590 4.557086 6,375 100 232 -1728
2020-12-02 07:43:08 GMT 50.482590 4.557086 6,450 100 232 -1664
2020-12-02 07:43:03 GMT 50.483437 4.549824 6,575 100 233 -1536
2020-12-02 07:43:00 GMT 50.484039 4.544628 6,600 100 233 -1728
2020-12-02 07:42:57 GMT 50.484604 4.539956 6,675 100 233 -1728
2020-12-02 07:42:53 GMT 50.485474 4.532511 6,850 100 233 -1472
2020-12-02 07:42:50 GMT 50.486252 4.526150 6,925 100 234 -1664
2020-12-02 07:42:47 GMT 50.486599 4.522953 7,000 100 234 -1792
2020-12-02 07:42:44 GMT 50.487160 4.518127 7,100 100 234 -1536
2020-12-02 07:42:40 GMT 50.487995 4.510927 7,175 100 234 -1472
2020-12-02 07:42:37 GMT 50.488541 4.506201 7,250 100 235 -1536
2020-12-02 07:42:31 GMT 50.489719 4.496006 7,425 100 235 -1664
2020-12-02 07:42:28 GMT 50.490326 4.490228 7,475 99 236 -1472
2020-12-02 07:42:25 GMT 50.490692 4.487192 7,550 99 236 -1472
2020-12-02 07:42:22 GMT 50.491489 4.479601 7,675 99 237 -1792
2020-12-02 07:42:19 GMT 50.491837 4.476350 7,725 99 237 -1728
2020-12-02 07:42:16 GMT 50.492432 4.471146 7,825 99 238 -1280
2020-12-02 07:42:12 GMT 50.493164 4.464680 8,100 100 241 -1536
2020-12-02 07:42:09 GMT 50.493725 4.459707 7,925 99 239 -1344
2020-12-02 07:42:06 GMT 50.494492 4.452499 8,100 99 239 -1664
2020-12-02 07:42:01 GMT 50.495399 4.444489 8,200 100 240 -1344
2020-12-02 07:41:58 GMT 50.495911 4.439813 8,250 100 241 -1472
2020-12-02 07:41:54 GMT 50.496735 4.432911 8,375 100 241 -1536
2020-12-02 07:41:51 GMT 50.497284 4.427924 8,450 100 242 -1152
2020-12-02 07:41:48 GMT 50.498051 4.421329 8,500 100 244 -832
2020-12-02 07:41:44 GMT 50.498657 4.416070 8,675 100 251 -832
2020-12-02 07:41:41 GMT 50.499344 4.410288 8,575 100 248 -832
2020-12-02 07:41:38 GMT 50.499985 4.404795 8,650 100 250 -832
2020-12-02 07:41:34 GMT 50.500847 4.396907 8,700 100 251 -832
2020-12-02 07:41:31 GMT 50.501358 4.392580 8,725 99 253 -896
2020-12-02 07:41:28 GMT 50.502148 4.385326 8,800 100 255 -896
2020-12-02 07:41:21 GMT 50.503464 4.374076 8,900 100 261 -896
2020-12-02 07:41:18 GMT 50.504059 4.368728 8,950 100 261 -896
2020-12-02 07:41:15 GMT 50.504662 4.363354 8,975 100 262 -896
2020-12-02 07:41:11 GMT 50.505707 4.354489 9,025 100 264 -960
2020-12-02 07:41:08 GMT 50.506477 4.347691 9,100 100 265 -1024
2020-12-02 07:41:05 GMT 50.506943 4.343936 9,325 100 271 -1344
2020-12-02 07:41:02 GMT 50.507641 4.337818 9,175 100 268 -896
2020-12-02 07:40:59 GMT 50.508224 4.333022 9,200 100 269 -896
2020-12-02 07:40:56 GMT 50.508945 4.326832 9,275 100 271 -1408
2020-12-02 07:40:53 GMT 50.509506 4.321819 9,500 100 273 -1536
2020-12-02 07:40:50 GMT 50.510201 4.315994 9,425 100 272 -1600
2020-12-02 07:40:47 GMT 50.511566 4.303749 9,750 100 274 -1408
2020-12-02 07:40:44 GMT 50.512207 4.298329 9,625 100 273 -1536
2020-12-02 07:40:41 GMT 50.512856 4.292462 9,700 100 273 -1472
2020-12-02 07:40:38 GMT 50.512856 4.292462 10,125 100 277 -1472
2020-12-02 07:40:35 GMT 50.513809 4.284017 9,950 100 275 -1536
2020-12-02 07:40:31 GMT 50.515182 4.272049 9,950 100 275 -1536
2020-12-02 07:40:25 GMT 50.515778 4.266960 10,050 100 276 -1408
2020-12-02 07:40:22 GMT 50.516556 4.260021 10,150 100 277 -1472
2020-12-02 07:40:19 GMT 50.517288 4.253516 10,225 100 276 -1664
2020-12-02 07:40:16 GMT 50.517975 4.247589 10,300 100 276 -1728
2020-12-02 07:40:13 GMT 50.518394 4.243618 10,400 100 276 -1728
2020-12-02 07:40:10 GMT 50.519348 4.235374 10,500 100 275 -1728
2020-12-02 07:40:07 GMT 50.519806 4.231254 10,575 100 275 -1664
2020-12-02 07:40:04 GMT 50.520493 4.225111 10,775 99 275 -1728
2020-12-02 07:40:01 GMT 50.521004 4.220828 11,050 99 274 -1472
2020-12-02 07:39:58 GMT 50.522305 4.208803 10,875 99 273 -1664
2020-12-02 07:39:52 GMT 50.523235 4.200637 11,000 99 274 -1600
2020-12-02 07:39:48 GMT 50.523933 4.193957 11,075 99 274 -1472
2020-12-02 07:39:45 GMT 50.524727 4.186904 11,125 99 274 -1472
2020-12-02 07:39:42 GMT 50.525208 4.182394 11,225 99 274 -1472
2020-12-02 07:39:39 GMT 50.525940 4.175961 11,325 99 275 -1472
2020-12-02 07:39:36 GMT 50.526684 4.169312 11,375 99 275 -1472
2020-12-02 07:39:33 GMT 50.527195 4.164783 11,425 99 275 -1408
2020-12-02 07:39:30 GMT 50.527863 4.158903 11,475 100 275 -1408
2020-12-02 07:39:27 GMT 50.528595 4.152398 11,625 100 276 -1344
2020-12-02 07:39:24 GMT 50.529243 4.146671 11,650 100 276 -1344
2020-12-02 07:39:21 GMT 50.530472 4.135413 11,750 99 277 -1344
2020-12-02 07:39:18 GMT 50.531151 4.129449 11,800 99 277 -1408
2020-12-02 07:39:15 GMT 50.531151 4.129449 11,875 99 278 -1408
2020-12-02 07:39:11 GMT 50.531937 4.122258 11,925 99 278 -1408
2020-12-02 07:39:08 GMT 50.532780 4.114751 12,025 100 279 -1216
2020-12-02 07:39:05 GMT 50.533386 4.109332 12,050 100 279 -1088
2020-12-02 07:39:02 GMT 50.534134 4.102960 12,125 100 281 -832
2020-12-02 07:38:58 GMT 50.535015 4.094931 12,150 100 283 -832
2020-12-02 07:38:55 GMT 50.535622 4.089809 12,200 100 284 -896
2020-12-02 07:38:52 GMT 50.536469 4.082505 12,275 100 286 -896
2020-12-02 07:38:48 GMT 50.537384 4.074121 12,325 99 288 -832
2020-12-02 07:38:45 GMT 50.538208 4.066893 12,375 99 290 -832
2020-12-02 07:38:41 GMT 50.539764 4.052726 12,425 100 293 -832
2020-12-02 07:38:38 GMT 50.539764 4.052726 12,475 100 293 -896
2020-12-02 07:38:35 GMT 50.540222 4.048751 12,500 100 294 -896
2020-12-02 07:38:32 GMT 50.540974 4.042004 12,550 100 296 -896
2020-12-02 07:38:29 GMT 50.541904 4.034209 12,625 100 297 -896
2020-12-02 07:38:25 GMT 50.542789 4.026267 12,675 100 301 -896
2020-12-02 07:38:22 GMT 50.544277 4.013424 12,850 99 314 -2112
2020-12-02 07:38:19 GMT 50.544277 4.013424 12,750 99 305 -896
2020-12-02 07:38:16 GMT 50.545074 4.006468 12,800 100 304 -896
2020-12-02 07:38:13 GMT 50.545578 4.001698 12,825 99 305 -896
2020-12-02 07:38:10 GMT 50.546539 3.993386 12,875 100 307 -1024
2020-12-02 07:38:07 GMT 50.547272 3.987025 13,975 99 308 -3136
2020-12-02 07:38:04 GMT 50.547817 3.981950 12,950 99 309 -1152
2020-12-02 07:38:01 GMT 50.548691 3.973943 13,025 100 310 -1088
2020-12-02 07:37:58 GMT 50.549377 3.967944 13,100 99 312 -960
2020-12-02 07:37:55 GMT 50.550201 3.960571 13,125 99 313 -1024
2020-12-02 07:37:52 GMT 50.550934 3.953816 13,200 99 314 -1664
2020-12-02 07:37:49 GMT 50.551586 3.947729 13,275 99 314 -2112
2020-12-02 07:37:46 GMT 50.552471 3.939415 13,350 99 314 -1984
2020-12-02 07:37:43 GMT 50.552982 3.934219 13,600 99 312 -2624
2020-12-02 07:37:40 GMT 50.553818 3.926167 15,000 99 312 -2688
2020-12-02 07:37:37 GMT 50.554688 3.917855 13,725 99 311 -2816
2020-12-02 07:37:34 GMT 50.555099 3.913879 13,850 99 310 -3072
2020-12-02 07:37:31 GMT 50.555824 3.907273 14,150 99 305 -2944
2020-12-02 07:37:28 GMT 50.556522 3.900443 14,300 97 303 -2752
2020-12-02 07:37:25 GMT 50.557823 3.882776 14,725 92 298 -2752
2020-12-02 07:37:21 GMT 50.557823 3.882776 14,575 93 299 -2752
2020-12-02 07:37:18 GMT 50.557938 3.879113 14,700 92 299 -2752
2020-12-02 07:37:15 GMT 50.558060 3.872606 14,875 89 296 -2304
2020-12-02 07:37:12 GMT 50.558010 3.866371 14,950 88 296 -1792
2020-12-02 07:37:09 GMT 50.557892 3.859960 14,950 87 296 -1216
2020-12-02 07:37:06 GMT 50.557499 3.851079 14,975 80 306 64
2020-12-02 07:37:03 GMT 50.557159 3.845721 15,000 82 302 64
2020-12-02 07:37:00 GMT 50.556755 3.840464 14,975 81 304 128
2020-12-02 07:36:57 GMT 50.555824 3.831482 14,975 78 308 0
2020-12-02 07:36:54 GMT 50.555328 3.827507 15,000 73 315 -640
2020-12-02 07:36:48 GMT 50.552902 3.813051 15,050 71 316 -768
2020-12-02 07:36:45 GMT 50.550377 3.800750 15,075 71 318 -768
2020-12-02 07:36:42 GMT 50.550377 3.800750 15,125 71 320 -768
2020-12-02 07:36:39 GMT 50.548965 3.794186 15,125 71 320 -768
2020-12-02 07:36:35 GMT 50.546326 3.781969 15,250 71 323 -1600
2020-12-02 07:36:32 GMT 50.543488 3.768607 15,350 71 323 -1920
2020-12-02 07:36:28 GMT 50.543488 3.768607 15,550 71 325 -1664
2020-12-02 07:36:25 GMT 50.542053 3.761878 15,825 71 325 -1664
2020-12-02 07:36:22 GMT 50.540909 3.756529 15,825 71 325 -1664
2020-12-02 07:36:19 GMT 50.539352 3.749157 15,675 71 326 -2048
2020-12-02 07:36:16 GMT 50.536644 3.736317 15,850 71 326 -2048
2020-12-02 07:36:13 GMT 50.536644 3.736317 15,900 71 326 -2048
2020-12-02 07:36:10 GMT 50.535152 3.729413 16,000 71 326 -1792
2020-12-02 07:36:07 GMT 50.533569 3.721990 16,225 71 327 -1984
2020-12-02 07:36:04 GMT 50.532120 3.715186 16,175 71 327 -1664
2020-12-02 07:36:01 GMT 50.530930 3.709548 18,375 71 330 -2432
2020-12-02 07:35:58 GMT 50.529648 3.703477 16,325 71 327 -1984
2020-12-02 07:35:55 GMT 50.527634 3.694225 16,375 71 327 -2048
2020-12-02 07:35:52 GMT 50.526402 3.688363 16,575 71 327 -2048
2020-12-02 07:35:49 GMT 50.524540 3.679529 16,675 71 328 -1984
2020-12-02 07:35:45 GMT 50.522537 3.670324 16,800 71 329 -1792
2020-12-02 07:35:42 GMT 50.521179 3.663940 16,900 71 329 -1792
2020-12-02 07:35:39 GMT 50.520119 3.658967 16,900 71 330 -1920
2020-12-02 07:35:36 GMT 50.518982 3.653532 17,025 71 329 -2176
2020-12-02 07:35:33 GMT 50.517334 3.645871 17,150 71 329 -2176
2020-12-02 07:35:30 GMT 50.515648 3.637885 17,325 71 329 -1920
2020-12-02 07:35:27 GMT 50.514084 3.630403 17,375 71 329 -1856
2020-12-02 07:35:24 GMT 50.512951 3.624969 17,575 71 330 -1856
2020-12-02 07:35:21 GMT 50.511040 3.616135 17,575 71 330 -2112
2020-12-02 07:35:18 GMT 50.510284 3.612478 17,750 71 330 -2240
2020-12-02 07:35:15 GMT 50.508408 3.603588 17,775 71 330 -2240
2020-12-02 07:35:12 GMT 50.506989 3.596761 17,925 71 329 -2048
2020-12-02 07:35:09 GMT 50.505733 3.590896 18,075 71 329 -1920
2020-12-02 07:35:06 GMT 50.504337 3.584290 18,125 71 330 -1984
2020-12-02 07:35:03 GMT 50.502914 3.577495 18,175 71 330 -2112
2020-12-02 07:35:00 GMT 50.501450 3.570705 18,375 71 330 -2496
2020-12-02 07:34:57 GMT 50.499527 3.561594 18,675 71 329 -2048
2020-12-02 07:34:54 GMT 50.498108 3.555017 18,600 71 329 -2240
2020-12-02 07:34:50 GMT 50.496517 3.547322 18,725 71 329 -2112
2020-12-02 07:34:47 GMT 50.495026 3.540270 18,800 71 329 -1984
2020-12-02 07:34:44 GMT 50.493118 3.531237 18,950 71 329 -1984
2020-12-02 07:34:41 GMT 50.492325 3.527576 19,050 71 330 -2048
2020-12-02 07:34:38 GMT 50.490929 3.521044 19,075 71 330 -2048
2020-12-02 07:34:35 GMT 50.489182 3.512878 19,200 71 330 -2112
2020-12-02 07:34:32 GMT 50.487625 3.505604 19,350 71 329 -2112
2020-12-02 07:34:28 GMT 50.485996 3.498180 19,500 71 329 -2112
2020-12-02 07:34:25 GMT 50.484192 3.490038 19,550 71 329 -2176
2020-12-02 07:34:22 GMT 50.483276 3.485702 19,625 71 329 -2176
2020-12-02 07:34:19 GMT 50.481571 3.478064 19,700 71 329 -2176
2020-12-02 07:34:16 GMT 50.480118 3.471463 19,975 70 330 -2176
2020-12-02 07:34:13 GMT 50.478546 3.464256 19,975 70 330 -2112
2020-12-02 07:34:10 GMT 50.476730 3.456140 20,150 70 330 -2112
2020-12-02 07:34:07 GMT 50.475266 3.449562 20,325 70 330 -2176
2020-12-02 07:34:04 GMT 50.473984 3.443925 20,550 71 330 -2240
2020-12-02 07:34:01 GMT 50.470867 3.429739 21,000 71 330 -2240
2020-12-02 07:33:58 GMT 50.470867 3.429739 20,600 71 330 -2240
2020-12-02 07:33:55 GMT 50.468956 3.420905 20,675 71 330 -2240
2020-12-02 07:33:51 GMT 50.467560 3.414298 20,725 71 329 -2240
2020-12-02 07:33:48 GMT 50.465836 3.406629 21,150 68 328 -2176
2020-12-02 07:33:45 GMT 50.464417 3.400558 21,000 67 328 -2176
2020-12-02 07:33:42 GMT 50.462906 3.394631 21,125 67 328 -2176
2020-12-02 07:33:39 GMT 50.460346 3.385496 21,250 64 327 -2112
2020-12-02 07:33:36 GMT 50.458576 3.379706 21,300 63 327 -2112
2020-12-02 07:33:33 GMT 50.456497 3.373381 21,450 61 327 -1984
2020-12-02 07:33:30 GMT 50.454620 3.367978 21,575 59 327 -1856
2020-12-02 07:33:27 GMT 50.452385 3.362039 21,625 58 327 -1920
2020-12-02 07:33:24 GMT 50.449730 3.355432 21,700 57 327 -1920
2020-12-02 07:33:21 GMT 50.447662 3.350469 21,800 55 328 -1664
2020-12-02 07:33:18 GMT 50.444870 3.344180 21,875 54 328 -1344
2020-12-02 07:33:15 GMT 50.442123 3.338254 21,950 52 330 -896
2020-12-02 07:33:12 GMT 50.439880 3.333700 21,975 51 331 -512
2020-12-02 07:33:09 GMT 50.436275 3.326779 22,000 49 333 -128
2020-12-02 07:33:06 GMT 50.433483 3.321657 22,000 47 333 -64
2020-12-02 07:33:03 GMT 50.427292 3.311221 22,000 45 333 0
2020-12-02 07:33:00 GMT 50.427292 3.311221 22,000 45 333 128
2020-12-02 07:32:57 GMT 50.423950 3.305945 22,000 45 333 64
2020-12-02 07:32:54 GMT 50.420792 3.300958 22,000 45 333 64
2020-12-02 07:32:51 GMT 50.417702 3.296195 22,000 44 334 0
2020-12-02 07:32:48 GMT 50.413887 3.290257 22,000 44 334 0
2020-12-02 07:32:44 GMT 50.409836 3.283947 22,000 44 334 0
2020-12-02 07:32:40 GMT 50.405132 3.276598 22,000 45 335 0
2020-12-02 07:32:37 GMT 50.401428 3.270746 22,000 45 335 0
2020-12-02 07:32:34 GMT 50.398911 3.266842 22,000 45 335 0
2020-12-02 07:32:31 GMT 50.396381 3.262939 22,000 44 335 0
2020-12-02 07:32:28 GMT 50.392517 3.256927 22,000 44 335 0
2020-12-02 07:32:25 GMT 50.389481 3.252098 22,000 44 335 0
2020-12-02 07:32:22 GMT 50.384510 3.244456 22,000 44 335 64
2020-12-02 07:32:19 GMT 50.378128 3.234534 22,000 44 335 64
2020-12-02 07:32:16 GMT 50.378128 3.234534 22,000 44 335 64
2020-12-02 07:32:13 GMT 50.376297 3.231643 22,000 44 330 0
2020-12-02 07:32:09 GMT 50.372128 3.225155 22,000 44 332 -64
2020-12-02 07:32:06 GMT 50.368496 3.219588 22,000 44 333 -64
2020-12-02 07:32:03 GMT 50.364914 3.214021 22,000 44 331 -64
2020-12-02 07:32:00 GMT 50.361649 3.208947 22,000 44 328 0
2020-12-02 07:31:57 GMT 50.358307 3.203671 22,000 44 330 0
2020-12-02 07:31:54 GMT 50.354736 3.198106 22,000 44 330 0
2020-12-02 07:31:51 GMT 50.351807 3.193624 22,000 44 328 0
2020-12-02 07:31:48 GMT 50.347736 3.187223 22,000 44 328 0
2020-12-02 07:31:45 GMT 50.344849 3.182710 22,000 44 327 0
2020-12-02 07:31:42 GMT 50.342377 3.178880 22,000 44 325 0
2020-12-02 07:31:39 GMT 50.338211 3.172375 22,000 44 325 0
2020-12-02 07:31:35 GMT 50.335098 3.167532 22,000 44 325 0
2020-12-02 07:31:32 GMT 50.332233 3.163097 22,000 44 325 0
2020-12-02 07:31:29 GMT 50.328510 3.157307 22,000 44 324 0
2020-12-02 07:31:26 GMT 50.325436 3.152482 22,000 44 323 0
2020-12-02 07:31:23 GMT 50.322365 3.147731 22,000 44 323 0
2020-12-02 07:31:20 GMT 50.318619 3.141945 22,000 44 321 0
2020-12-02 07:31:16 GMT 50.313904 3.134573 22,000 44 322 0
2020-12-02 07:31:13 GMT 50.311249 3.130525 22,000 44 321 0
2020-12-02 07:31:09 GMT 50.307236 3.124348 22,000 44 319 -128
2020-12-02 07:31:06 GMT 50.303650 3.118816 22,000 44 318 -128
2020-12-02 07:31:03 GMT 50.300446 3.113757 22,000 44 312 0
2020-12-02 07:31:00 GMT 50.296967 3.108408 22,000 44 318 0
2020-12-02 07:30:57 GMT 50.294907 3.105228 22,000 44 316 0
2020-12-02 07:30:54 GMT 50.291779 3.100371 22,000 44 312 0
2020-12-02 07:30:51 GMT 50.287628 3.093952 22,000 44 313 0
2020-12-02 07:30:48 GMT 50.286072 3.091567 22,000 44 315 0
2020-12-02 07:30:45 GMT 50.282043 3.085351 22,000 44 313 0
2020-12-02 07:30:42 GMT 50.279434 3.081376 22,000 44 311 0
2020-12-02 07:30:39 GMT 50.275452 3.075160 22,000 44 313 0
2020-12-02 07:30:36 GMT 50.273392 3.071941 22,000 44 312 0
2020-12-02 07:30:33 GMT 50.269684 3.066270 22,000 44 312 0
2020-12-02 07:30:30 GMT 50.267105 3.062291 22,000 44 312 0
2020-12-02 07:30:27 GMT 50.263706 3.057094 22,000 44 311 0
2020-12-02 07:30:23 GMT 50.259193 3.050116 22,000 44 312 -64
2020-12-02 07:30:20 GMT 50.256317 3.045670 22,000 44 312 0
2020-12-02 07:30:17 GMT 50.253559 3.041357 22,000 44 312 -64
2020-12-02 07:30:14 GMT 50.249275 3.034750 22,000 44 312 -64
2020-12-02 07:30:11 GMT 50.247833 3.032523 22,000 44 312 -64
2020-12-02 07:30:08 GMT 50.244247 3.026956 22,000 44 312 0
2020-12-02 07:30:05 GMT 50.241577 3.022830 22,000 44 312 0
2020-12-02 07:30:02 GMT 50.237267 3.016192 22,000 44 313 128
2020-12-02 07:29:58 GMT 50.233868 3.010996 22,000 44 312 64
2020-12-02 07:29:55 GMT 50.230888 3.006394 22,000 44 313 128
2020-12-02 07:29:52 GMT 50.227676 3.001420 22,000 44 313 0
2020-12-02 07:29:49 GMT 50.224777 2.997027 22,000 44 313 0
2020-12-02 07:29:46 GMT 50.221207 2.991462 22,000 44 317 0
2020-12-02 07:29:43 GMT 50.213665 2.979819 22,000 44 313 0
2020-12-02 07:29:39 GMT 50.213665 2.979819 22,000 44 313 0
2020-12-02 07:29:36 GMT 50.211182 2.975994 22,000 44 313 0
2020-12-02 07:29:33 GMT 50.208496 2.971876 22,000 44 313 0
2020-12-02 07:29:30 GMT 50.204361 2.965514 22,000 44 313 0
2020-12-02 07:29:27 GMT 50.202438 2.962478 22,000 44 313 0
2020-12-02 07:29:24 GMT 50.199417 2.957852 22,000 44 313 0
2020-12-02 07:29:21 GMT 50.196213 2.952937 22,000 44 313 0
2020-12-02 07:29:18 GMT 50.191879 2.946266 22,000 44 313 0
2020-12-02 07:29:12 GMT 50.187149 2.938987 22,000 44 313 0
2020-12-02 07:29:09 GMT 50.183125 2.932756 22,000 44 314 0
2020-12-02 07:29:06 GMT 50.180428 2.928599 22,000 44 314 0
2020-12-02 07:29:02 GMT 50.176422 2.922438 22,000 44 314 0
2020-12-02 07:28:59 GMT 50.173210 2.917464 22,000 44 315 0
2020-12-02 07:28:56 GMT 50.170120 2.912678 22,000 44 314 0
2020-12-02 07:28:53 GMT 50.167019 2.907962 22,000 44 314 0
2020-12-02 07:28:50 GMT 50.164490 2.904149 22,000 44 315 0
2020-12-02 07:28:47 GMT 50.160782 2.898386 22,000 44 315 0
2020-12-02 07:28:44 GMT 50.158173 2.894452 22,000 44 315 0
2020-12-02 07:28:41 GMT 50.154358 2.888588 22,000 44 314 0
2020-12-02 07:28:38 GMT 50.151424 2.884134 22,000 44 315 0
2020-12-02 07:28:35 GMT 50.147186 2.877623 22,000 44 315 0
2020-12-02 07:28:32 GMT 50.144489 2.873444 22,000 44 315 0
2020-12-02 07:28:29 GMT 50.141693 2.869139 22,000 44 315 0
2020-12-02 07:28:26 GMT 50.137939 2.863456 22,000 44 316 -64
2020-12-02 07:28:22 GMT 50.134918 2.858831 22,000 44 316 0
2020-12-02 07:28:19 GMT 50.131824 2.854070 22,000 44 316 -64
2020-12-02 07:28:16 GMT 50.128799 2.849393 22,000 44 316 -64
2020-12-02 07:28:13 GMT 50.125355 2.844197 22,000 44 316 -64
2020-12-02 07:28:10 GMT 50.122467 2.839677 22,000 44 316 128
2020-12-02 07:28:07 GMT 50.118698 2.833953 22,000 44 317 192
2020-12-02 07:28:04 GMT 50.116196 2.830136 21,975 44 317 128
2020-12-02 07:28:01 GMT 50.113586 2.826088 21,975 44 317 -64
2020-12-02 07:27:58 GMT 50.110062 2.820667 21,975 44 317 -64
2020-12-02 07:27:55 GMT 50.106686 2.815544 21,975 44 317 -128
2020-12-02 07:27:52 GMT 50.103149 2.810043 22,125 44 315 -448
2020-12-02 07:27:49 GMT 50.099983 2.805225 21,975 44 318 64
2020-12-02 07:27:46 GMT 50.096191 2.799490 21,975 44 318 -512
2020-12-02 07:27:43 GMT 50.094116 2.796243 22,075 44 316 -896
2020-12-02 07:27:40 GMT 50.090858 2.791344 22,125 44 315 -448
2020-12-02 07:27:37 GMT 50.087181 2.785702 22,100 44 315 -704
2020-12-02 07:27:34 GMT 50.085022 2.782432 22,125 44 315 -256
2020-12-02 07:27:31 GMT 50.081268 2.776650 22,150 44 315 -256
2020-12-02 07:27:28 GMT 50.078156 2.771952 22,150 44 315 -256
2020-12-02 07:27:25 GMT 50.075363 2.767615 22,175 44 315 -192
2020-12-02 07:27:22 GMT 50.072342 2.763062 22,175 44 315 -192
2020-12-02 07:27:19 GMT 50.069214 2.758311 22,200 44 314 -192
2020-12-02 07:27:16 GMT 50.062649 2.748289 22,200 44 314 -192
2020-12-02 07:27:13 GMT 50.062649 2.748289 22,200 44 315 -192
2020-12-02 07:27:10 GMT 50.059528 2.743539 22,200 44 315 -192
2020-12-02 07:27:07 GMT 50.055588 2.737547 22,225 44 315 -192
2020-12-02 07:27:04 GMT 50.053391 2.734222 22,375 44 315 -256
2020-12-02 07:27:01 GMT 50.049957 2.729018 22,250 44 315 -256
2020-12-02 07:26:57 GMT 50.046448 2.723644 22,250 44 315 -256
2020-12-02 07:26:54 GMT 50.043003 2.718448 22,275 44 315 -320
2020-12-02 07:26:51 GMT 50.040070 2.713994 22,275 44 314 -320
2020-12-02 07:26:48 GMT 50.037140 2.709575 22,325 44 315 -384
2020-12-02 07:26:45 GMT 50.032883 2.703070 22,350 44 315 -384
2020-12-02 07:26:41 GMT 50.029644 2.698183 22,350 44 315 -512
2020-12-02 07:26:38 GMT 50.027176 2.694397 22,400 44 315 -512
2020-12-02 07:26:35 GMT 50.023453 2.688687 22,400 44 315 -640
2020-12-02 07:26:32 GMT 50.018749 2.681481 22,425 44 315 -640
2020-12-02 07:26:29 GMT 50.017227 2.679146 22,450 44 314 -768
2020-12-02 07:26:26 GMT 50.013908 2.674057 22,500 44 314 -832
2020-12-02 07:26:23 GMT 50.011230 2.669895 23,075 44 319 -2112
2020-12-02 07:26:20 GMT 50.008072 2.664980 22,575 44 314 -960
2020-12-02 07:26:17 GMT 50.001526 2.654980 22,700 44 313 -1792
2020-12-02 07:26:14 GMT 50.001526 2.654980 23,050 44 313 -1984
2020-12-02 07:26:11 GMT 49.998550 2.650452 22,850 44 313 -2048
2020-12-02 07:26:08 GMT 49.995426 2.645775 22,900 44 313 -2112
2020-12-02 07:26:05 GMT 49.989349 2.636502 23,100 44 313 -2112
2020-12-02 07:26:02 GMT 49.989349 2.636502 23,225 44 314 -2112
2020-12-02 07:25:59 GMT 49.986740 2.632527 23,275 44 314 -2112
2020-12-02 07:25:56 GMT 49.982998 2.626846 23,325 44 314 -2112
2020-12-02 07:25:53 GMT 49.979874 2.622118 23,450 44 315 -2112
2020-12-02 07:25:50 GMT 49.976761 2.617344 23,550 44 316 -2112
2020-12-02 07:25:47 GMT 49.973919 2.613113 23,675 44 316 -2112
2020-12-02 07:25:44 GMT 49.967331 2.603109 23,800 44 316 -2112
2020-12-02 07:25:41 GMT 49.967331 2.603109 23,875 44 317 -2112
2020-12-02 07:25:38 GMT 49.964310 2.598483 23,975 44 317 -2112
2020-12-02 07:25:35 GMT 49.961166 2.593664 24,100 44 318 -2112
2020-12-02 07:25:32 GMT 49.956837 2.587132 24,200 44 318 -2112
2020-12-02 07:25:29 GMT 49.954102 2.583016 24,350 44 327 -1984
2020-12-02 07:25:26 GMT 49.948746 2.574848 24,475 44 319 -2112
2020-12-02 07:25:23 GMT 49.948746 2.574848 24,650 44 320 -2112
2020-12-02 07:25:20 GMT 49.945267 2.569572 24,650 44 320 -2112
2020-12-02 07:25:17 GMT 49.941330 2.563645 24,750 44 321 -2048
2020-12-02 07:25:14 GMT 49.938034 2.558658 24,875 44 321 -2048
2020-12-02 07:25:11 GMT 49.934738 2.553671 24,950 44 322 -2048
2020-12-02 07:25:08 GMT 49.932724 2.550563 25,000 44 323 -2048
2020-12-02 07:25:05 GMT 49.928970 2.544925 25,175 44 323 -2048
2020-12-02 07:25:02 GMT 49.926205 2.540737 25,200 44 323 -2048
2020-12-02 07:24:59 GMT 49.923180 2.536209 25,275 44 324 -2048
2020-12-02 07:24:56 GMT 49.919361 2.530344 27,525 44 325 -1920
2020-12-02 07:24:53 GMT 49.915695 2.524759 25,550 44 326 -1920
2020-12-02 07:24:49 GMT 49.911819 2.518913 25,750 44 327 -1984
2020-12-02 07:24:46 GMT 49.908703 2.514088 25,750 44 327 -1984
2020-12-02 07:24:43 GMT 49.906219 2.510376 25,925 44 328 -2176
2020-12-02 07:24:40 GMT 49.898941 2.499317 26,025 44 330 -1792
2020-12-02 07:24:37 GMT 49.898941 2.499317 26,125 44 328 -2176
2020-12-02 07:24:34 GMT 49.892082 2.488923 26,300 44 330 -1728
2020-12-02 07:24:31 GMT 49.892082 2.488923 26,300 44 330 -1728
2020-12-02 07:24:28 GMT 49.888916 2.484172 26,375 44 331 -1472
2020-12-02 07:24:25 GMT 49.884586 2.477714 26,450 44 333 -1216
2020-12-02 07:24:22 GMT 49.882690 2.474887 26,525 43 337 -1216
2020-12-02 07:24:19 GMT 49.879028 2.469394 26,550 43 337 -1216
2020-12-02 07:24:15 GMT 49.874763 2.463016 26,625 43 338 -1216
2020-12-02 07:24:12 GMT 49.871506 2.458117 26,675 44 341 -1216
2020-12-02 07:24:09 GMT 49.867970 2.452920 26,750 44 342 -1280
2020-12-02 07:24:06 GMT 49.864563 2.447783 27,550 44 399 -1664
2020-12-02 07:24:03 GMT 49.861359 2.442899 26,900 44 347 -1280
2020-12-02 07:24:00 GMT 49.858284 2.438297 26,950 44 348 -1280
2020-12-02 07:23:57 GMT 49.853622 2.431303 27,025 44 350 -1280
2020-12-02 07:23:54 GMT 49.850277 2.426271 27,050 44 352 -1280
2020-12-02 07:23:51 GMT 49.847485 2.422040 27,100 44 353 -1280
2020-12-02 07:23:48 GMT 49.844086 2.416918 27,225 44 356 -1280
2020-12-02 07:23:45 GMT 49.840454 2.411351 27,650 44 367 -1344
2020-12-02 07:23:42 GMT 49.836914 2.406006 27,325 44 359 -1344
2020-12-02 07:23:39 GMT 49.833435 2.400802 27,400 44 362 -1344
2020-12-02 07:23:36 GMT 49.828678 2.393535 27,650 44 367 -1344
2020-12-02 07:23:33 GMT 49.825886 2.389378 27,650 44 367 -1344
2020-12-02 07:23:30 GMT 49.821926 2.383365 27,650 44 367 -1344
2020-12-02 07:23:27 GMT 49.818512 2.378251 29,200 44 407 -3136
2020-12-02 07:23:24 GMT 49.811638 2.367925 27,950 44 374 -1472
2020-12-02 07:23:21 GMT 49.811638 2.367925 27,875 44 374 -1472
2020-12-02 07:23:18 GMT 49.807938 2.362350 27,950 44 375 -1472
2020-12-02 07:23:14 GMT 49.802170 2.353821 27,975 44 376 -1472
2020-12-02 07:23:11 GMT 49.797955 2.347437 28,075 44 381 -1472
2020-12-02 07:23:08 GMT 49.795532 2.343846 28,200 44 379 -1472
2020-12-02 07:23:05 GMT 49.791641 2.337992 28,200 44 382 -1408
2020-12-02 07:23:02 GMT 49.787430 2.331776 28,250 44 384 -1408
2020-12-02 07:22:59 GMT 49.779510 2.319850 28,375 44 392 -1344
2020-12-02 07:22:56 GMT 49.779510 2.319850 28,425 44 389 -1344
2020-12-02 07:22:53 GMT 49.775528 2.313851 28,475 44 391 -1344
2020-12-02 07:22:50 GMT 49.773056 2.310165 28,525 44 393 -1344
2020-12-02 07:22:47 GMT 49.769028 2.304093 28,975 44 401 -1472
2020-12-02 07:22:44 GMT 49.764343 2.297033 28,700 44 397 -1536
2020-12-02 07:22:41 GMT 49.760376 2.291083 28,750 44 399 -1664
2020-12-02 07:22:38 GMT 49.752052 2.278475 28,850 44 401 -1536
2020-12-02 07:22:35 GMT 49.752052 2.278475 29,325 44 407 -3136
2020-12-02 07:22:32 GMT 49.747955 2.272240 28,975 44 403 -1280
2020-12-02 07:22:29 GMT 49.739456 2.259497 29,125 44 407 -2688
2020-12-02 07:22:26 GMT 49.739456 2.259497 29,250 44 407 -3136
2020-12-02 07:22:23 GMT 49.736755 2.255450 29,350 43 408 -3328
2020-12-02 07:22:20 GMT 49.731709 2.248040 29,550 43 407 -3328
2020-12-02 07:22:17 GMT 49.727646 2.242006 29,675 43 407 -2880
2020-12-02 07:22:14 GMT 49.723560 2.235940 29,825 43 408 -2624
2020-12-02 07:22:10 GMT 49.717464 2.226884 29,975 44 408 -2816
2020-12-02 07:22:07 GMT 49.714066 2.221836 30,650 44 414 -2112
2020-12-02 07:22:03 GMT 49.708328 2.213311 30,350 44 410 -2624
2020-12-02 07:22:00 GMT 49.704666 2.207818 30,400 44 410 -2048
2020-12-02 07:21:57 GMT 49.701122 2.202462 30,475 44 412 -1728
2020-12-02 07:21:54 GMT 49.696049 2.194964 30,650 44 414 -2112
2020-12-02 07:21:51 GMT 49.692093 2.189026 30,725 44 414 -2112
2020-12-02 07:21:48 GMT 49.689205 2.184720 30,950 44 416 -1024
2020-12-02 07:21:45 GMT 49.683853 2.176703 30,975 44 415 -1536
2020-12-02 07:21:42 GMT 49.680130 2.171136 30,950 44 419 0
2020-12-02 07:21:39 GMT 49.675289 2.163935 30,975 44 418 -256
2020-12-02 07:21:36 GMT 49.670975 2.157512 30,975 44 420 -64
2020-12-02 07:21:33 GMT 49.668045 2.153103 31,000 44 420 -64
2020-12-02 07:21:30 GMT 49.663971 2.147104 31,000 44 420 -64
2020-12-02 07:21:27 GMT 49.659668 2.140672 31,000 43 419 -64
2020-12-02 07:21:24 GMT 49.654900 2.133649 31,000 43 419 0
2020-12-02 07:21:21 GMT 49.651035 2.127859 31,000 43 419 0
2020-12-02 07:21:18 GMT 49.642776 2.115591 31,000 43 419 0
2020-12-02 07:21:15 GMT 49.642776 2.115591 31,000 43 419 0
2020-12-02 07:21:12 GMT 49.638046 2.108558 31,000 43 419 0
2020-12-02 07:21:09 GMT 49.634125 2.102798 31,000 43 419 0
2020-12-02 07:21:06 GMT 49.630646 2.097594 31,000 43 419 0
2020-12-02 07:21:03 GMT 49.625896 2.090594 31,000 43 420 0
2020-12-02 07:21:00 GMT 49.622223 2.085162 31,000 43 420 0
2020-12-02 07:20:57 GMT 49.617470 2.078123 31,000 43 419 0
2020-12-02 07:20:54 GMT 49.613297 2.071935 31,000 43 419 0
2020-12-02 07:20:51 GMT 49.608810 2.065355 31,000 43 419 0
2020-12-02 07:20:48 GMT 49.603924 2.058081 31,000 44 419 0
2020-12-02 07:20:45 GMT 49.600712 2.053330 31,000 43 419 0
2020-12-02 07:20:42 GMT 49.595993 2.046276 31,000 44 419 0
2020-12-02 07:20:39 GMT 49.592659 2.041304 31,000 44 419 0
2020-12-02 07:20:36 GMT 49.588329 2.034920 31,000 44 419 0
2020-12-02 07:20:33 GMT 49.584324 2.028908 31,000 44 418 0
2020-12-02 07:20:30 GMT 49.579834 2.022279 31,000 44 418 0
2020-12-02 07:20:27 GMT 49.575665 2.016065 31,000 44 418 -64
2020-12-02 07:20:24 GMT 49.571503 2.009848 31,000 44 418 0
2020-12-02 07:20:21 GMT 49.566776 2.002852 31,000 44 418 0
2020-12-02 07:20:15 GMT 49.559418 1.991866 31,000 44 418 0
2020-12-02 07:20:12 GMT 49.555370 1.985853 31,000 44 418 0
2020-12-02 07:20:09 GMT 49.545918 1.971823 31,000 44 418 0
2020-12-02 07:20:06 GMT 49.545918 1.971823 31,000 44 418 0
2020-12-02 07:20:03 GMT 49.542023 1.966047 31,000 44 418 64
2020-12-02 07:19:59 GMT 49.536346 1.957590 31,000 44 418 0
2020-12-02 07:19:56 GMT 49.532867 1.952386 31,000 43 417 0
2020-12-02 07:19:53 GMT 49.528839 1.946459 31,000 43 418 0
2020-12-02 07:19:50 GMT 49.524216 1.939665 31,000 43 417 0
2020-12-02 07:19:47 GMT 49.520187 1.933666 31,000 43 417 0
2020-12-02 07:19:44 GMT 49.514511 1.925209 31,000 43 417 0
2020-12-02 07:19:41 GMT 49.512543 1.922318 31,000 44 418 0
2020-12-02 07:19:38 GMT 49.507690 1.915090 31,000 43 418 0
2020-12-02 07:19:35 GMT 49.503662 1.909164 31,000 44 418 0
2020-12-02 07:19:32 GMT 49.499313 1.902731 31,000 43 417 0
2020-12-02 07:19:29 GMT 49.495178 1.896552 31,000 43 418 0
2020-12-02 07:19:26 GMT 49.490570 1.889797 31,000 43 418 0
2020-12-02 07:19:23 GMT 49.485958 1.883042 31,000 43 418 0
2020-12-02 07:19:20 GMT 49.481628 1.876658 31,000 43 418 0
2020-12-02 07:19:17 GMT 49.477203 1.870061 31,000 43 418 0
2020-12-02 07:19:14 GMT 49.473297 1.864335 31,000 43 418 0
2020-12-02 07:19:11 GMT 49.469650 1.859002 31,000 43 418 0
2020-12-02 07:19:08 GMT 49.465073 1.852208 31,000 43 418 0
2020-12-02 07:19:05 GMT 49.460999 1.846281 31,000 43 417 0
2020-12-02 07:19:02 GMT 49.451138 1.831673 31,000 43 417 0
2020-12-02 07:18:59 GMT 49.451138 1.831673 31,000 43 417 0
2020-12-02 07:18:56 GMT 49.449184 1.828778 31,000 43 417 0
2020-12-02 07:18:53 GMT 49.444611 1.822068 31,000 43 417 0
2020-12-02 07:18:50 GMT 49.439896 1.815057 31,000 43 417 0
2020-12-02 07:18:47 GMT 49.437080 1.810963 31,000 43 418 0
2020-12-02 07:18:44 GMT 49.432343 1.803926 31,000 43 417 0
2020-12-02 07:18:41 GMT 49.429165 1.799234 31,000 43 417 0
2020-12-02 07:18:38 GMT 49.423462 1.790842 31,000 43 418 0
2020-12-02 07:18:35 GMT 49.419388 1.784926 31,000 43 418 0
2020-12-02 07:18:32 GMT 49.416046 1.779996 31,000 43 417 0
2020-12-02 07:18:29 GMT 49.411743 1.773658 31,000 43 416 0
2020-12-02 07:18:26 GMT 49.407288 1.767064 31,000 43 417 0
2020-12-02 07:18:23 GMT 49.403137 1.760911 31,000 43 417 0
2020-12-02 07:18:20 GMT 49.397964 1.753376 31,000 43 417 0
2020-12-02 07:18:17 GMT 49.394623 1.748416 31,000 43 416 0
2020-12-02 07:18:14 GMT 49.390457 1.742319 31,000 43 417 0
2020-12-02 07:18:11 GMT 49.386841 1.737037 31,000 43 417 0
2020-12-02 07:18:08 GMT 49.378098 1.724501 31,000 44 416 128
2020-12-02 07:18:05 GMT 49.378098 1.724501 31,000 43 417 0
2020-12-02 07:18:02 GMT 49.373489 1.717843 31,000 42 416 0
2020-12-02 07:17:59 GMT 49.365601 1.706613 31,000 43 416 0
2020-12-02 07:17:56 GMT 49.365601 1.706613 31,000 43 416 0
2020-12-02 07:17:53 GMT 49.360828 1.699773 31,000 43 416 0
2020-12-02 07:17:50 GMT 49.356628 1.693726 31,000 43 416 0
2020-12-02 07:17:47 GMT 49.352959 1.688497 31,000 44 416 -128
2020-12-02 07:17:44 GMT 49.347656 1.680838 31,000 84 454 0
2020-12-02 07:17:41 GMT 49.344582 1.676355 31,000 43 415 0
2020-12-02 07:17:38 GMT 49.339413 1.668910 31,000 43 415 0
2020-12-02 07:17:35 GMT 49.336212 1.664217 31,000 43 415 0
2020-12-02 07:17:32 GMT 49.332619 1.658936 31,000 43 416 0
2020-12-02 07:17:29 GMT 49.327354 1.651129 31,000 44 415 0
2020-12-02 07:17:26 GMT 49.323494 1.645419 31,000 44 416 64
2020-12-02 07:17:23 GMT 49.320049 1.640215 31,000 75 444 -64
2020-12-02 07:17:20 GMT 49.314972 1.632626 30,975 44 416 64
2020-12-02 07:17:17 GMT 49.307106 1.620917 31,000 44 416 0
2020-12-02 07:17:14 GMT 49.307106 1.620917 31,000 44 417 -64
2020-12-02 07:17:11 GMT 49.302979 1.614779 31,000 45 417 -192
2020-12-02 07:17:07 GMT 49.297607 1.606317 31,000 47 418 256
2020-12-02 07:17:04 GMT 49.293095 1.598583 30,975 75 444 -64
2020-12-02 07:17:01 GMT 49.290115 1.593088 30,975 52 422 -128
2020-12-02 07:16:58 GMT 49.286224 1.585341 31,000 53 423 -192
2020-12-02 07:16:55 GMT 49.283272 1.578996 31,000 58 426 192
2020-12-02 07:16:51 GMT 49.278992 1.568862 31,000 59 428 192
2020-12-02 07:16:48 GMT 49.276009 1.561070 31,000 60 428 320
2020-12-02 07:16:45 GMT 49.272766 1.552030 31,000 65 432 -128
2020-12-02 07:16:42 GMT 49.270111 1.543509 30,975 65 432 -128
2020-12-02 07:16:38 GMT 49.267212 1.533388 30,975 72 440 256
2020-12-02 07:16:35 GMT 49.264511 1.522763 31,000 70 438 256
2020-12-02 07:16:32 GMT 49.262512 1.514001 30,975 72 440 256
2020-12-02 07:16:29 GMT 49.260693 1.504476 30,975 75 444 -64
2020-12-02 07:16:26 GMT 49.259670 1.498333 31,000 78 447 -192
2020-12-02 07:16:23 GMT 49.258133 1.487274 31,000 80 449 -192
2020-12-02 07:16:20 GMT 49.257339 1.479422 31,000 82 451 -128
2020-12-02 07:16:17 GMT 49.256470 1.469281 31,000 83 453 0
2020-12-02 07:16:14 GMT 49.255875 1.460055 31,000 84 454 0
2020-12-02 07:16:11 GMT 49.255188 1.448857 31,000 84 454 0
2020-12-02 07:16:08 GMT 49.254639 1.440265 31,000 84 454 0
2020-12-02 07:16:05 GMT 49.254089 1.431321 31,000 84 454 0
2020-12-02 07:16:01 GMT 49.253357 1.419490 31,000 84 454 0
2020-12-02 07:15:58 GMT 49.252453 1.405816 31,000 84 454 0
2020-12-02 07:15:55 GMT 49.252075 1.399771 31,000 84 454 0
2020-12-02 07:15:52 GMT 49.250839 1.379629 31,000 84 454 0
2020-12-02 07:15:49 GMT 49.250839 1.379629 31,000 84 454 0
2020-12-02 07:15:46 GMT 49.250172 1.369099 31,000 84 454 0
2020-12-02 07:15:43 GMT 49.249660 1.361148 31,000 84 454 0
2020-12-02 07:15:40 GMT 49.249054 1.351600 31,000 84 454 0
2020-12-02 07:15:37 GMT 49.248550 1.342938 31,000 84 454 0
2020-12-02 07:15:34 GMT 49.247238 1.322190 31,000 84 454 0
2020-12-02 07:15:31 GMT 49.247238 1.322190 31,000 84 454 0
2020-12-02 07:15:28 GMT 49.246674 1.312655 31,000 84 454 0
2020-12-02 07:15:25 GMT 49.245422 1.293206 31,000 84 454 0
2020-12-02 07:15:22 GMT 49.245422 1.293206 31,000 84 454 0
2020-12-02 07:15:19 GMT 49.244980 1.285823 31,000 84 454 0
2020-12-02 07:15:16 GMT 49.243793 1.267042 31,000 84 455 0
2020-12-02 07:15:10 GMT 49.242920 1.253639 31,000 84 455 0
2020-12-02 07:15:07 GMT 49.242397 1.245286 31,000 84 455 0
2020-12-02 07:15:04 GMT 49.241886 1.237335 31,000 84 454 0
2020-12-02 07:15:01 GMT 49.241375 1.228734 31,000 84 454 0
2020-12-02 07:14:58 GMT 49.240398 1.213700 31,000 84 454 0
2020-12-02 07:14:55 GMT 49.239651 1.202497 31,000 84 454 0
2020-12-02 07:14:52 GMT 49.239441 1.198989 31,000 84 455 0
2020-12-02 07:14:49 GMT 49.238800 1.189129 31,000 84 455 0
2020-12-02 07:14:46 GMT 49.238255 1.180813 31,000 84 454 0
2020-12-02 07:14:43 GMT 49.237518 1.169340 31,000 84 454 0
2020-12-02 07:14:40 GMT 49.236904 1.159780 31,000 84 454 0
2020-12-02 07:14:37 GMT 49.236206 1.148577 31,000 84 454 0
2020-12-02 07:14:33 GMT 49.235550 1.138353 31,000 84 454 0
2020-12-02 07:14:30 GMT 49.234905 1.128195 31,000 84 454 0
2020-12-02 07:14:27 GMT 49.234299 1.118582 31,000 84 454 0
2020-12-02 07:14:24 GMT 49.233692 1.109691 31,000 84 454 0
2020-12-02 07:14:21 GMT 49.233124 1.100393 31,000 84 454 0
2020-12-02 07:14:18 GMT 49.232529 1.091802 31,000 84 453 0
2020-12-02 07:14:15 GMT 49.231785 1.080346 31,000 84 454 0
2020-12-02 07:14:12 GMT 49.231201 1.071449 31,000 84 454 0
2020-12-02 07:14:09 GMT 49.230698 1.063491 31,000 84 454 0
2020-12-02 07:14:06 GMT 49.229923 1.052013 31,000 84 454 0
2020-12-02 07:14:03 GMT 49.229130 1.039581 31,000 84 454 0
2020-12-02 07:14:00 GMT 49.228592 1.031306 31,000 84 454 0
2020-12-02 07:13:57 GMT 49.228107 1.023680 31,000 84 454 0
2020-12-02 07:13:54 GMT 49.226711 1.001996 31,000 84 453 0
2020-12-02 07:13:51 GMT 49.226711 1.001996 31,000 84 453 0
2020-12-02 07:13:48 GMT 49.226166 0.993770 31,000 84 453 0
2020-12-02 07:13:45 GMT 49.225548 0.984216 31,000 84 453 0
2020-12-02 07:13:42 GMT 49.224930 0.974684 31,000 84 453 0
2020-12-02 07:13:38 GMT 49.224197 0.963557 31,000 84 453 0
2020-12-02 07:13:35 GMT 49.223465 0.952430 31,000 84 453 0
2020-12-02 07:13:32 GMT 49.222847 0.943523 31,000 84 453 0
2020-12-02 07:13:29 GMT 49.222137 0.932711 31,000 84 453 0
2020-12-02 07:13:26 GMT 49.221542 0.924119 31,000 84 453 0
2020-12-02 07:13:23 GMT 49.220764 0.912358 31,000 84 453 0
2020-12-02 07:13:20 GMT 49.220306 0.905668 31,000 84 453 0
2020-12-02 07:13:17 GMT 49.219589 0.894880 31,000 84 453 0
2020-12-02 07:13:14 GMT 49.219074 0.886929 31,000 84 453 0
2020-12-02 07:13:11 GMT 49.218521 0.878977 31,000 84 453 0
2020-12-02 07:13:08 GMT 49.217865 0.868787 31,000 84 453 0
2020-12-02 07:13:05 GMT 49.217148 0.857990 31,000 84 453 0
2020-12-02 07:13:02 GMT 49.215630 0.835467 31,000 84 453 0
2020-12-02 07:12:58 GMT 49.215630 0.835467 31,000 84 453 0
2020-12-02 07:12:55 GMT 49.214996 0.825876 31,000 84 453 0
2020-12-02 07:12:52 GMT 49.214218 0.814467 31,000 84 453 0
2020-12-02 07:12:49 GMT 49.213760 0.807495 31,000 84 453 0
2020-12-02 07:12:46 GMT 49.213074 0.797636 31,000 84 453 0
2020-12-02 07:12:43 GMT 49.212513 0.789353 31,000 84 453 0
2020-12-02 07:12:40 GMT 49.211838 0.779818 31,000 84 453 0
2020-12-02 07:12:37 GMT 49.211067 0.768392 31,000 84 453 0
2020-12-02 07:12:34 GMT 49.210419 0.758490 31,000 84 453 0
2020-12-02 07:12:31 GMT 49.209904 0.750540 31,000 84 453 0
2020-12-02 07:12:28 GMT 49.209206 0.740710 31,000 84 453 0
2020-12-02 07:12:25 GMT 49.207855 0.720978 31,000 84 453 0
2020-12-02 07:12:22 GMT 49.207855 0.720978 31,000 84 453 0
2020-12-02 07:12:19 GMT 49.207157 0.710425 31,000 84 453 0
2020-12-02 07:12:16 GMT 49.206390 0.699604 31,000 83 453 0
2020-12-02 07:12:13 GMT 49.205933 0.692632 31,000 84 454 0
2020-12-02 07:12:10 GMT 49.205158 0.681514 31,000 84 454 0
2020-12-02 07:12:07 GMT 49.204506 0.672262 31,000 84 454 0
2020-12-02 07:12:04 GMT 49.203899 0.663372 31,000 84 454 0
2020-12-02 07:12:01 GMT 49.203186 0.653123 31,000 84 454 0
2020-12-02 07:11:58 GMT 49.202644 0.644869 31,000 83 454 0
2020-12-02 07:11:55 GMT 49.201992 0.635617 31,000 84 454 0
2020-12-02 07:11:52 GMT 49.201294 0.625137 31,000 84 454 0
2020-12-02 07:11:49 GMT 49.200596 0.615234 31,000 83 453 0
2020-12-02 07:11:46 GMT 49.199989 0.605983 31,000 83 454 0
2020-12-02 07:11:43 GMT 49.199249 0.595797 31,000 83 454 0
2020-12-02 07:11:40 GMT 49.198780 0.588780 31,000 83 454 0
2020-12-02 07:11:37 GMT 49.198082 0.578589 31,000 83 454 0
2020-12-02 07:11:34 GMT 49.197281 0.567486 31,000 83 454 0
2020-12-02 07:11:31 GMT 49.196636 0.558207 31,000 83 454 0
2020-12-02 07:11:28 GMT 49.195847 0.547076 31,000 83 454 0
2020-12-02 07:11:25 GMT 49.195267 0.538471 31,000 83 454 0
2020-12-02 07:11:22 GMT 49.194809 0.532133 31,000 83 454 0
2020-12-02 07:11:19 GMT 49.193985 0.520044 31,000 83 454 0
2020-12-02 07:11:16 GMT 49.193344 0.511076 31,000 83 454 0
2020-12-02 07:11:13 GMT 49.192539 0.500312 31,000 83 454 0
2020-12-02 07:11:10 GMT 49.192017 0.492624 31,000 83 454 0
2020-12-02 07:11:07 GMT 49.191284 0.482097 31,000 83 454 0
2020-12-02 07:11:04 GMT 49.190643 0.472553 31,000 83 454 0
2020-12-02 07:11:01 GMT 49.190002 0.463327 31,000 83 454 0
2020-12-02 07:10:58 GMT 49.188770 0.445886 31,000 83 453 0
2020-12-02 07:10:55 GMT 49.188770 0.445886 31,000 83 453 0
2020-12-02 07:10:52 GMT 49.187943 0.433749 31,000 83 453 0
2020-12-02 07:10:49 GMT 49.187302 0.424523 31,000 83 453 0
2020-12-02 07:10:46 GMT 49.186432 0.412762 31,000 83 453 0
2020-12-02 07:10:43 GMT 49.185978 0.406133 31,000 83 453 0
2020-12-02 07:10:40 GMT 49.184738 0.388677 31,000 83 453 0
2020-12-02 07:10:37 GMT 49.184738 0.388677 31,000 83 453 0
2020-12-02 07:10:34 GMT 49.183975 0.377872 31,000 83 453 0
2020-12-02 07:10:31 GMT 49.183411 0.369591 31,000 83 452 0
2020-12-02 07:10:28 GMT 49.182449 0.355929 31,000 83 452 0
2020-12-02 07:10:25 GMT 49.181881 0.348310 31,000 83 452 0
2020-12-02 07:10:22 GMT 49.180531 0.329301 31,000 83 452 0
2020-12-02 07:10:19 GMT 49.179878 0.320121 31,000 83 452 0
2020-12-02 07:10:16 GMT 49.179878 0.320121 31,000 83 452 0
2020-12-02 07:10:13 GMT 49.179180 0.310581 31,000 83 452 0
2020-12-02 07:10:10 GMT 49.178513 0.301701 31,000 83 452 0
2020-12-02 07:10:07 GMT 49.177643 0.289331 31,000 83 452 0
2020-12-02 07:10:04 GMT 49.177048 0.281419 31,000 83 452 0
2020-12-02 07:10:01 GMT 49.175549 0.260853 31,000 83 452 0
2020-12-02 07:09:58 GMT 49.175549 0.260853 31,000 83 452 0
2020-12-02 07:09:55 GMT 49.175079 0.253883 31,000 83 452 0
2020-12-02 07:09:52 GMT 49.174347 0.244094 31,000 83 451 0
2020-12-02 07:09:49 GMT 49.173454 0.231363 31,000 83 451 0
2020-12-02 07:09:46 GMT 49.172943 0.224786 31,000 83 451 0
2020-12-02 07:09:43 GMT 49.172291 0.215607 31,000 83 451 0
2020-12-02 07:09:40 GMT 49.171600 0.206064 31,000 83 451 0
2020-12-02 07:09:36 GMT 49.170383 0.189659 31,000 83 451 0
2020-12-02 07:09:33 GMT 49.169861 0.182683 31,000 83 451 0
2020-12-02 07:09:29 GMT 49.168987 0.170649 31,000 83 451 0
2020-12-02 07:09:26 GMT 49.168304 0.161203 31,000 83 451 0
2020-12-02 07:09:23 GMT 49.167709 0.153245 31,000 83 451 0
2020-12-02 07:09:20 GMT 49.167023 0.143808 31,000 83 451 0
2020-12-02 07:09:17 GMT 49.166191 0.132125 31,000 83 450 0
2020-12-02 07:09:14 GMT 49.165588 0.123885 31,000 83 450 0
2020-12-02 07:09:11 GMT 49.164890 0.114706 31,000 83 450 0
2020-12-02 07:09:08 GMT 49.164185 0.105215 31,000 83 450 64
2020-12-02 07:09:05 GMT 49.163406 0.094792 31,000 83 450 0
2020-12-02 07:09:02 GMT 49.162811 0.086271 31,000 83 450 0
2020-12-02 07:08:59 GMT 49.162003 0.075531 31,000 83 450 0
2020-12-02 07:08:56 GMT 49.161259 0.065123 31,000 83 450 0
2020-12-02 07:08:53 GMT 49.160614 0.056904 31,000 83 450 0
2020-12-02 07:08:50 GMT 49.160049 0.049366 31,000 83 450 -64
2020-12-02 07:08:47 GMT 49.159119 0.036428 31,000 83 450 -64
2020-12-02 07:08:44 GMT 49.158554 0.028804 31,000 83 450 -64
2020-12-02 07:08:41 GMT 49.157951 0.020961 31,000 83 450 0
2020-12-02 07:08:38 GMT 49.157181 0.010212 31,000 83 450 0
2020-12-02 07:08:35 GMT 49.156464 0.000723 31,000 83 450 0
2020-12-02 07:08:32 GMT 49.155899 -0.006831 31,000 83 450 0
2020-12-02 07:08:29 GMT 49.155029 -0.018522 31,000 83 450 -64
2020-12-02 07:08:26 GMT 49.154160 -0.030212 31,000 83 451 0
2020-12-02 07:08:23 GMT 49.153564 -0.038100 31,000 83 450 0
2020-12-02 07:08:20 GMT 49.153111 -0.044090 31,000 83 450 0
2020-12-02 07:08:17 GMT 49.152225 -0.055727 31,000 83 450 0
2020-12-02 07:08:14 GMT 49.151390 -0.066496 31,000 83 449 0
2020-12-02 07:08:11 GMT 49.150818 -0.074369 31,000 83 450 0
2020-12-02 07:08:08 GMT 49.149853 -0.087240 31,000 83 449 0
2020-12-02 07:08:05 GMT 49.149296 -0.094179 31,000 83 449 0
2020-12-02 07:08:02 GMT 49.148621 -0.103595 31,000 83 449 0
2020-12-02 07:07:59 GMT 49.147842 -0.114018 31,000 83 449 0
2020-12-02 07:07:55 GMT 49.146286 -0.134794 31,000 83 450 0
2020-12-02 07:07:52 GMT 49.146286 -0.134794 31,000 83 450 0
2020-12-02 07:07:49 GMT 49.145508 -0.144583 31,000 83 450 0
2020-12-02 07:07:46 GMT 49.144871 -0.153375 31,000 83 450 0
2020-12-02 07:07:43 GMT 49.144081 -0.163783 31,000 83 450 0
2020-12-02 07:07:40 GMT 49.143356 -0.173176 31,000 83 450 0
2020-12-02 07:07:37 GMT 49.142578 -0.182965 31,000 83 450 0
2020-12-02 07:07:34 GMT 49.141891 -0.192049 31,000 83 450 64
2020-12-02 07:07:31 GMT 49.140961 -0.204042 31,000 83 450 0
2020-12-02 07:07:28 GMT 49.140495 -0.210330 31,000 83 449 0
2020-12-02 07:07:25 GMT 49.139603 -0.221628 31,000 83 450 64
2020-12-02 07:07:22 GMT 49.138866 -0.231725 31,000 83 450 0
2020-12-02 07:07:19 GMT 49.138309 -0.238664 31,000 83 450 0
2020-12-02 07:07:16 GMT 49.137589 -0.248108 31,000 83 450 0
2020-12-02 07:07:13 GMT 49.136677 -0.259697 31,000 83 450 -64
2020-12-02 07:07:10 GMT 49.136124 -0.266982 31,000 83 450 -64
2020-12-02 07:07:06 GMT 49.134430 -0.288955 31,000 83 449 0
2020-12-02 07:07:03 GMT 49.134430 -0.288955 31,000 83 449 0
2020-12-02 07:07:00 GMT 49.133652 -0.299016 31,000 83 449 0
2020-12-02 07:06:57 GMT 49.132954 -0.308123 31,000 83 449 0
2020-12-02 07:06:54 GMT 49.132256 -0.317230 31,000 83 449 -64
2020-12-02 07:06:51 GMT 49.131512 -0.326988 31,000 83 449 0
2020-12-02 07:06:48 GMT 49.130951 -0.334449 31,000 83 449 0
2020-12-02 07:06:45 GMT 49.130161 -0.344551 31,000 83 448 0
2020-12-02 07:06:42 GMT 49.129211 -0.357056 31,000 83 448 0
2020-12-02 07:06:39 GMT 49.128708 -0.363324 31,000 83 448 0
2020-12-02 07:06:36 GMT 49.127884 -0.373676 31,000 83 448 0
2020-12-02 07:06:33 GMT 49.127182 -0.383076 31,000 83 448 0
2020-12-02 07:06:30 GMT 49.126511 -0.391212 31,000 83 448 0
2020-12-02 07:06:27 GMT 49.125732 -0.401564 31,000 83 448 0
2020-12-02 07:06:24 GMT 49.124863 -0.412551 31,000 83 448 0
2020-12-02 07:06:21 GMT 49.124157 -0.421311 31,000 83 448 0
2020-12-02 07:06:18 GMT 49.123581 -0.428819 31,000 83 448 0
2020-12-02 07:06:15 GMT 49.122852 -0.437863 31,000 83 448 0
2020-12-02 07:06:12 GMT 49.122013 -0.448849 31,000 83 448 0
2020-12-02 07:06:09 GMT 49.121223 -0.458896 31,000 83 448 0
2020-12-02 07:06:06 GMT 49.120384 -0.469521 31,000 83 448 0
2020-12-02 07:06:03 GMT 49.119827 -0.476749 31,000 83 448 -64
2020-12-02 07:06:00 GMT 49.119034 -0.487085 31,000 83 448 0
2020-12-02 07:05:57 GMT 49.118431 -0.494891 31,000 83 448 0
2020-12-02 07:05:54 GMT 49.117405 -0.507756 31,000 83 447 0
2020-12-02 07:05:51 GMT 49.116848 -0.514623 31,000 83 447 0
2020-12-02 07:05:48 GMT 49.116119 -0.523330 31,000 82 447 0
2020-12-02 07:05:45 GMT 49.115387 -0.532414 31,000 83 447 0
2020-12-02 07:05:42 GMT 49.114521 -0.543390 31,000 83 447 0
2020-12-02 07:05:39 GMT 49.113876 -0.551781 31,000 83 447 0
2020-12-02 07:05:36 GMT 49.113125 -0.561170 31,000 83 447 0
2020-12-02 07:05:33 GMT 49.112331 -0.570855 31,000 83 447 0
2020-12-02 07:05:30 GMT 49.111588 -0.580233 31,000 83 447 0
2020-12-02 07:05:27 GMT 49.110889 -0.588997 31,000 82 447 0
2020-12-02 07:05:24 GMT 49.110191 -0.598104 31,000 82 447 0
2020-12-02 07:05:21 GMT 49.109398 -0.607428 31,000 82 447 0
2020-12-02 07:05:18 GMT 49.108521 -0.618051 31,000 82 447 0
2020-12-02 07:05:15 GMT 49.107723 -0.628100 31,000 83 447 64
2020-12-02 07:05:12 GMT 49.106747 -0.640604 31,000 83 447 64
2020-12-02 07:05:09 GMT 49.106140 -0.647771 31,000 83 447 0
2020-12-02 07:05:06 GMT 49.105545 -0.655588 31,000 83 447 0
2020-12-02 07:05:03 GMT 49.104813 -0.664673 31,000 83 447 0
2020-12-02 07:05:00 GMT 49.104126 -0.673053 31,000 83 447 0
2020-12-02 07:04:57 GMT 49.102570 -0.692772 31,000 83 447 0
2020-12-02 07:04:54 GMT 49.102570 -0.692772 31,000 82 447 0
2020-12-02 07:04:51 GMT 49.101906 -0.700884 31,000 82 447 0
2020-12-02 07:04:48 GMT 49.101021 -0.711798 31,000 82 447 0
2020-12-02 07:04:45 GMT 49.100086 -0.723363 31,000 82 448 -192
2020-12-02 07:04:41 GMT 49.099274 -0.733408 31,000 83 447 0
2020-12-02 07:04:38 GMT 49.098221 -0.746225 30,975 82 447 0
2020-12-02 07:04:34 GMT 49.097488 -0.755240 31,000 83 447 0
2020-12-02 07:04:31 GMT 49.096737 -0.764634 31,000 83 447 0
2020-12-02 07:04:28 GMT 49.096039 -0.773091 30,975 82 449 -128
2020-12-02 07:04:25 GMT 49.094360 -0.794340 31,000 82 447 0
2020-12-02 07:04:22 GMT 49.094360 -0.794340 30,975 82 447 64
2020-12-02 07:04:19 GMT 49.093758 -0.801496 30,975 82 448 64
2020-12-02 07:04:16 GMT 49.092728 -0.813974 30,975 82 447 64
2020-12-02 07:04:13 GMT 49.091988 -0.823324 30,975 82 447 64
2020-12-02 07:04:10 GMT 49.091476 -0.829612 30,975 82 447 64
2020-12-02 07:04:07 GMT 49.090687 -0.839298 30,975 82 447 -64
2020-12-02 07:04:04 GMT 49.089893 -0.848983 30,975 82 447 -128
2020-12-02 07:04:00 GMT 49.088837 -0.861441 31,000 82 447 0
2020-12-02 07:03:57 GMT 49.088104 -0.870526 30,975 82 447 192
2020-12-02 07:03:54 GMT 49.086960 -0.884259 31,000 82 448 -64
2020-12-02 07:03:51 GMT 49.086353 -0.891772 30,975 82 448 -64
2020-12-02 07:03:48 GMT 49.085678 -0.899541 30,975 82 448 -128
2020-12-02 07:03:45 GMT 49.085007 -0.907673 30,975 82 448 -192
2020-12-02 07:03:42 GMT 49.084167 -0.917711 30,975 82 448 256
2020-12-02 07:03:39 GMT 49.083389 -0.927359 30,950 82 448 256
2020-12-02 07:03:36 GMT 49.082336 -0.939613 31,000 82 448 -512
2020-12-02 07:03:32 GMT 49.081421 -0.950245 30,975 82 448 -512
2020-12-02 07:03:29 GMT 49.079697 -0.971567 31,025 82 448 -128
2020-12-02 07:03:25 GMT 49.079697 -0.971567 31,025 82 448 -128
2020-12-02 07:03:22 GMT 49.078949 -0.980319 31,000 82 448 320
2020-12-02 07:03:19 GMT 49.078163 -0.989709 31,000 82 449 -128
2020-12-02 07:03:16 GMT 49.077324 -1.000045 31,000 82 448 -256
2020-12-02 07:03:13 GMT 49.076752 -1.006587 31,000 82 448 -256
2020-12-02 07:03:10 GMT 49.075745 -1.018841 31,000 82 448 192
2020-12-02 07:03:07 GMT 49.075134 -1.026354 31,000 82 449 128
2020-12-02 07:03:04 GMT 49.074203 -1.037268 31,000 82 449 384
2020-12-02 07:03:01 GMT 49.072762 -1.054543 31,025 82 449 -256
2020-12-02 07:02:58 GMT 49.072762 -1.054543 31,025 82 449 0
2020-12-02 07:02:55 GMT 49.071762 -1.066449 31,025 82 449 256
2020-12-02 07:02:52 GMT 49.070946 -1.075865 31,000 82 450 192
2020-12-02 07:02:49 GMT 49.070248 -1.084322 31,000 82 450 -320
2020-12-02 07:02:46 GMT 49.069611 -1.091872 31,025 82 450 -320
2020-12-02 07:02:43 GMT 49.068604 -1.104126 31,025 82 450 256
2020-12-02 07:02:40 GMT 49.067825 -1.113281 31,000 82 450 320
2020-12-02 07:02:37 GMT 49.067139 -1.121098 31,000 82 451 192
2020-12-02 07:02:34 GMT 49.066338 -1.130580 31,000 82 451 -64
2020-12-02 07:02:31 GMT 49.065407 -1.141566 31,025 82 451 64
2020-12-02 07:02:28 GMT 49.064667 -1.150395 31,000 82 451 256
2020-12-02 07:02:25 GMT 49.063934 -1.159198 31,000 82 452 -256
2020-12-02 07:02:22 GMT 49.063065 -1.169269 31,000 82 451 -384
2020-12-02 07:02:19 GMT 49.062332 -1.177439 31,000 82 451 -320
2020-12-02 07:02:16 GMT 49.061638 -1.185656 31,025 82 451 -192
2020-12-02 07:02:13 GMT 49.060658 -1.197293 31,000 82 451 320
2020-12-02 07:02:10 GMT 49.059952 -1.205538 31,000 82 452 320
2020-12-02 07:02:07 GMT 49.058853 -1.218426 31,000 82 452 -256
2020-12-02 07:02:03 GMT 49.057819 -1.230469 31,025 82 452 -192
2020-12-02 07:01:59 GMT 49.056931 -1.241173 31,000 82 453 320
2020-12-02 07:01:56 GMT 49.056198 -1.249695 31,000 82 453 320
2020-12-02 07:01:53 GMT 49.055397 -1.259236 31,000 82 453 64
2020-12-02 07:01:50 GMT 49.054504 -1.269977 31,025 82 453 -256
2020-12-02 07:01:47 GMT 49.053722 -1.278823 31,025 82 453 0
2020-12-02 07:01:44 GMT 49.052837 -1.289231 31,000 82 453 320
2020-12-02 07:01:41 GMT 49.052094 -1.298121 31,000 82 454 -64
2020-12-02 07:01:38 GMT 49.050980 -1.311106 31,000 82 455 -320
2020-12-02 07:01:35 GMT 49.050385 -1.317796 31,025 82 454 -192
2020-12-02 07:01:32 GMT 49.049744 -1.325402 31,025 82 454 128
2020-12-02 07:01:29 GMT 49.048782 -1.336529 31,000 82 454 256
2020-12-02 07:01:26 GMT 49.048042 -1.345392 31,000 82 455 0
2020-12-02 07:01:23 GMT 49.047180 -1.354910 31,000 82 455 -192
2020-12-02 07:01:20 GMT 49.046272 -1.365702 31,000 82 456 128
2020-12-02 07:01:17 GMT 49.045395 -1.375826 31,000 82 455 320
2020-12-02 07:01:14 GMT 49.044598 -1.384783 31,000 82 456 320
2020-12-02 07:01:11 GMT 49.043884 -1.393362 31,000 82 456 64
2020-12-02 07:01:08 GMT 49.043201 -1.400974 31,000 82 456 -320
2020-12-02 07:01:05 GMT 49.041962 -1.415264 31,025 82 456 192
2020-12-02 07:01:02 GMT 49.041573 -1.420055 31,000 82 456 320
2020-12-02 07:00:59 GMT 49.039524 -1.443618 31,000 82 457 -128
2020-12-02 07:00:56 GMT 49.039524 -1.443618 31,000 82 456 -256
2020-12-02 07:00:53 GMT 49.038803 -1.451886 31,025 82 457 -64
2020-12-02 07:00:49 GMT 49.037842 -1.462379 31,025 82 457 256
2020-12-02 07:00:46 GMT 49.036972 -1.472309 31,000 82 458 320
2020-12-02 07:00:43 GMT 49.036034 -1.483154 31,000 82 458 -192
2020-12-02 07:00:40 GMT 49.035187 -1.492732 31,025 82 458 -192
2020-12-02 07:00:37 GMT 49.034317 -1.502592 31,025 82 458 64
2020-12-02 07:00:34 GMT 49.033630 -1.510268 31,000 82 458 320
2020-12-02 07:00:31 GMT 49.031982 -1.529051 31,025 82 459 -320
2020-12-02 07:00:28 GMT 49.030956 -1.540616 31,025 82 459 -256
2020-12-02 07:00:25 GMT 49.030956 -1.540616 31,025 82 459 -128
2020-12-02 07:00:21 GMT 49.030060 -1.550481 31,000 82 459 320
2020-12-02 07:00:18 GMT 49.029144 -1.560709 31,000 82 459 320
2020-12-02 07:00:15 GMT 49.028164 -1.571912 31,000 82 460 -192
2020-12-02 07:00:12 GMT 49.026489 -1.590488 31,025 82 460 -256
2020-12-02 07:00:09 GMT 49.026489 -1.590488 31,025 82 460 256
2020-12-02 07:00:06 GMT 49.025482 -1.601962 31,000 82 460 128
2020-12-02 07:00:03 GMT 49.024815 -1.609642 31,000 82 461 0
2020-12-02 07:00:00 GMT 49.023926 -1.619286 31,000 82 460 -320
2020-12-02 06:59:57 GMT 49.022232 -1.637878 31,025 82 460 64
2020-12-02 06:59:50 GMT 49.020905 -1.652316 31,000 82 461 192
2020-12-02 06:59:47 GMT 49.020157 -1.660670 31,000 82 462 -128
2020-12-02 06:59:44 GMT 49.019211 -1.671260 31,025 82 464 320
2020-12-02 06:59:41 GMT 49.018204 -1.682498 31,025 82 461 64
2020-12-02 06:59:38 GMT 49.017506 -1.690232 31,000 82 462 320
2020-12-02 06:59:35 GMT 49.016327 -1.703374 31,000 82 462 -64
2020-12-02 06:59:31 GMT 49.015503 -1.712107 31,025 82 462 -320
2020-12-02 06:59:28 GMT 49.014587 -1.722037 31,025 82 462 64
2020-12-02 06:59:25 GMT 49.013626 -1.732671 31,000 82 462 256
2020-12-02 06:59:22 GMT 49.012711 -1.742345 31,000 82 464 64
2020-12-02 06:59:19 GMT 49.011917 -1.751380 31,000 82 464 -256
2020-12-02 06:59:16 GMT 49.011017 -1.761052 31,000 82 464 -320
2020-12-02 06:59:13 GMT 49.010101 -1.771401 31,025 82 464 256
2020-12-02 06:59:10 GMT 49.009312 -1.780147 31,000 82 465 -192
2020-12-02 06:59:07 GMT 49.008408 -1.789786 31,000 82 465 -192
2020-12-02 06:59:04 GMT 49.007309 -1.801758 31,000 82 465 0
2020-12-02 06:59:01 GMT 49.005707 -1.819223 31,025 82 465 -256
2020-12-02 06:58:58 GMT 49.005707 -1.819223 31,025 82 465 64
2020-12-02 06:58:55 GMT 49.004658 -1.830886 31,000 82 465 384
2020-12-02 06:58:52 GMT 49.003910 -1.838620 31,000 82 466 -128
2020-12-02 06:58:49 GMT 49.002792 -1.850979 31,000 82 467 -128
2020-12-02 06:58:46 GMT 49.002365 -1.855844 31,000 82 466 -256
2020-12-02 06:58:43 GMT 49.000946 -1.871056 31,000 81 466 320
2020-12-02 06:58:39 GMT 48.999756 -1.884085 31,000 82 467 -64
2020-12-02 06:58:33 GMT 48.998325 -1.899623 31,025 82 467 -128
2020-12-02 06:58:30 GMT 48.997395 -1.909742 30,975 82 469 64
2020-12-02 06:58:27 GMT 48.996368 -1.921090 31,000 82 467 256
2020-12-02 06:58:24 GMT 48.995361 -1.932185 31,000 82 468 -256
2020-12-02 06:58:20 GMT 48.994324 -1.943568 31,000 82 468 -256
2020-12-02 06:58:17 GMT 48.993484 -1.952675 31,000 82 468 128
2020-12-02 06:58:14 GMT 48.992523 -1.963102 31,000 82 469 448
2020-12-02 06:58:11 GMT 48.991699 -1.971905 30,975 82 470 -320
2020-12-02 06:58:08 GMT 48.990875 -1.981412 31,000 82 469 -576
2020-12-02 06:58:05 GMT 48.989777 -1.993455 31,025 82 469 -128
2020-12-02 06:58:02 GMT 48.988861 -2.003596 31,025 82 469 320
2020-12-02 06:57:59 GMT 48.988129 -2.011766 30,975 82 470 256
2020-12-02 06:57:56 GMT 48.987339 -2.020256 31,000 82 471 -64
2020-12-02 06:57:53 GMT 48.986317 -2.031676 30,975 82 471 -128
2020-12-02 06:57:50 GMT 48.984238 -2.054303 31,000 81 471 64
2020-12-02 06:57:46 GMT 48.984238 -2.054303 31,000 81 471 0
2020-12-02 06:57:43 GMT 48.983288 -2.064129 30,975 81 471 64
2020-12-02 06:57:40 GMT 48.981522 -2.082849 30,975 81 472 128
2020-12-02 06:57:37 GMT 48.981522 -2.082849 30,975 81 472 128
2020-12-02 06:57:34 GMT 48.980495 -2.093980 30,975 81 472 64
2020-12-02 06:57:31 GMT 48.979752 -2.101558 30,975 81 472 64
2020-12-02 06:57:28 GMT 48.978680 -2.112700 31,000 81 473 -320
2020-12-02 06:57:25 GMT 48.977840 -2.121590 30,975 81 473 -64
2020-12-02 06:57:22 GMT 48.976913 -2.131489 30,975 81 473 -64
2020-12-02 06:57:19 GMT 48.975815 -2.142968 30,975 81 473 -320
2020-12-02 06:57:16 GMT 48.974808 -2.153179 31,000 81 473 -384
2020-12-02 06:57:13 GMT 48.974030 -2.161771 31,025 81 473 -384
2020-12-02 06:57:10 GMT 48.972656 -2.176279 31,025 81 472 -128
2020-12-02 06:57:07 GMT 48.972210 -2.181148 31,025 81 472 128
2020-12-02 06:57:04 GMT 48.970963 -2.194308 31,025 81 472 320
2020-12-02 06:57:01 GMT 48.970253 -2.201530 31,025 81 472 192
2020-12-02 06:56:57 GMT 48.969040 -2.214731 31,025 81 472 -256
2020-12-02 06:56:54 GMT 48.968159 -2.223864 31,025 81 472 0
2020-12-02 06:56:51 GMT 48.967117 -2.235084 31,025 81 472 320
2020-12-02 06:56:47 GMT 48.965561 -2.251141 31,025 81 472 -128
2020-12-02 06:56:44 GMT 48.964920 -2.258043 31,025 81 472 -256
2020-12-02 06:56:41 GMT 48.963959 -2.268254 31,025 81 472 -64
2020-12-02 06:56:37 GMT 48.962807 -2.280747 31,025 81 472 320
2020-12-02 06:56:34 GMT 48.961853 -2.290579 31,025 81 472 -192
2020-12-02 06:56:31 GMT 48.960938 -2.300086 31,025 81 472 -192
2020-12-02 06:56:28 GMT 48.959885 -2.311566 31,025 81 472 0
2020-12-02 06:56:25 GMT 48.959061 -2.320087 31,025 81 472 256
2020-12-02 06:56:22 GMT 48.958099 -2.330299 31,025 81 471 64
2020-12-02 06:56:19 GMT 48.957230 -2.339806 31,025 81 472 -192
2020-12-02 06:56:16 GMT 48.956333 -2.348978 31,025 81 472 -256
2020-12-02 06:56:13 GMT 48.955265 -2.360470 31,025 81 471 64
2020-12-02 06:56:10 GMT 48.954666 -2.366990 31,025 81 471 256
2020-12-02 06:56:07 GMT 48.953339 -2.381146 31,025 81 472 0
2020-12-02 06:56:04 GMT 48.952606 -2.388963 31,025 81 472 -192
2020-12-02 06:56:01 GMT 48.951645 -2.399175 31,025 81 471 -128
2020-12-02 06:55:58 GMT 48.950592 -2.410654 31,025 81 472 128
2020-12-02 06:55:55 GMT 48.950096 -2.415836 31,025 81 472 128
2020-12-02 06:55:52 GMT 48.948608 -2.431954 31,025 81 472 -256
2020-12-02 06:55:49 GMT 48.948002 -2.438820 31,025 81 471 64
2020-12-02 06:55:46 GMT 48.947205 -2.447345 31,025 81 471 -192
2020-12-02 06:55:43 GMT 48.945831 -2.462064 31,025 81 471 320
2020-12-02 06:55:40 GMT 48.944962 -2.471572 31,025 81 471 -192
2020-12-02 06:55:36 GMT 48.944138 -2.480445 31,025 81 471 -256
2020-12-02 06:55:33 GMT 48.943405 -2.488262 31,025 81 471 -256
2020-12-02 06:55:30 GMT 48.942230 -2.500691 31,025 81 470 192
2020-12-02 06:55:27 GMT 48.941254 -2.510882 31,025 81 471 320
2020-12-02 06:55:24 GMT 48.940460 -2.519700 31,025 81 471 0
2020-12-02 06:55:21 GMT 48.939240 -2.532137 31,050 81 470 -192
2020-12-02 06:55:16 GMT 48.937855 -2.546443 31,025 81 470 576
2020-12-02 06:55:13 GMT 48.937061 -2.554610 31,000 81 470 448
2020-12-02 06:55:10 GMT 48.936039 -2.564729 31,000 81 470 -128
2020-12-02 06:55:07 GMT 48.934937 -2.575871 31,050 81 468 -256
2020-12-02 06:55:04 GMT 48.933895 -2.585618 31,075 81 468 -256
2020-12-02 06:55:00 GMT 48.932732 -2.596966 31,075 81 469 256
2020-12-02 06:54:56 GMT 48.931431 -2.609614 31,050 81 469 128
2020-12-02 06:54:53 GMT 48.930313 -2.620732 31,050 81 469 128
2020-12-02 06:54:50 GMT 48.929382 -2.629852 31,050 81 469 128
2020-12-02 06:54:46 GMT 48.927891 -2.644525 31,025 81 470 320
2020-12-02 06:54:43 GMT 48.926926 -2.654255 31,000 81 471 576
2020-12-02 06:54:40 GMT 48.926075 -2.662739 31,000 81 471 576
2020-12-02 06:54:37 GMT 48.924911 -2.674882 30,975 81 472 -192
2020-12-02 06:54:34 GMT 48.923935 -2.684350 30,975 81 472 -320
2020-12-02 06:54:31 GMT 48.923218 -2.691862 31,000 81 472 -128
2020-12-02 06:54:28 GMT 48.922073 -2.703360 30,975 81 472 320
2020-12-02 06:54:25 GMT 48.920883 -2.715102 30,975 81 472 256
2020-12-02 06:54:22 GMT 48.920425 -2.719680 30,975 81 473 -192
2020-12-02 06:54:19 GMT 48.919140 -2.732777 30,975 81 472 -384
2020-12-02 06:54:16 GMT 48.918163 -2.742968 31,000 81 472 0
2020-12-02 06:54:13 GMT 48.917313 -2.751441 31,000 81 472 128
2020-12-02 06:54:10 GMT 48.916351 -2.760949 30,975 81 472 256
2020-12-02 06:54:06 GMT 48.914951 -2.775349 30,975 81 472 -192
2020-12-02 06:54:03 GMT 48.913971 -2.785175 31,000 81 472 -256
2020-12-02 06:54:00 GMT 48.912994 -2.794936 31,000 81 471 192
2020-12-02 06:53:56 GMT 48.911644 -2.808380 30,975 81 471 0
2020-12-02 06:53:53 GMT 48.909828 -2.826667 31,000 81 471 -256
2020-12-02 06:53:50 GMT 48.909828 -2.826667 31,000 81 471 -256
2020-12-02 06:53:45 GMT 48.908249 -2.842994 31,000 81 471 192
2020-12-02 06:53:42 GMT 48.907269 -2.852759 30,975 81 471 0
2020-12-02 06:53:39 GMT 48.906464 -2.860600 30,975 81 471 0
2020-12-02 06:53:35 GMT 48.904953 -2.875953 31,000 81 470 -256
2020-12-02 06:53:32 GMT 48.904037 -2.885390 31,000 81 470 256
2020-12-02 06:53:29 GMT 48.903172 -2.893813 31,000 81 470 256
2020-12-02 06:53:25 GMT 48.901730 -2.908486 30,975 81 470 -192
2020-12-02 06:53:22 GMT 48.900742 -2.918279 31,000 81 469 -256
2020-12-02 06:53:19 GMT 48.899960 -2.926049 31,000 81 469 -128
2020-12-02 06:53:16 GMT 48.898682 -2.939124 31,000 81 469 256
2020-12-02 06:53:13 GMT 48.897865 -2.947227 31,000 81 469 256
2020-12-02 06:53:10 GMT 48.896713 -2.958562 31,000 81 469 -256
2020-12-02 06:53:06 GMT 48.895432 -2.971238 31,000 81 469 -256
2020-12-02 06:53:03 GMT 48.894608 -2.979391 31,000 81 468 -64
2020-12-02 06:53:00 GMT 48.893490 -2.990088 30,975 81 468 256
2020-12-02 06:52:57 GMT 48.892372 -3.001436 31,000 81 468 192
2020-12-02 06:52:54 GMT 48.891533 -3.009603 31,000 81 468 -192
2020-12-02 06:52:51 GMT 48.890671 -3.018001 31,000 81 468 -128
2020-12-02 06:52:48 GMT 48.889767 -3.027095 31,000 81 468 -128
2020-12-02 06:52:45 GMT 48.888603 -3.038443 31,000 81 468 256
2020-12-02 06:52:42 GMT 48.887486 -3.049140 30,975 81 468 128
2020-12-02 06:52:39 GMT 48.886600 -3.058175 31,000 81 467 -128
2020-12-02 06:52:36 GMT 48.885761 -3.066270 31,000 81 467 -128
2020-12-02 06:52:33 GMT 48.884598 -3.077617 31,000 81 466 128
2020-12-02 06:52:30 GMT 48.883575 -3.087299 31,000 81 467 256
2020-12-02 06:52:27 GMT 48.882458 -3.098289 30,975 81 467 -64
2020-12-02 06:52:24 GMT 48.881760 -3.105083 31,000 81 467 -128
2020-12-02 06:52:21 GMT 48.880733 -3.114769 31,000 81 466 -256
2020-12-02 06:52:18 GMT 48.879337 -3.128357 31,000 81 466 128
2020-12-02 06:52:15 GMT 48.878265 -3.138709 31,000 81 466 256
2020-12-02 06:52:12 GMT 48.876343 -3.157372 31,000 81 466 -192
2020-12-02 06:52:09 GMT 48.876343 -3.157372 31,000 81 466 -256
2020-12-02 06:52:06 GMT 48.875702 -3.163851 31,000 81 465 -256
2020-12-02 06:52:03 GMT 48.874355 -3.176711 31,000 81 465 -64
2020-12-02 06:51:59 GMT 48.873333 -3.186758 31,000 81 466 320
2020-12-02 06:51:56 GMT 48.872360 -3.196388 30,975 81 466 -128
2020-12-02 06:51:53 GMT 48.871307 -3.206458 31,000 81 466 0
2020-12-02 06:51:50 GMT 48.869522 -3.223853 31,000 81 466 64
2020-12-02 06:51:47 GMT 48.869522 -3.223853 31,000 81 466 128
2020-12-02 06:51:44 GMT 48.868286 -3.235755 31,000 81 466 256
2020-12-02 06:51:41 GMT 48.867279 -3.245122 31,000 81 466 -256
2020-12-02 06:51:38 GMT 48.866226 -3.255122 31,000 81 466 -256
2020-12-02 06:51:35 GMT 48.865280 -3.264240 31,000 81 466 -192
2020-12-02 06:51:32 GMT 48.864300 -3.273564 31,000 80 466 192
2020-12-02 06:51:29 GMT 48.863251 -3.283574 30,975 80 466 256
2020-12-02 06:51:26 GMT 48.861374 -3.301673 31,000 81 467 -192
2020-12-02 06:51:23 GMT 48.860207 -3.312667 31,000 81 467 -256
2020-12-02 06:51:20 GMT 48.860207 -3.312667 31,000 80 468 192
2020-12-02 06:51:17 GMT 48.859222 -3.322378 31,000 80 467 128
2020-12-02 06:51:14 GMT 48.858204 -3.331749 31,000 80 467 320
2020-12-02 06:51:11 GMT 48.857208 -3.341464 30,975 81 468 -192
2020-12-02 06:51:08 GMT 48.856110 -3.351842 31,000 81 468 -256
2020-12-02 06:51:05 GMT 48.854759 -3.364780 31,000 80 468 128
2020-12-02 06:50:59 GMT 48.853081 -3.380681 31,000 80 469 192
2020-12-02 06:50:56 GMT 48.852291 -3.388198 30,975 80 470 0
2020-12-02 06:50:53 GMT 48.850895 -3.401497 31,000 80 470 -256
2020-12-02 06:50:50 GMT 48.850067 -3.409283 31,000 80 470 64
2020-12-02 06:50:47 GMT 48.849014 -3.419424 31,000 80 471 192
2020-12-02 06:50:44 GMT 48.846985 -3.438576 31,000 80 471 -256
2020-12-02 06:50:38 GMT 48.846085 -3.447101 31,000 80 471 -256
2020-12-02 06:50:35 GMT 48.844704 -3.460115 31,000 80 471 0
2020-12-02 06:50:32 GMT 48.843842 -3.468299 31,000 80 472 256
2020-12-02 06:50:29 GMT 48.842468 -3.481046 30,975 80 472 -64
2020-12-02 06:50:25 GMT 48.841305 -3.492134 31,000 80 473 -256
2020-12-02 06:50:22 GMT 48.840042 -3.503934 31,000 80 473 192
2020-12-02 06:50:19 GMT 48.838989 -3.514076 31,000 80 473 256
2020-12-02 06:50:16 GMT 48.838440 -3.518935 31,000 80 473 320
2020-12-02 06:50:13 GMT 48.837299 -3.529792 31,000 80 475 -320
2020-12-02 06:50:10 GMT 48.835999 -3.542223 31,000 80 475 -320
2020-12-02 06:50:07 GMT 48.835205 -3.549451 31,000 80 475 -320
2020-12-02 06:50:04 GMT 48.833954 -3.561261 31,000 80 475 256
2020-12-02 06:50:01 GMT 48.831894 -3.580346 31,000 80 476 320
2020-12-02 06:49:58 GMT 48.831894 -3.580346 31,000 80 476 0
2020-12-02 06:49:55 GMT 48.830551 -3.592818 31,000 80 477 -256
2020-12-02 06:49:52 GMT 48.829468 -3.602741 31,000 80 477 128
2020-12-02 06:49:49 GMT 48.829010 -3.607319 31,000 80 477 256
2020-12-02 06:49:46 GMT 48.827774 -3.618868 31,000 80 477 256
2020-12-02 06:49:43 GMT 48.826641 -3.629464 31,000 80 478 0
2020-12-02 06:49:39 GMT 48.825348 -3.641334 31,000 80 478 -192
2020-12-02 06:49:36 GMT 48.823986 -3.653894 31,000 80 479 -192
2020-12-02 06:49:33 GMT 48.823105 -3.662133 31,000 80 479 128
2020-12-02 06:49:30 GMT 48.821915 -3.673377 31,000 80 480 128
2020-12-02 06:49:27 GMT 48.820908 -3.682674 31,000 80 480 -128
2020-12-02 06:49:23 GMT 48.819489 -3.695984 31,000 80 480 -256
2020-12-02 06:49:19 GMT 48.818027 -3.709259 31,000 80 480 -64
2020-12-02 06:49:16 GMT 48.817017 -3.718520 31,000 80 482 0
2020-12-02 06:49:13 GMT 48.815781 -3.730140 31,000 80 482 0
2020-12-02 06:49:10 GMT 48.814861 -3.738821 31,000 80 482 -128
2020-12-02 06:49:07 GMT 48.813812 -3.748451 31,000 80 482 -192
2020-12-02 06:49:04 GMT 48.812347 -3.761761 31,025 80 482 64
2020-12-02 06:49:01 GMT 48.811432 -3.770423 31,025 80 483 192
2020-12-02 06:48:57 GMT 48.809975 -3.783417 31,000 80 484 128
2020-12-02 06:48:54 GMT 48.808914 -3.793452 31,000 80 484 0
2020-12-02 06:48:51 GMT 48.808067 -3.801125 31,000 80 484 0
2020-12-02 06:48:48 GMT 48.806808 -3.812538 31,000 80 484 0
2020-12-02 06:48:45 GMT 48.805645 -3.823242 31,000 80 485 0
2020-12-02 06:48:42 GMT 48.804760 -3.831626 31,000 80 485 0
2020-12-02 06:48:39 GMT 48.803284 -3.845004 31,000 80 486 0
2020-12-02 06:48:33 GMT 48.801178 -3.864441 31,000 80 487 0
2020-12-02 06:48:30 GMT 48.800446 -3.871202 31,000 80 487 0
2020-12-02 06:48:26 GMT 48.799034 -3.883956 31,000 80 487 0
2020-12-02 06:48:23 GMT 48.797451 -3.898050 31,000 80 488 0
2020-12-02 06:48:18 GMT 48.794586 -3.924021 31,000 80 488 0
2020-12-02 06:48:15 GMT 48.794586 -3.924021 31,000 80 488 0
2020-12-02 06:48:12 GMT 48.793869 -3.930720 31,000 80 488 0
2020-12-02 06:48:08 GMT 48.792023 -3.947613 31,000 80 489 0
2020-12-02 06:48:05 GMT 48.790695 -3.959444 31,000 80 489 0
2020-12-02 06:48:02 GMT 48.790005 -3.965848 31,000 80 490 0
2020-12-02 06:47:58 GMT 48.788132 -3.982403 31,000 80 489 0
2020-12-02 06:47:55 GMT 48.787399 -3.989093 31,000 80 489 64
2020-12-02 06:47:52 GMT 48.786049 -4.001264 31,000 80 490 0
2020-12-02 06:47:46 GMT 48.783951 -4.020201 31,000 80 490 0
2020-12-02 06:47:42 GMT 48.782276 -4.035380 31,000 80 490 -64
2020-12-02 06:47:37 GMT 48.780350 -4.052687 31,000 80 490 0
2020-12-02 06:47:34 GMT 48.779480 -4.060786 31,000 80 490 0
2020-12-02 06:47:31 GMT 48.778519 -4.069237 31,000 80 490 0
2020-12-02 06:47:28 GMT 48.776917 -4.083815 31,000 80 490 0
2020-12-02 06:47:25 GMT 48.776001 -4.092266 31,000 80 490 -64
2020-12-02 06:47:22 GMT 48.774876 -4.102382 31,000 80 490 -64
2020-12-02 06:47:19 GMT 48.773758 -4.112549 31,000 80 490 0
2020-12-02 06:47:16 GMT 48.772640 -4.122692 31,000 80 490 0
2020-12-02 06:47:13 GMT 48.771652 -4.131141 31,000 80 490 0
2020-12-02 06:47:10 GMT 48.770172 -4.144375 31,000 80 490 0
2020-12-02 06:47:06 GMT 48.768822 -4.156591 31,000 80 490 0
2020-12-02 06:47:02 GMT 48.767239 -4.170757 31,000 80 490 0
2020-12-02 06:46:59 GMT 48.766216 -4.179575 31,000 80 490 0
2020-12-02 06:46:56 GMT 48.765152 -4.189031 31,000 80 490 0
2020-12-02 06:46:52 GMT 48.763561 -4.203572 31,000 80 490 0
2020-12-02 06:46:49 GMT 48.762539 -4.212317 31,000 80 490 0
2020-12-02 06:46:46 GMT 48.760895 -4.227201 31,000 80 489 0
2020-12-02 06:46:42 GMT 48.759521 -4.239385 31,000 80 489 0
2020-12-02 06:46:39 GMT 48.758698 -4.246779 31,000 80 490 0
2020-12-02 06:46:36 GMT 48.757507 -4.257273 31,000 80 490 0
2020-12-02 06:46:33 GMT 48.756271 -4.268329 31,000 80 489 0
2020-12-02 06:46:30 GMT 48.755184 -4.277802 31,000 80 488 0
2020-12-02 06:46:27 GMT 48.753784 -4.290233 31,000 80 488 0
2020-12-02 06:46:24 GMT 48.752903 -4.298039 31,000 80 489 0
2020-12-02 06:46:21 GMT 48.751740 -4.308120 31,000 80 489 0
2020-12-02 06:46:18 GMT 48.750668 -4.317916 31,000 80 489 0
2020-12-02 06:46:15 GMT 48.749550 -4.327674 31,000 80 488 0
2020-12-02 06:46:12 GMT 48.748398 -4.337698 31,000 80 488 0
2020-12-02 06:46:09 GMT 48.747253 -4.347487 31,000 80 488 0
2020-12-02 06:46:06 GMT 48.745789 -4.360586 31,000 80 488 0
2020-12-02 06:46:03 GMT 48.745056 -4.366995 31,000 80 486 0
2020-12-02 06:46:00 GMT 48.743866 -4.377418 31,000 80 488 0
2020-12-02 06:45:57 GMT 48.742706 -4.387448 31,000 80 488 0
2020-12-02 06:45:54 GMT 48.741531 -4.397841 31,000 80 486 0
2020-12-02 06:45:51 GMT 48.740067 -4.410588 31,000 80 487 0
2020-12-02 06:45:47 GMT 48.738750 -4.421997 31,000 80 487 64
2020-12-02 06:45:44 GMT 48.736496 -4.441434 31,000 80 485 0
2020-12-02 06:45:41 GMT 48.735073 -4.453800 31,000 80 487 0
2020-12-02 06:45:38 GMT 48.735073 -4.453800 31,000 80 486 0
2020-12-02 06:45:35 GMT 48.733582 -4.466882 31,000 80 486 0
2020-12-02 06:45:31 GMT 48.732468 -4.476577 31,000 80 486 0
2020-12-02 06:45:28 GMT 48.731300 -4.486614 31,000 80 486 0
2020-12-02 06:45:24 GMT 48.729717 -4.500347 31,000 80 486 0
2020-12-02 06:45:21 GMT 48.728577 -4.510381 31,000 80 486 0
2020-12-02 06:45:17 GMT 48.727112 -4.523042 31,000 80 484 -64
2020-12-02 06:45:14 GMT 48.725948 -4.533378 31,000 80 485 0
2020-12-02 06:45:11 GMT 48.724686 -4.544114 31,000 80 485 0
2020-12-02 06:45:08 GMT 48.723621 -4.553472 31,000 80 485 0
2020-12-02 06:45:04 GMT 48.722176 -4.565759 31,000 80 484 0
2020-12-02 06:45:01 GMT 48.721024 -4.575806 31,000 80 484 -64
2020-12-02 06:44:58 GMT 48.719803 -4.586431 31,000 80 484 -64
2020-12-02 06:44:55 GMT 48.718639 -4.596405 31,000 80 484 -64
2020-12-02 06:44:52 GMT 48.717663 -4.604717 31,000 79 483 -64
2020-12-02 06:44:49 GMT 48.716492 -4.614680 31,000 79 483 0
2020-12-02 06:44:46 GMT 48.715382 -4.624015 31,000 79 483 0
2020-12-02 06:44:40 GMT 48.712784 -4.646301 31,000 79 483 0
2020-12-02 06:44:37 GMT 48.711823 -4.654541 31,000 79 482 0
2020-12-02 06:44:34 GMT 48.710358 -4.666865 31,000 79 482 0
2020-12-02 06:44:30 GMT 48.708912 -4.679453 31,000 79 482 0
2020-12-02 06:44:27 GMT 48.707977 -4.687430 31,000 79 482 0
2020-12-02 06:44:24 GMT 48.706650 -4.698698 31,000 79 482 0
2020-12-02 06:44:21 GMT 48.705460 -4.708909 31,000 79 481 0
2020-12-02 06:44:18 GMT 48.704041 -4.720811 31,000 79 481 0
2020-12-02 06:44:15 GMT 48.703323 -4.727157 31,000 79 481 0
2020-12-02 06:44:12 GMT 48.700653 -4.749967 31,000 79 481 0
2020-12-02 06:44:09 GMT 48.700653 -4.749967 31,000 79 481 0
2020-12-02 06:44:05 GMT 48.699371 -4.760883 31,000 79 481 0
2020-12-02 06:44:02 GMT 48.698135 -4.771447 31,000 79 480 0
2020-12-02 06:43:59 GMT 48.696991 -4.781025 31,000 79 478 0
2020-12-02 06:43:56 GMT 48.695873 -4.790256 31,000 79 480 0
2020-12-02 06:43:53 GMT 48.694618 -4.801170 31,000 79 480 0
2020-12-02 06:43:49 GMT 48.692989 -4.814975 31,000 79 480 0
2020-12-02 06:43:45 GMT 48.691681 -4.826167 31,000 79 479 0
2020-12-02 06:43:42 GMT 48.690353 -4.837435 31,000 79 478 -64
2020-12-02 06:43:38 GMT 48.689026 -4.848562 31,000 79 478 -64
2020-12-02 06:43:35 GMT 48.686417 -4.870605 31,000 79 478 0
2020-12-02 06:43:32 GMT 48.686417 -4.870605 31,000 79 478 0
2020-12-02 06:43:29 GMT 48.685261 -4.880459 31,000 79 478 0
2020-12-02 06:43:26 GMT 48.684052 -4.890651 31,000 79 477 0
2020-12-02 06:43:23 GMT 48.681679 -4.910961 31,000 79 477 0
2020-12-02 06:43:20 GMT 48.681679 -4.910961 31,000 79 477 0
2020-12-02 06:43:17 GMT 48.680511 -4.920819 31,000 79 476 0
2020-12-02 06:43:13 GMT 48.679001 -4.933566 31,000 79 476 0
2020-12-02 06:43:09 GMT 48.676254 -4.956454 31,000 79 475 0
2020-12-02 06:43:06 GMT 48.676254 -4.956454 31,000 79 475 0
2020-12-02 06:43:03 GMT 48.675114 -4.965965 31,000 79 475 0
2020-12-02 06:42:58 GMT 48.671860 -4.992723 31,000 79 475 0
2020-12-02 06:42:54 GMT 48.671860 -4.992723 31,000 79 474 0
2020-12-02 06:42:51 GMT 48.670460 -5.004417 31,000 79 471 64
2020-12-02 06:42:48 GMT 48.669338 -5.013885 31,000 79 474 0
2020-12-02 06:42:45 GMT 48.668015 -5.024907 31,000 79 473 0
2020-12-02 06:42:42 GMT 48.666874 -5.034340 31,000 79 473 0
2020-12-02 06:42:39 GMT 48.665726 -5.044063 31,000 79 472 0
2020-12-02 06:42:36 GMT 48.664490 -5.054133 31,000 79 472 0
2020-12-02 06:42:33 GMT 48.663116 -5.065472 31,000 79 471 64
2020-12-02 06:42:29 GMT 48.661892 -5.075900 31,000 79 472 0
2020-12-02 06:42:25 GMT 48.660233 -5.089487 31,000 79 471 0
2020-12-02 06:42:22 GMT 48.659180 -5.098220 31,000 79 467 64
2020-12-02 06:42:19 GMT 48.657944 -5.108220 31,000 79 470 64
2020-12-02 06:42:16 GMT 48.656754 -5.118220 31,000 79 470 -64
2020-12-02 06:42:10 GMT 48.654446 -5.137265 31,000 79 469 -64
2020-12-02 06:42:07 GMT 48.653465 -5.145288 31,000 79 469 -64
2020-12-02 06:42:04 GMT 48.652039 -5.156884 31,000 79 469 -64
2020-12-02 06:42:00 GMT 48.650394 -5.170441 31,000 79 468 0
2020-12-02 06:41:57 GMT 48.649323 -5.179403 31,000 79 468 64
2020-12-02 06:41:54 GMT 48.648285 -5.187730 31,000 79 467 0
2020-12-02 06:41:51 GMT 48.646950 -5.198702 31,000 79 467 64
2020-12-02 06:41:48 GMT 48.645538 -5.210196 31,000 79 467 64
2020-12-02 06:41:44 GMT 48.642666 -5.233540 31,000 79 466 64
2020-12-02 06:41:40 GMT 48.642666 -5.233540 31,000 79 466 0
2020-12-02 06:41:37 GMT 48.641457 -5.243514 31,000 79 466 0
2020-12-02 06:41:34 GMT 48.640274 -5.253085 31,000 79 465 0
2020-12-02 06:41:29 GMT 48.638523 -5.267077 31,000 79 464 -64
2020-12-02 06:41:26 GMT 48.637299 -5.277311 31,000 79 464 -64
2020-12-02 06:41:23 GMT 48.636154 -5.286537 31,000 79 463 -128
2020-12-02 06:41:19 GMT 48.634335 -5.301192 31,000 79 464 64
2020-12-02 06:41:16 GMT 48.633316 -5.309425 31,000 79 464 128
2020-12-02 06:41:13 GMT 48.632172 -5.318650 30,975 79 464 64
2020-12-02 06:41:09 GMT 48.630615 -5.331045 31,000 79 463 -128
2020-12-02 06:41:06 GMT 48.629074 -5.343114 31,000 79 463 -64
2020-12-02 06:41:01 GMT 48.627304 -5.357353 31,000 79 462 128
2020-12-02 06:40:57 GMT 48.625813 -5.369423 30,975 79 462 -64
2020-12-02 06:40:53 GMT 48.624298 -5.381399 31,000 79 461 -128
2020-12-02 06:40:49 GMT 48.622559 -5.395696 31,000 79 461 -128
2020-12-02 06:40:46 GMT 48.621094 -5.407386 31,000 79 461 64
2020-12-02 06:40:43 GMT 48.620361 -5.413372 31,000 79 460 192
2020-12-02 06:40:39 GMT 48.618690 -5.426668 30,975 79 460 0
2020-12-02 06:40:36 GMT 48.617573 -5.435775 31,000 79 460 -128
2020-12-02 06:40:33 GMT 48.616364 -5.445243 31,000 79 459 -128
2020-12-02 06:40:27 GMT 48.613804 -5.466060 31,000 79 459 64
2020-12-02 06:40:23 GMT 48.612396 -5.477389 30,975 79 459 0
2020-12-02 06:40:19 GMT 48.610729 -5.490634 31,000 79 458 -192
2020-12-02 06:40:15 GMT 48.609100 -5.503798 31,000 79 458 -64
2020-12-02 06:40:12 GMT 48.608231 -5.511052 31,000 79 458 192
2020-12-02 06:40:09 GMT 48.606869 -5.521714 30,975 79 458 -64
2020-12-02 06:40:05 GMT 48.605286 -5.534580 31,000 79 455 192
2020-12-02 06:40:02 GMT 48.604401 -5.541807 31,000 79 457 -128
2020-12-02 06:39:59 GMT 48.603004 -5.553372 31,000 79 457 192
2020-12-02 06:39:56 GMT 48.602028 -5.561178 31,000 79 457 -64
2020-12-02 06:39:52 GMT 48.600494 -5.573730 31,000 79 456 -128
2020-12-02 06:39:48 GMT 48.598953 -5.586259 31,000 79 456 -128
2020-12-02 06:39:45 GMT 48.597466 -5.598402 31,000 79 456 192
2020-12-02 06:39:42 GMT 48.596741 -5.604365 31,000 79 456 192
2020-12-02 06:39:39 GMT 48.595276 -5.616549 31,000 79 456 -128
2020-12-02 06:39:36 GMT 48.593925 -5.627819 31,000 79 456 -256
2020-12-02 06:39:33 GMT 48.593033 -5.635282 31,000 79 455 -128
2020-12-02 06:39:28 GMT 48.591133 -5.650948 31,000 79 455 192
2020-12-02 06:39:25 GMT 48.589828 -5.661862 31,000 79 456 -64
2020-12-02 06:39:22 GMT 48.589142 -5.667466 31,000 79 455 -192
2020-12-02 06:39:18 GMT 48.587547 -5.680582 31,000 79 455 0
2020-12-02 06:39:15 GMT 48.586384 -5.690267 31,000 79 455 192
2020-12-02 06:39:12 GMT 48.585453 -5.698074 31,000 79 456 256
2020-12-02 06:39:09 GMT 48.583878 -5.711200 31,000 79 456 -192
2020-12-02 06:39:06 GMT 48.582661 -5.721130 31,000 79 455 -256
2020-12-02 06:39:02 GMT 48.581635 -5.729934 31,000 79 455 192
2020-12-02 06:38:58 GMT 48.579914 -5.744259 31,000 79 455 256
2020-12-02 06:38:55 GMT 48.578796 -5.753596 30,975 79 456 -128
2020-12-02 06:38:52 GMT 48.577820 -5.761751 31,000 79 455 -192
2020-12-02 06:38:48 GMT 48.576370 -5.773597 31,000 79 455 64
2020-12-02 06:38:44 GMT 48.574654 -5.787916 31,000 79 455 256
2020-12-02 06:38:38 GMT 48.572342 -5.806345 31,000 79 455 -64
2020-12-02 06:38:35 GMT 48.570007 -5.824374 31,000 78 454 -192
2020-12-02 06:38:32 GMT 48.570007 -5.824374 31,000 78 454 0
2020-12-02 06:38:29 GMT 48.568462 -5.835475 31,000 77 454 256
2020-12-02 06:38:25 GMT 48.566574 -5.848459 30,975 77 453 0
2020-12-02 06:38:21 GMT 48.565109 -5.858037 31,000 76 454 -192
2020-12-02 06:38:17 GMT 48.563293 -5.869663 31,000 76 453 -64
2020-12-02 06:38:14 GMT 48.561153 -5.883179 31,000 76 453 192
2020-12-02 06:38:11 GMT 48.560455 -5.887515 31,000 76 454 192
2020-12-02 06:38:07 GMT 48.558083 -5.902549 31,000 76 454 -192
2020-12-02 06:38:02 GMT 48.555660 -5.917945 31,000 76 454 -64
2020-12-02 06:37:58 GMT 48.553848 -5.929589 31,000 76 454 192
2020-12-02 06:37:55 GMT 48.552063 -5.940998 31,000 76 454 -64
2020-12-02 06:37:51 GMT 48.550552 -5.950505 31,000 76 454 -256
2020-12-02 06:37:48 GMT 48.549004 -5.960372 31,000 76 453 256
2020-12-02 06:37:42 GMT 48.546066 -5.978746 31,000 76 453 192
2020-12-02 06:37:37 GMT 48.543880 -5.992536 31,000 76 453 -128
2020-12-02 06:37:31 GMT 48.540951 -6.010967 31,000 76 453 -128
2020-12-02 06:37:25 GMT 48.537971 -6.029976 31,000 76 453 192
2020-12-02 06:37:21 GMT 48.536060 -6.041975 31,000 76 453 -128
2020-12-02 06:37:18 GMT 48.534386 -6.052672 31,000 76 453 64
2020-12-02 06:37:15 GMT 48.533020 -6.061284 31,000 76 453 192
2020-12-02 06:37:12 GMT 48.531731 -6.069224 31,000 76 453 192
2020-12-02 06:37:07 GMT 48.529175 -6.085510 31,000 76 453 -192
2020-12-02 06:37:03 GMT 48.526936 -6.099580 31,000 76 453 -192
2020-12-02 06:36:56 GMT 48.523354 -6.122276 31,000 76 453 256
2020-12-02 06:36:53 GMT 48.522327 -6.128709 30,975 76 453 -64
2020-12-02 06:36:50 GMT 48.520931 -6.137599 31,000 76 453 -192
2020-12-02 06:36:46 GMT 48.518921 -6.150513 31,000 76 453 64
2020-12-02 06:36:41 GMT 48.516602 -6.165209 31,000 76 453 192
2020-12-02 06:36:35 GMT 48.513622 -6.184219 31,000 76 453 128
2020-12-02 06:36:31 GMT 48.511715 -6.196217 31,000 76 453 -64
2020-12-02 06:36:26 GMT 48.509308 -6.211853 31,000 76 453 -128
2020-12-02 06:36:23 GMT 48.507706 -6.221994 30,975 76 453 -64
2020-12-02 06:36:20 GMT 48.506500 -6.229971 31,000 77 453 -192
2020-12-02 06:36:17 GMT 48.505150 -6.238572 31,000 77 453 -192
2020-12-02 06:36:13 GMT 48.503197 -6.251510 31,000 76 454 256
2020-12-02 06:36:10 GMT 48.502075 -6.258545 31,000 76 454 64
2020-12-02 06:36:01 GMT 48.497375 -6.288733 31,000 76 455 256
2020-12-02 06:35:50 GMT 48.491959 -6.322843 31,000 76 455 -192
2020-12-02 06:35:40 GMT 48.486900 -6.353639 31,000 76 455 -64
2020-12-02 06:35:30 GMT 48.481968 -6.384719 31,025 76 456 0
2020-12-02 06:35:19 GMT 48.475616 -6.416861 31,000 68 453 -256
2020-12-02 06:35:10 GMT 48.467743 -6.441721 31,000 58 449 0
2020-12-02 06:34:59 GMT 48.454834 -6.469046 31,000 48 445 64
2020-12-02 06:34:51 GMT 48.442165 -6.488005 31,000 40 443 -192
2020-12-02 06:34:47 GMT 48.435791 -6.495667 31,000 38 442 -192
2020-12-02 06:34:39 GMT 48.420135 -6.510597 31,000 13 440 128
2020-12-02 06:34:31 GMT 48.406952 -6.519470 31,000 18 440 192
2020-12-02 06:34:24 GMT 48.394592 -6.525386 31,000 18 440 192
2020-12-02 06:34:21 GMT 48.387634 -6.527780 31,000 10 440 -192
2020-12-02 06:34:18 GMT 48.382050 -6.529118 31,000 7 439 -192
2020-12-02 06:34:09 GMT 48.362411 -6.530879 31,000 358 441 -64
2020-12-02 06:33:58 GMT 48.341583 -6.527358 31,000 347 443 192
2020-12-02 06:33:51 GMT 48.327347 -6.521653 31,000 341 444 -256
2020-12-02 06:33:40 GMT 48.307770 -6.508604 31,000 326 451 -192
2020-12-02 06:33:30 GMT 48.290730 -6.491258 31,000 321 454 64
2020-12-02 06:33:21 GMT 48.275391 -6.468764 31,000 310 461 -256
2020-12-02 06:33:10 GMT 48.262939 -6.442325 31,000 300 468 64
2020-12-02 06:33:01 GMT 48.254517 -6.415452 31,000 290 475 192
2020-12-02 06:32:58 GMT 48.252373 -6.406113 31,000 282 483 0
2020-12-02 06:32:50 GMT 48.248383 -6.379817 31,000 279 485 -256
2020-12-02 06:32:39 GMT 48.247147 -6.343619 30,975 266 498 -64
2020-12-02 06:32:30 GMT 48.250305 -6.312068 31,000 257 505 64
2020-12-02 06:32:26 GMT 48.252560 -6.297768 31,000 257 504 0
2020-12-02 06:32:20 GMT 48.255844 -6.277771 31,000 257 505 0
2020-12-02 06:32:12 GMT 48.260284 -6.250587 31,000 257 506 0
2020-12-02 06:32:09 GMT 48.261795 -6.241361 31,000 257 506 0
2020-12-02 06:32:03 GMT 48.265366 -6.219600 31,000 257 505 0
2020-12-02 06:31:59 GMT 48.267563 -6.206360 31,000 257 505 0
2020-12-02 06:31:53 GMT 48.270622 -6.187688 31,000 257 505 0
2020-12-02 06:31:49 GMT 48.273041 -6.173088 31,000 257 504 0
2020-12-02 06:31:44 GMT 48.276306 -6.152696 31,000 257 504 0
2020-12-02 06:31:40 GMT 48.278534 -6.138828 31,000 257 503 0
2020-12-02 06:31:37 GMT 48.279743 -6.131383 31,000 257 503 0
2020-12-02 06:31:31 GMT 48.282990 -6.110722 31,000 257 502 0
2020-12-02 06:31:28 GMT 48.284546 -6.100863 31,000 257 502 0
2020-12-02 06:31:24 GMT 48.286404 -6.089389 31,000 257 502 0
2020-12-02 06:31:21 GMT 48.288544 -6.075512 31,000 257 502 64
2020-12-02 06:31:18 GMT 48.289894 -6.067055 31,000 257 502 64
2020-12-02 06:31:13 GMT 48.292648 -6.049171 31,000 258 500 0
2020-12-02 06:31:09 GMT 48.294754 -6.035297 31,000 258 500 0
2020-12-02 06:31:03 GMT 48.299763 -6.002221 31,000 258 498 0
2020-12-02 06:30:59 GMT 48.299763 -6.002221 31,000 258 499 0
2020-12-02 06:30:52 GMT 48.303223 -5.978887 31,000 258 498 0
2020-12-02 06:30:47 GMT 48.305328 -5.964449 31,000 258 498 0
2020-12-02 06:30:44 GMT 48.306839 -5.953956 31,000 258 497 0
2020-12-02 06:30:40 GMT 48.309036 -5.938815 31,000 258 497 0
2020-12-02 06:30:37 GMT 48.310188 -5.930738 31,000 259 495 0
2020-12-02 06:30:34 GMT 48.311539 -5.920980 31,000 259 495 0
2020-12-02 06:30:31 GMT 48.314892 -5.897490 31,000 259 494 0
2020-12-02 06:30:27 GMT 48.314892 -5.897490 31,000 259 494 64
2020-12-02 06:30:23 GMT 48.317642 -5.877756 31,000 259 493 0
2020-12-02 06:30:20 GMT 48.318604 -5.871066 31,000 259 493 0
2020-12-02 06:30:17 GMT 48.319748 -5.862685 31,000 259 492 0
2020-12-02 06:30:12 GMT 48.322433 -5.843715 31,000 259 491 0
2020-12-02 06:30:07 GMT 48.324417 -5.829726 31,000 259 490 0
2020-12-02 06:30:04 GMT 48.326019 -5.818417 31,000 258 490 64
2020-12-02 06:30:00 GMT 48.328251 -5.803166 31,000 258 489 0
2020-12-02 06:29:57 GMT 48.329361 -5.795570 31,000 258 489 -64
2020-12-02 06:29:54 GMT 48.330688 -5.786626 31,000 258 488 -64
2020-12-02 06:29:51 GMT 48.331978 -5.778014 31,000 258 487 -64
2020-12-02 06:29:47 GMT 48.334396 -5.761895 31,025 258 486 -128
2020-12-02 06:29:44 GMT 48.335861 -5.752047 31,025 258 485 -64
2020-12-02 06:29:41 GMT 48.336910 -5.745127 31,000 256 487 64
2020-12-02 06:29:38 GMT 48.339146 -5.732044 31,000 255 487 0
2020-12-02 06:29:34 GMT 48.341858 -5.719158 31,000 251 490 0
2020-12-02 06:29:31 GMT 48.343826 -5.711553 31,000 238 497 0
2020-12-02 06:29:28 GMT 48.346828 -5.701615 31,000 243 494 0
2020-12-02 06:29:24 GMT 48.351105 -5.689509 31,000 239 496 0
2020-12-02 06:29:21 GMT 48.356735 -5.676481 31,000 225 504 0
2020-12-02 06:29:18 GMT 48.359299 -5.671199 31,000 232 500 64
2020-12-02 06:29:12 GMT 48.369869 -5.653189 31,000 224 505 0
2020-12-02 06:29:08 GMT 48.375175 -5.645816 31,000 220 506 0
2020-12-02 06:29:04 GMT 48.381508 -5.638010 31,000 217 509 0
2020-12-02 06:28:58 GMT 48.394451 -5.625145 31,000 209 512 0
2020-12-02 06:28:55 GMT 48.400314 -5.620422 31,000 205 514 0
2020-12-02 06:28:50 GMT 48.410278 -5.613869 31,000 201 515 0
2020-12-02 06:28:46 GMT 48.419769 -5.609013 31,000 196 516 64
2020-12-02 06:28:43 GMT 48.425316 -5.606786 31,000 193 517 0
2020-12-02 06:28:40 GMT 48.433273 -5.604365 31,000 188 518 0
2020-12-02 06:28:37 GMT 48.440140 -5.602886 31,000 184 518 0
2020-12-02 06:28:34 GMT 48.448471 -5.601971 31,000 182 519 0
2020-12-02 06:28:31 GMT 48.455887 -5.601971 31,000 177 518 0
2020-12-02 06:28:27 GMT 48.463806 -5.602675 31,000 173 518 64
2020-12-02 06:28:24 GMT 48.471867 -5.604256 31,000 169 518 64
2020-12-02 06:28:21 GMT 48.481201 -5.607042 31,000 165 517 64
2020-12-02 06:28:17 GMT 48.487427 -5.609647 31,000 159 516 0
2020-12-02 06:28:13 GMT 48.495560 -5.613797 31,000 157 515 0
2020-12-02 06:28:10 GMT 48.504314 -5.619435 31,000 154 513 -64
2020-12-02 06:28:07 GMT 48.510406 -5.624225 31,000 148 511 0
2020-12-02 06:28:03 GMT 48.517090 -5.630282 31,000 146 511 -64
2020-12-02 06:28:00 GMT 48.525192 -5.638803 31,000 140 508 0
2020-12-02 06:27:56 GMT 48.530521 -5.645238 31,000 138 507 64
2020-12-02 06:27:53 GMT 48.535873 -5.652610 31,000 135 505 128
2020-12-02 06:27:50 GMT 48.547607 -5.672487 31,000 129 502 -192
2020-12-02 06:27:47 GMT 48.547607 -5.672487 31,000 126 500 -192
2020-12-02 06:27:43 GMT 48.550873 -5.679227 31,000 124 498 128
2020-12-02 06:27:40 GMT 48.555267 -5.689369 31,000 119 496 192
2020-12-02 06:27:36 GMT 48.559711 -5.701398 31,000 114 491 -192
2020-12-02 06:27:33 GMT 48.562271 -5.709783 31,000 108 487 128
2020-12-02 06:27:29 GMT 48.565796 -5.723173 31,000 108 487 128
2020-12-02 06:27:26 GMT 48.567947 -5.733103 31,000 106 486 256
2020-12-02 06:27:23 GMT 48.569485 -5.741947 31,000 97 480 -192
2020-12-02 06:27:20 GMT 48.571106 -5.753456 31,000 97 480 -192
2020-12-02 06:27:15 GMT 48.572514 -5.769412 31,000 95 478 64
2020-12-02 06:27:11 GMT 48.572983 -5.780006 30,975 90 476 256
2020-12-02 06:27:07 GMT 48.572891 -5.796837 30,975 85 472 -192
2020-12-02 06:27:01 GMT 48.571426 -5.815782 31,000 77 467 64
2020-12-02 06:26:57 GMT 48.570145 -5.825641 31,000 77 467 64
2020-12-02 06:26:54 GMT 48.568695 -5.835186 31,000 76 466 64
2020-12-02 06:26:51 GMT 48.567204 -5.844654 31,000 76 466 0
2020-12-02 06:26:48 GMT 48.565659 -5.854797 31,000 76 464 0
2020-12-02 06:26:45 GMT 48.563919 -5.865854 31,000 76 465 0
2020-12-02 06:26:41 GMT 48.562225 -5.876529 31,000 76 465 0
2020-12-02 06:26:37 GMT 48.560120 -5.889799 31,000 76 464 0
2020-12-02 06:26:34 GMT 48.558640 -5.899225 31,000 76 464 0
2020-12-02 06:26:31 GMT 48.557144 -5.908673 31,000 76 464 0
2020-12-02 06:26:28 GMT 48.555496 -5.919096 31,000 76 464 0
2020-12-02 06:26:23 GMT 48.552979 -5.935082 31,000 76 464 0
2020-12-02 06:26:19 GMT 48.550873 -5.948322 31,000 76 464 0
2020-12-02 06:26:15 GMT 48.548950 -5.960506 31,000 76 463 0
2020-12-02 06:26:12 GMT 48.547760 -5.968393 31,000 76 463 0
2020-12-02 06:26:09 GMT 48.545883 -5.980321 31,000 76 463 0
2020-12-02 06:26:03 GMT 48.543411 -5.996000 31,000 76 463 0
2020-12-02 06:26:00 GMT 48.541901 -6.005719 31,000 76 462 0
2020-12-02 06:25:56 GMT 48.539413 -6.021375 31,000 76 462 0
2020-12-02 06:25:52 GMT 48.537971 -6.030410 31,000 76 461 0
2020-12-02 06:25:49 GMT 48.534431 -6.052961 31,000 76 461 0
2020-12-02 06:25:45 GMT 48.534431 -6.052961 31,000 76 461 -64
2020-12-02 06:25:41 GMT 48.532104 -6.067622 31,000 76 460 0
2020-12-02 06:25:35 GMT 48.529266 -6.085703 31,000 76 460 0
2020-12-02 06:25:31 GMT 48.527664 -6.095651 31,000 76 460 0
2020-12-02 06:25:27 GMT 48.525635 -6.108760 31,000 76 459 0
2020-12-02 06:25:24 GMT 48.524185 -6.118047 31,000 76 459 -64
2020-12-02 06:25:21 GMT 48.522629 -6.127695 31,000 76 458 0
2020-12-02 06:25:15 GMT 48.519676 -6.146634 31,000 76 458 0
2020-12-02 06:25:11 GMT 48.517731 -6.159034 31,000 76 457 0
2020-12-02 06:25:08 GMT 48.516037 -6.169880 31,000 76 457 0
2020-12-02 06:25:05 GMT 48.514694 -6.178581 31,000 76 456 0
2020-12-02 06:25:02 GMT 48.513344 -6.187182 31,000 76 456 0
2020-12-02 06:24:58 GMT 48.511204 -6.200843 31,000 76 452 -128
2020-12-02 06:24:52 GMT 48.508392 -6.219036 31,000 76 455 0
2020-12-02 06:24:48 GMT 48.506332 -6.232347 31,000 76 452 -128
2020-12-02 06:24:44 GMT 48.504917 -6.241608 31,000 76 455 0
2020-12-02 06:24:38 GMT 48.501343 -6.264742 31,000 76 454 0
2020-12-02 06:24:33 GMT 48.499603 -6.276151 31,000 76 455 64
2020-12-02 06:24:23 GMT 48.494583 -6.308104 31,000 76 454 64
2020-12-02 06:24:12 GMT 48.489395 -6.339956 30,975 76 453 0
2020-12-02 06:24:04 GMT 48.485138 -6.365591 31,000 76 452 -192
2020-12-02 06:24:01 GMT 48.483829 -6.373516 31,000 76 452 -192
2020-12-02 06:23:53 GMT 48.479782 -6.397564 31,000 73 452 0
2020-12-02 06:23:44 GMT 48.473030 -6.426496 31,000 42 440 -64
2020-12-02 06:23:33 GMT 48.462296 -6.455031 31,000 54 443 -64
2020-12-02 06:23:22 GMT 48.448425 -6.479962 31,025 43 439 -64
2020-12-02 06:23:13 GMT 48.433414 -6.498919 31,025 34 437 0
2020-12-02 06:23:02 GMT 48.414608 -6.515399 31,000 22 435 0
2020-12-02 06:22:52 GMT 48.396286 -6.525456 31,000 358 435 0
2020-12-02 06:22:42 GMT 48.375183 -6.531161 31,000 3 434 0
2020-12-02 06:22:32 GMT 48.356323 -6.531300 31,000 355 435 0
2020-12-02 06:22:23 GMT 48.335838 -6.526240 31,000 346 437 0
2020-12-02 06:22:12 GMT 48.316940 -6.516338 31,000 335 441 0
2020-12-02 06:22:01 GMT 48.297729 -6.500174 31,000 325 445 0
2020-12-02 06:21:52 GMT 48.283703 -6.482945 31,000 311 452 0
2020-12-02 06:21:41 GMT 48.268341 -6.456202 31,000 304 457 0
2020-12-02 06:21:34 GMT 48.260742 -6.437566 31,000 284 472 -64
2020-12-02 06:21:31 GMT 48.258087 -6.429537 31,000 295 463 0
2020-12-02 06:21:21 GMT 48.250744 -6.399608 31,000 284 472 -64
2020-12-02 06:21:15 GMT 48.247299 -6.373227 31,000 277 477 0
2020-12-02 06:21:12 GMT 48.246964 -6.368972 31,000 273 480 128
2020-12-02 06:21:01 GMT 48.247437 -6.332245 31,000 261 492 0
2020-12-02 06:20:50 GMT 48.252457 -6.296786 31,000 257 496 0
2020-12-02 06:20:42 GMT 48.257214 -6.268062 31,000 257 498 0
2020-12-02 06:20:39 GMT 48.258751 -6.258665 31,000 257 498 0
2020-12-02 06:20:34 GMT 48.261703 -6.240939 31,000 257 499 0
2020-12-02 06:20:30 GMT 48.263729 -6.228814 31,000 257 499 0
2020-12-02 06:20:21 GMT 48.269257 -6.195233 31,000 257 500 0
2020-12-02 06:20:13 GMT 48.273132 -6.171425 31,000 257 500 64
2020-12-02 06:20:10 GMT 48.274567 -6.162626 31,000 257 500 0
2020-12-02 06:20:03 GMT 48.278580 -6.138105 31,000 257 500 0
2020-12-02 06:20:00 GMT 48.286030 -6.091558 31,000 257 501 0
2020-12-02 06:19:50 GMT 48.286030 -6.091558 31,000 257 501 0
2020-12-02 06:19:39 GMT 48.291569 -6.056792 31,000 257 500 0
2020-12-02 06:19:31 GMT 48.295761 -6.030226 31,000 257 498 0
2020-12-02 06:19:28 GMT 48.297203 -6.020797 31,000 257 498 0
2020-12-02 06:19:21 GMT 48.301025 -5.995929 31,000 258 497 0
2020-12-02 06:19:18 GMT 48.302555 -5.986176 31,000 258 497 0
2020-12-02 06:19:11 GMT 48.306091 -5.962685 31,000 258 496 64
2020-12-02 06:19:08 GMT 48.307537 -5.953000 31,000 258 496 64
2020-12-02 06:19:01 GMT 48.311260 -5.928208 30,975 258 494 0
2020-12-02 06:18:58 GMT 48.312744 -5.918180 30,975 258 494 64
2020-12-02 06:18:51 GMT 48.316132 -5.895081 30,975 258 492 -64
2020-12-02 06:18:48 GMT 48.317497 -5.885781 30,975 258 492 -64
2020-12-02 06:18:40 GMT 48.321316 -5.859544 31,000 258 488 -64
2020-12-02 06:18:37 GMT 48.322575 -5.850581 31,000 258 488 0
2020-12-02 06:18:30 GMT 48.325928 -5.827120 31,000 258 485 -64
2020-12-02 06:18:27 GMT 48.327393 -5.816909 31,000 258 485 -64
2020-12-02 06:18:21 GMT 48.330627 -5.794204 31,000 258 483 0
2020-12-02 06:18:18 GMT 48.331970 -5.785076 31,000 258 483 0
2020-12-02 06:18:10 GMT 48.335606 -5.760594 31,000 258 480 128
2020-12-02 06:18:07 GMT 48.337143 -5.750186 31,000 258 480 0
2020-12-02 06:18:00 GMT 48.340530 -5.728173 31,025 258 478 -192
2020-12-02 06:17:56 GMT 48.342316 -5.716201 31,025 257 478 0
2020-12-02 06:17:50 GMT 48.345802 -5.695977 31,000 251 481 0
2020-12-02 06:17:47 GMT 48.348495 -5.684016 31,000 249 482 64
2020-12-02 06:17:39 GMT 48.355301 -5.661717 31,000 239 489 0
2020-12-02 06:17:36 GMT 48.358612 -5.653240 31,000 238 489 0
2020-12-02 06:17:29 GMT 48.367451 -5.634685 31,000 230 494 0
2020-12-02 06:17:26 GMT 48.372849 -5.625352 31,000 225 497 0
2020-12-02 06:17:20 GMT 48.382717 -5.611412 31,000 216 502 0
2020-12-02 06:17:16 GMT 48.390015 -5.602886 31,000 216 502 0
2020-12-02 06:17:09 GMT 48.403839 -5.590069 31,000 207 506 0
2020-12-02 06:17:05 GMT 48.411442 -5.584524 31,000 203 507 0
2020-12-02 06:17:01 GMT 48.421497 -5.578742 31,000 197 509 0
2020-12-02 06:16:58 GMT 48.427597 -5.576054 31,000 195 510 0
2020-12-02 06:16:51 GMT 48.443802 -5.571195 31,000 183 514 0
2020-12-02 06:16:48 GMT 48.451103 -5.570141 31,000 184 513 0
2020-12-02 06:16:45 GMT 48.457031 -5.569787 31,000 179 515 64
2020-12-02 06:16:39 GMT 48.472229 -5.570913 31,000 171 515 0
2020-12-02 06:16:36 GMT 48.481384 -5.573097 31,000 168 516 -64
2020-12-02 06:16:28 GMT 48.497040 -5.579435 31,000 160 515 0
2020-12-02 06:16:25 GMT 48.504128 -5.583512 31,000 156 515 0
2020-12-02 06:16:18 GMT 48.517765 -5.593631 31,000 147 514 -64
2020-12-02 06:16:15 GMT 48.525970 -5.601478 31,000 144 512 0
2020-12-02 06:16:08 GMT 48.538155 -5.616110 31,000 137 510 0
2020-12-02 06:16:05 GMT 48.543228 -5.623521 31,000 132 508 0
2020-12-02 06:15:58 GMT 48.553703 -5.642058 31,000 125 505 0
2020-12-02 06:15:54 GMT 48.559387 -5.654508 31,000 121 503 128
2020-12-02 06:15:49 GMT 48.565018 -5.669740 31,000 113 500 64
2020-12-02 06:15:45 GMT 48.569733 -5.685988 31,000 109 497 -64
2020-12-02 06:15:37 GMT 48.575729 -5.718173 31,000 104 495 0
2020-12-02 06:15:34 GMT 48.575729 -5.718173 31,000 100 492 -64
2020-12-02 06:15:28 GMT 48.577633 -5.738477 31,000 94 489 128
2020-12-02 06:15:23 GMT 48.578110 -5.753385 30,975 87 485 64
2020-12-02 06:15:17 GMT 48.577286 -5.773597 31,000 81 482 -192
2020-12-02 06:15:13 GMT 48.575821 -5.787189 31,000 78 479 0
2020-12-02 06:15:07 GMT 48.572884 -5.807069 31,000 76 479 0
2020-12-02 06:15:04 GMT 48.571114 -5.818417 31,000 76 478 -64
2020-12-02 06:14:57 GMT 48.567902 -5.838872 31,000 76 479 0
2020-12-02 06:14:54 GMT 48.565842 -5.851840 31,000 76 479 0
2020-12-02 06:14:47 GMT 48.562775 -5.871347 31,000 76 479 0
2020-12-02 06:14:43 GMT 48.560577 -5.885291 31,000 76 478 0
2020-12-02 06:14:37 GMT 48.557327 -5.906067 31,000 76 478 0
2020-12-02 06:14:34 GMT 48.555542 -5.917405 31,000 76 478 -64
2020-12-02 06:14:27 GMT 48.552475 -5.936843 31,000 76 478 0
2020-12-02 06:14:23 GMT 48.550213 -5.951048 31,000 76 478 0
2020-12-02 06:14:19 GMT 48.547653 -5.967239 31,000 76 477 0
2020-12-02 06:14:16 GMT 48.546432 -5.975013 31,000 76 477 0
2020-12-02 06:14:12 GMT 48.544952 -5.984369 31,000 76 477 0
2020-12-02 06:14:07 GMT 48.542019 -6.003089 31,000 76 477 0
2020-12-02 06:14:02 GMT 48.539841 -6.016705 31,000 76 477 0
2020-12-02 06:13:56 GMT 48.536682 -6.036706 31,000 76 476 0
2020-12-02 06:13:53 GMT 48.534622 -6.049946 31,000 76 476 0
2020-12-02 06:13:46 GMT 48.531639 -6.069007 31,000 76 476 0
2020-12-02 06:13:42 GMT 48.529358 -6.083535 31,000 76 475 0
2020-12-02 06:13:38 GMT 48.527069 -6.097976 31,000 76 475 0
2020-12-02 06:13:35 GMT 48.525635 -6.107025 31,000 76 475 0
2020-12-02 06:13:32 GMT 48.524368 -6.115089 31,000 76 475 0
2020-12-02 06:13:26 GMT 48.521439 -6.133752 31,000 76 475 0
2020-12-02 06:13:21 GMT 48.519070 -6.149163 31,000 76 475 0
2020-12-02 06:13:16 GMT 48.516403 -6.166288 31,000 76 475 64
2020-12-02 06:13:12 GMT 48.514206 -6.180725 31,000 77 474 0
2020-12-02 06:13:07 GMT 48.511826 -6.196500 31,000 77 473 -64
2020-12-02 06:13:02 GMT 48.509262 -6.213262 31,000 77 474 -64
2020-12-02 06:12:56 GMT 48.504272 -6.246361 31,000 77 473 -64
2020-12-02 06:12:51 GMT 48.504272 -6.246361 31,000 77 473 -64
2020-12-02 06:12:46 GMT 48.501892 -6.262066 31,000 77 472 0
2020-12-02 06:12:41 GMT 48.499420 -6.278123 31,000 77 473 64
2020-12-02 06:12:37 GMT 48.496960 -6.294082 31,000 76 472 64
2020-12-02 06:12:31 GMT 48.493839 -6.313886 31,000 76 471 0
2020-12-02 06:12:26 GMT 48.491821 -6.326646 31,000 76 471 64
2020-12-02 06:12:21 GMT 48.488998 -6.343809 31,000 75 471 0
2020-12-02 06:12:14 GMT 48.485134 -6.366939 31,000 76 470 128
2020-12-02 06:12:11 GMT 48.483948 -6.374253 31,025 76 471 -64
2020-12-02 06:12:06 GMT 48.481476 -6.389465 31,000 74 469 64
2020-12-02 06:12:00 GMT 48.477859 -6.409325 31,000 71 468 0
2020-12-02 06:11:56 GMT 48.475124 -6.420931 31,000 65 464 0
2020-12-02 06:11:51 GMT 48.469540 -6.439000 31,000 61 462 0
2020-12-02 06:11:46 GMT 48.465500 -6.449538 31,000 57 459 0
2020-12-02 06:11:39 GMT 48.456783 -6.467984 31,000 50 456 0
2020-12-02 06:11:36 GMT 48.452362 -6.475595 31,000 47 454 0
2020-12-02 06:11:31 GMT 48.444672 -6.487215 31,000 38 450 0
2020-12-02 06:11:26 GMT 48.436996 -6.496895 31,000 33 449 0
2020-12-02 06:11:21 GMT 48.428192 -6.506160 31,000 31 448 0
2020-12-02 06:11:10 GMT 48.409103 -6.520949 31,000 20 445 0
2020-12-02 06:11:01 GMT 48.390106 -6.529752 31,000 11 443 0
2020-12-02 06:10:56 GMT 48.381866 -6.532006 31,000 7 442 0
2020-12-02 06:10:49 GMT 48.364983 -6.533902 31,000 0 442 0
2020-12-02 06:10:38 GMT 48.344238 -6.531372 31,000 349 442 0
2020-12-02 06:10:30 GMT 48.328400 -6.525456 31,000 342 443 64
2020-12-02 06:10:27 GMT 48.323181 -6.522780 31,000 339 444 64
2020-12-02 06:10:24 GMT 48.317081 -6.519085 31,000 299 460 0
2020-12-02 06:10:20 GMT 48.309490 -6.513592 31,000 332 445 0
2020-12-02 06:10:10 GMT 48.292007 -6.496652 31,000 322 449 0
2020-12-02 06:10:04 GMT 48.282761 -6.484610 31,000 319 450 0
2020-12-02 06:10:00 GMT 48.276672 -6.475212 31,000 312 453 0
2020-12-02 06:09:57 GMT 48.273102 -6.469046 31,000 309 454 64
2020-12-02 06:09:47 GMT 48.260612 -6.441241 30,975 299 460 0
2020-12-02 06:09:43 GMT 48.256935 -6.430110 30,975 297 461 0
2020-12-02 06:09:38 GMT 48.252136 -6.411861 31,000 289 467 -128
2020-12-02 06:09:34 GMT 48.250351 -6.402917 31,000 286 468 -128
2020-12-02 06:09:30 GMT 48.248276 -6.390284 31,000 281 471 128
2020-12-02 06:09:22 GMT 48.245911 -6.364394 30,975 277 474 128
2020-12-02 06:09:19 GMT 48.245716 -6.354796 30,975 270 481 0
2020-12-02 06:09:16 GMT 48.245995 -6.344460 30,975 267 482 -128
2020-12-02 06:09:13 GMT 48.246647 -6.334775 31,000 259 490 0
2020-12-02 06:09:10 GMT 48.248043 -6.321764 31,000 260 489 64
2020-12-02 06:09:06 GMT 48.249069 -6.313829 31,000 259 490 64
2020-12-02 06:09:00 GMT 48.252228 -6.291222 31,000 259 490 0
2020-12-02 06:08:57 GMT 48.253555 -6.281574 31,000 259 490 0
2020-12-02 06:08:54 GMT 48.254791 -6.272904 31,000 259 490 0
2020-12-02 06:08:49 GMT 48.257263 -6.254953 31,000 259 491 0
2020-12-02 06:08:46 GMT 48.258469 -6.246306 31,000 259 491 0
2020-12-02 06:08:43 GMT 48.259869 -6.236331 31,000 259 491 0
2020-12-02 06:08:39 GMT 48.261963 -6.221370 31,000 259 491 0
2020-12-02 06:08:34 GMT 48.264587 -6.202416 31,000 259 491 0
2020-12-02 06:08:27 GMT 48.267735 -6.179448 31,000 259 491 0
2020-12-02 06:08:22 GMT 48.269642 -6.165788 31,000 259 491 0
2020-12-02 06:08:16 GMT 48.272621 -6.144176 31,000 259 491 0
2020-12-02 06:08:13 GMT 48.273697 -6.136498 31,000 259 491 0
2020-12-02 06:08:06 GMT 48.277222 -6.110863 31,000 259 492 0
2020-12-02 06:08:03 GMT 48.279099 -6.097201 31,000 259 492 0
2020-12-02 06:07:56 GMT 48.281654 -6.078475 31,000 259 492 -64
2020-12-02 06:07:53 GMT 48.283192 -6.067489 31,000 259 492 0
2020-12-02 06:07:49 GMT 48.285099 -6.053467 31,000 259 492 0
2020-12-02 06:07:44 GMT 48.287285 -6.037855 31,000 259 492 64
2020-12-02 06:07:41 GMT 48.288498 -6.028820 31,000 259 492 64
2020-12-02 06:07:38 GMT 48.289764 -6.019804 31,000 259 492 0
2020-12-02 06:07:34 GMT 48.291870 -6.004451 31,000 259 492 0
2020-12-02 06:07:31 GMT 48.293243 -5.994488 31,000 259 492 0
2020-12-02 06:07:28 GMT 48.294525 -5.985154 31,000 259 492 0
2020-12-02 06:07:25 GMT 48.295624 -5.977126 31,000 259 492 -64
2020-12-02 06:07:22 GMT 48.297062 -5.966444 31,000 259 492 -64
2020-12-02 06:07:16 GMT 48.300293 -5.942758 31,000 259 492 0
2020-12-02 06:07:12 GMT 48.301579 -5.933412 31,000 259 492 64
2020-12-02 06:07:08 GMT 48.303680 -5.918039 31,000 259 491 64
2020-12-02 06:07:05 GMT 48.305008 -5.908391 31,000 259 491 0
2020-12-02 06:07:01 GMT 48.308235 -5.884697 31,000 259 491 0
2020-12-02 06:06:58 GMT 48.308235 -5.884697 31,000 259 491 0
2020-12-02 06:06:55 GMT 48.309586 -5.874657 31,000 259 491 -64
2020-12-02 06:06:52 GMT 48.311028 -5.863953 31,000 259 491 0
2020-12-02 06:06:47 GMT 48.312881 -5.850290 31,000 259 491 0
2020-12-02 06:06:42 GMT 48.315498 -5.830921 31,000 259 491 0
2020-12-02 06:06:37 GMT 48.317505 -5.815852 31,000 259 491 0
2020-12-02 06:06:32 GMT 48.320068 -5.796837 31,000 259 491 64
2020-12-02 06:06:27 GMT 48.321945 -5.782823 31,000 259 491 0
2020-12-02 06:06:24 GMT 48.323456 -5.771766 31,000 259 491 0
2020-12-02 06:06:21 GMT 48.324692 -5.762400 31,000 259 491 0
2020-12-02 06:06:18 GMT 48.326530 -5.748741 31,000 259 492 0
2020-12-02 06:06:12 GMT 48.329361 -5.727680 31,000 259 492 0
2020-12-02 06:06:05 GMT 48.332348 -5.705229 31,000 259 492 0
2020-12-02 06:06:01 GMT 48.333885 -5.693520 31,000 259 492 0
2020-12-02 06:05:57 GMT 48.335560 -5.681160 31,000 259 492 0
2020-12-02 06:05:54 GMT 48.336819 -5.671475 31,000 259 492 0
2020-12-02 06:05:51 GMT 48.338215 -5.661067 31,000 259 492 0
2020-12-02 06:05:47 GMT 48.339935 -5.648057 31,000 259 492 0
2020-12-02 06:05:44 GMT 48.342545 -5.628310 31,000 259 492 0
2020-12-02 06:05:41 GMT 48.342545 -5.628310 31,000 259 492 0
2020-12-02 06:05:37 GMT 48.344547 -5.613291 31,000 259 492 0
2020-12-02 06:05:33 GMT 48.345886 -5.603239 31,000 259 492 0
2020-12-02 06:05:30 GMT 48.347527 -5.591174 31,000 259 492 0
2020-12-02 06:05:27 GMT 48.349045 -5.579787 31,000 259 492 0
2020-12-02 06:05:22 GMT 48.351105 -5.564082 31,000 259 492 0
2020-12-02 06:05:19 GMT 48.352432 -5.554364 31,000 259 492 0
2020-12-02 06:05:16 GMT 48.353622 -5.545279 31,000 259 492 0
2020-12-02 06:05:13 GMT 48.354996 -5.534926 31,000 259 492 0
2020-12-02 06:05:10 GMT 48.356232 -5.525906 31,000 259 493 0
2020-12-02 06:05:07 GMT 48.358063 -5.512108 31,000 259 493 0
2020-12-02 06:05:02 GMT 48.360031 -5.497037 31,000 259 493 0
2020-12-02 06:04:59 GMT 48.361305 -5.487671 31,000 259 493 0
2020-12-02 06:04:56 GMT 48.362514 -5.478275 31,000 259 493 0
2020-12-02 06:04:52 GMT 48.364517 -5.463168 31,000 259 493 0
2020-12-02 06:04:49 GMT 48.365845 -5.453092 31,000 259 493 0
2020-12-02 06:04:46 GMT 48.366890 -5.445027 31,000 259 493 0
2020-12-02 06:04:43 GMT 48.368336 -5.433968 31,000 259 493 0
2020-12-02 06:04:40 GMT 48.369823 -5.422909 31,000 259 493 0
2020-12-02 06:04:37 GMT 48.371704 -5.408795 31,000 259 493 0
2020-12-02 06:04:33 GMT 48.372990 -5.398768 31,000 259 493 0
2020-12-02 06:04:29 GMT 48.374573 -5.386987 31,000 259 493 0
2020-12-02 06:04:26 GMT 48.375874 -5.376868 31,000 259 493 0
2020-12-02 06:04:23 GMT 48.377132 -5.367183 31,000 259 493 0
2020-12-02 06:04:19 GMT 48.378994 -5.353088 31,000 259 493 0
2020-12-02 06:04:16 GMT 48.380299 -5.342969 31,000 259 493 0
2020-12-02 06:04:13 GMT 48.381599 -5.333212 31,000 259 493 -64
2020-12-02 06:04:09 GMT 48.383469 -5.318791 31,000 259 493 0
2020-12-02 06:04:06 GMT 48.384659 -5.309706 31,000 259 493 0
2020-12-02 06:04:03 GMT 48.386116 -5.298590 31,000 259 493 0
2020-12-02 06:03:59 GMT 48.387726 -5.286184 31,000 259 494 0
2020-12-02 06:03:56 GMT 48.389236 -5.274423 31,000 260 494 0
2020-12-02 06:03:53 GMT 48.390747 -5.263015 31,000 260 494 0
2020-12-02 06:03:50 GMT 48.392357 -5.250525 31,000 260 494 0
2020-12-02 06:03:45 GMT 48.393631 -5.240479 31,000 260 494 0
2020-12-02 06:03:42 GMT 48.395050 -5.229703 31,000 259 494 0
2020-12-02 06:03:39 GMT 48.396637 -5.217277 31,000 259 494 0
2020-12-02 06:03:36 GMT 48.397896 -5.207809 31,000 259 494 64
2020-12-02 06:03:32 GMT 48.399353 -5.196392 31,000 260 494 64
2020-12-02 06:03:29 GMT 48.400875 -5.184969 31,000 260 493 -64
2020-12-02 06:03:25 GMT 48.402409 -5.172826 31,000 260 493 -64
2020-12-02 06:03:21 GMT 48.404411 -5.156997 31,000 260 493 -64
2020-12-02 06:03:18 GMT 48.405670 -5.147239 31,000 260 493 0
2020-12-02 06:03:15 GMT 48.406738 -5.138855 31,000 260 494 0
2020-12-02 06:03:12 GMT 48.408279 -5.127024 31,000 260 494 0
2020-12-02 06:03:09 GMT 48.409626 -5.116232 31,000 260 494 0
2020-12-02 06:03:05 GMT 48.411163 -5.104450 31,000 260 494 0
2020-12-02 06:03:02 GMT 48.412697 -5.092308 31,000 260 494 0
2020-12-02 06:02:59 GMT 48.413906 -5.082911 31,000 260 494 0
2020-12-02 06:02:55 GMT 48.415398 -5.071130 31,000 260 494 0
2020-12-02 06:02:52 GMT 48.417023 -5.058289 31,000 260 494 0
2020-12-02 06:02:48 GMT 48.419682 -5.037376 31,000 260 494 0
2020-12-02 06:02:45 GMT 48.419682 -5.037376 31,000 260 494 0
2020-12-02 06:02:42 GMT 48.420937 -5.027257 31,000 260 494 0
2020-12-02 06:02:39 GMT 48.422615 -5.014102 31,000 260 494 0
2020-12-02 06:02:35 GMT 48.423935 -5.003991 31,000 260 494 0
2020-12-02 06:02:31 GMT 48.425919 -4.988154 31,000 260 494 0
2020-12-02 06:02:28 GMT 48.426910 -4.980328 31,000 260 495 0
2020-12-02 06:02:25 GMT 48.428387 -4.968856 31,000 260 495 0
2020-12-02 06:02:22 GMT 48.429657 -4.958707 31,000 260 495 0
2020-12-02 06:02:18 GMT 48.431271 -4.945871 31,000 260 495 0
2020-12-02 06:02:15 GMT 48.432724 -4.934411 31,000 260 495 -64
2020-12-02 06:02:12 GMT 48.434017 -4.924260 31,000 260 495 -64
2020-12-02 06:02:08 GMT 48.435650 -4.911106 31,000 260 495 -64
2020-12-02 06:02:05 GMT 48.436996 -4.900625 31,000 260 495 0
2020-12-02 06:02:02 GMT 48.439232 -4.882700 31,000 260 495 64
2020-12-02 06:01:59 GMT 48.439232 -4.882700 31,000 260 495 64
2020-12-02 06:01:56 GMT 48.440735 -4.871169 31,000 260 495 0
2020-12-02 06:01:52 GMT 48.442474 -4.857295 31,000 260 495 0
2020-12-02 06:01:48 GMT 48.444492 -4.841429 31,000 260 496 -64
2020-12-02 06:01:45 GMT 48.445751 -4.831599 31,000 260 496 -64
2020-12-02 06:01:39 GMT 48.449100 -4.804495 31,000 260 496 64
2020-12-02 06:01:36 GMT 48.449100 -4.804495 31,000 260 496 64
2020-12-02 06:01:32 GMT 48.451012 -4.789244 31,000 260 496 0
2020-12-02 06:01:28 GMT 48.453152 -4.772331 31,000 260 496 0
2020-12-02 06:01:24 GMT 48.454422 -4.762151 31,000 260 496 0
2020-12-02 06:01:20 GMT 48.456116 -4.748911 31,000 260 496 64
2020-12-02 06:01:17 GMT 48.457481 -4.738071 31,000 260 496 64
2020-12-02 06:01:14 GMT 48.458691 -4.728241 31,000 260 496 64
2020-12-02 06:01:11 GMT 48.459686 -4.720459 31,000 260 496 0
2020-12-02 06:01:07 GMT 48.461517 -4.705529 31,000 260 496 0
2020-12-02 06:01:04 GMT 48.462879 -4.694704 31,000 260 496 0
2020-12-02 06:01:00 GMT 48.464722 -4.679753 31,000 260 496 0
2020-12-02 06:00:57 GMT 48.465866 -4.670598 31,000 260 496 0
2020-12-02 06:00:54 GMT 48.467117 -4.660444 31,000 260 497 0
2020-12-02 06:00:51 GMT 48.468155 -4.652287 31,000 260 497 0
2020-12-02 06:00:48 GMT 48.469494 -4.641435 31,000 260 497 0
2020-12-02 06:00:45 GMT 48.470673 -4.631935 31,000 260 497 -64
2020-12-02 06:00:41 GMT 48.472458 -4.617286 31,000 260 497 0
2020-12-02 06:00:38 GMT 48.473728 -4.607102 31,000 260 497 0
2020-12-02 06:00:35 GMT 48.476532 -4.584398 31,000 260 497 0
2020-12-02 06:00:31 GMT 48.478710 -4.566699 31,000 260 497 64
2020-12-02 06:00:27 GMT 48.478710 -4.566699 31,000 260 497 0
2020-12-02 06:00:24 GMT 48.479595 -4.559543 31,000 260 497 0
2020-12-02 06:00:21 GMT 48.482105 -4.539160 31,000 260 497 0
2020-12-02 06:00:18 GMT 48.482105 -4.539160 31,000 260 497 0
2020-12-02 06:00:15 GMT 48.483444 -4.528269 31,000 260 497 0
2020-12-02 06:00:12 GMT 48.484772 -4.517705 31,000 260 498 0
2020-12-02 06:00:09 GMT 48.486237 -4.505803 31,000 260 498 0
2020-12-02 06:00:06 GMT 48.487228 -4.497673 31,000 260 498 0
2020-12-02 06:00:03 GMT 48.488480 -4.487422 31,000 260 498 0
2020-12-02 06:00:00 GMT 48.489761 -4.477210 31,000 260 498 0
2020-12-02 05:59:56 GMT 48.491501 -4.462914 31,000 260 498 0
2020-12-02 05:59:53 GMT 48.492580 -4.454089 31,000 260 498 0
2020-12-02 05:59:50 GMT 48.493561 -4.445921 31,000 260 498 0
2020-12-02 05:59:46 GMT 48.495712 -4.428547 31,000 260 498 0
2020-12-02 05:59:43 GMT 48.496719 -4.420025 31,000 260 498 0
2020-12-02 05:59:40 GMT 48.498001 -4.409461 31,000 260 498 0
2020-12-02 05:59:37 GMT 48.499237 -4.399531 31,000 260 498 0
2020-12-02 05:59:34 GMT 48.500427 -4.389672 31,000 260 499 0
2020-12-02 05:59:31 GMT 48.503384 -4.365475 31,000 260 499 0
2020-12-02 05:59:28 GMT 48.503384 -4.365475 31,000 260 499 0
2020-12-02 05:59:25 GMT 48.504410 -4.356924 31,000 260 499 0
2020-12-02 05:59:21 GMT 48.506058 -4.343614 31,000 260 499 -64
2020-12-02 05:59:16 GMT 48.508530 -4.323120 31,000 260 499 -64
2020-12-02 05:59:13 GMT 48.509262 -4.316993 31,000 260 499 0
2020-12-02 05:59:09 GMT 48.510738 -4.304689 31,000 260 499 0
2020-12-02 05:59:06 GMT 48.511993 -4.294136 31,000 260 499 0
2020-12-02 05:59:03 GMT 48.513485 -4.281849 31,000 260 499 0
2020-12-02 05:58:58 GMT 48.515396 -4.266146 31,000 260 499 0
2020-12-02 05:58:55 GMT 48.516788 -4.254528 31,000 260 499 64
2020-12-02 05:58:51 GMT 48.518372 -4.241156 31,000 260 499 64
2020-12-02 05:58:45 GMT 48.520607 -4.222725 31,000 260 499 -64
2020-12-02 05:58:42 GMT 48.521805 -4.212482 31,000 260 499 0
2020-12-02 05:58:39 GMT 48.522995 -4.202552 31,000 260 499 64
2020-12-02 05:58:35 GMT 48.525009 -4.185791 31,000 260 499 -64
2020-12-02 05:58:32 GMT 48.525833 -4.178608 31,000 260 499 0
2020-12-02 05:58:28 GMT 48.527527 -4.164593 31,000 260 499 -64
2020-12-02 05:58:24 GMT 48.529266 -4.149874 31,000 260 499 0
2020-12-02 05:58:20 GMT 48.530754 -4.137509 31,000 260 499 0
2020-12-02 05:58:17 GMT 48.532242 -4.125225 31,000 260 499 0
2020-12-02 05:58:14 GMT 48.533249 -4.116633 31,000 260 499 0
2020-12-02 05:58:11 GMT 48.534618 -4.104984 31,000 260 499 0
2020-12-02 05:58:08 GMT 48.535721 -4.096140 31,000 260 499 0
2020-12-02 05:58:05 GMT 48.537369 -4.082055 31,000 260 500 64
2020-12-02 05:58:02 GMT 48.538437 -4.073181 31,000 260 500 0
2020-12-02 05:57:58 GMT 48.539925 -4.060460 31,000 260 500 0
2020-12-02 05:57:55 GMT 48.541183 -4.049835 31,000 260 500 0
2020-12-02 05:57:52 GMT 48.542439 -4.039210 31,000 260 500 0
2020-12-02 05:57:49 GMT 48.543556 -4.029959 31,000 260 501 0
2020-12-02 05:57:46 GMT 48.545280 -4.015214 31,000 260 500 0
2020-12-02 05:57:43 GMT 48.545792 -4.011066 31,000 260 501 0
2020-12-02 05:57:40 GMT 48.547348 -3.997685 31,000 260 501 0
2020-12-02 05:57:37 GMT 48.548401 -3.988741 31,000 260 501 0
2020-12-02 05:57:33 GMT 48.551605 -3.961628 31,000 260 501 64
2020-12-02 05:57:30 GMT 48.551605 -3.961628 31,000 260 501 64
2020-12-02 05:57:27 GMT 48.552494 -3.954066 31,000 260 501 64
2020-12-02 05:57:24 GMT 48.554031 -3.940993 31,000 261 502 0
2020-12-02 05:57:20 GMT 48.555450 -3.928950 31,000 261 502 -64
2020-12-02 05:57:17 GMT 48.556637 -3.918577 31,000 260 502 -64
2020-12-02 05:57:13 GMT 48.558289 -3.904795 31,000 260 502 0
2020-12-02 05:57:10 GMT 48.559387 -3.895498 31,000 260 502 0
2020-12-02 05:57:07 GMT 48.560364 -3.886920 31,000 260 502 0
2020-12-02 05:57:04 GMT 48.561676 -3.875920 31,000 261 502 0
2020-12-02 05:57:01 GMT 48.564331 -3.853173 31,000 261 502 0
2020-12-02 05:56:58 GMT 48.564331 -3.853173 31,000 261 502 0
2020-12-02 05:56:53 GMT 48.566181 -3.837336 31,000 261 502 0
2020-12-02 05:56:50 GMT 48.567398 -3.826975 31,000 261 502 0
2020-12-02 05:56:47 GMT 48.568695 -3.815581 31,000 261 502 64
2020-12-02 05:56:43 GMT 48.570183 -3.802860 31,000 261 502 0
2020-12-02 05:56:40 GMT 48.571564 -3.791128 31,000 261 503 64
2020-12-02 05:56:37 GMT 48.572651 -3.781465 31,000 261 503 0
2020-12-02 05:56:33 GMT 48.574356 -3.766972 31,000 261 503 0
2020-12-02 05:56:30 GMT 48.575443 -3.757324 31,000 261 503 0
2020-12-02 05:56:27 GMT 48.576702 -3.746627 31,000 261 503 0
2020-12-02 05:56:24 GMT 48.577972 -3.735563 31,000 261 503 0
2020-12-02 05:56:21 GMT 48.579029 -3.726244 31,000 261 503 -64
2020-12-02 05:56:18 GMT 48.581776 -3.702754 31,000 261 503 -64
2020-12-02 05:56:15 GMT 48.581776 -3.702754 31,000 261 503 0
2020-12-02 05:56:12 GMT 48.582413 -3.697181 31,000 261 503 0
2020-12-02 05:56:09 GMT 48.583591 -3.686853 31,000 261 503 64
2020-12-02 05:56:06 GMT 48.585022 -3.674363 31,000 261 504 0
2020-12-02 05:56:03 GMT 48.586479 -3.661917 31,000 261 504 64
2020-12-02 05:55:59 GMT 48.587688 -3.651219 31,000 261 504 0
2020-12-02 05:55:56 GMT 48.588943 -3.640522 31,000 261 504 -64
2020-12-02 05:55:53 GMT 48.590248 -3.629102 31,000 261 504 0
2020-12-02 05:55:50 GMT 48.591339 -3.619432 31,000 261 504 0
2020-12-02 05:55:47 GMT 48.592716 -3.607635 31,000 261 504 64
2020-12-02 05:55:44 GMT 48.593739 -3.598312 31,000 261 504 0
2020-12-02 05:55:41 GMT 48.594772 -3.589290 31,000 261 504 -64
2020-12-02 05:55:38 GMT 48.596329 -3.575839 31,000 261 504 -64
2020-12-02 05:55:35 GMT 48.597092 -3.569256 31,000 261 504 -64
2020-12-02 05:55:32 GMT 48.598526 -3.556824 31,000 261 504 0
2020-12-02 05:55:29 GMT 48.599808 -3.545344 31,000 261 504 0
2020-12-02 05:55:26 GMT 48.600815 -3.536682 31,000 261 504 -64
2020-12-02 05:55:23 GMT 48.602306 -3.523576 31,000 261 504 0
2020-12-02 05:55:19 GMT 48.603840 -3.510060 31,000 261 504 0
2020-12-02 05:55:16 GMT 48.604820 -3.501386 31,000 261 504 0
2020-12-02 05:55:12 GMT 48.606354 -3.488231 31,000 261 505 64
2020-12-02 05:55:09 GMT 48.607590 -3.477102 31,000 261 505 0
2020-12-02 05:55:06 GMT 48.608871 -3.465694 31,000 261 505 0
2020-12-02 05:55:03 GMT 48.610126 -3.454622 31,000 261 505 -64
2020-12-02 05:55:00 GMT 48.611057 -3.446310 31,000 261 505 0
2020-12-02 05:54:57 GMT 48.612488 -3.433791 31,000 261 505 0
2020-12-02 05:54:54 GMT 48.613541 -3.424424 31,000 261 505 0
2020-12-02 05:54:51 GMT 48.614735 -3.414001 31,000 261 505 0
2020-12-02 05:54:48 GMT 48.615646 -3.405691 31,000 261 505 0
2020-12-02 05:54:45 GMT 48.616791 -3.395620 31,000 261 505 0
2020-12-02 05:54:42 GMT 48.618301 -3.382099 31,000 261 505 0
2020-12-02 05:54:39 GMT 48.619205 -3.374104 31,000 261 505 0
2020-12-02 05:54:36 GMT 48.622742 -3.342872 31,000 261 505 64
2020-12-02 05:54:31 GMT 48.622742 -3.342872 31,000 261 505 64
2020-12-02 05:54:28 GMT 48.623581 -3.335218 31,000 261 506 0
2020-12-02 05:54:25 GMT 48.624790 -3.324448 31,000 261 506 0
2020-12-02 05:54:21 GMT 48.626186 -3.311583 31,000 261 505 0
2020-12-02 05:54:18 GMT 48.627537 -3.299440 31,000 261 505 0
2020-12-02 05:54:15 GMT 48.628555 -3.290405 31,000 261 505 0
2020-12-02 05:54:12 GMT 48.629772 -3.279636 31,000 261 506 0
2020-12-02 05:54:09 GMT 48.630890 -3.269517 31,000 261 506 -64
2020-12-02 05:54:06 GMT 48.632053 -3.258747 31,000 261 506 -64
2020-12-02 05:54:02 GMT 48.634007 -3.241400 31,000 261 506 0
2020-12-02 05:53:59 GMT 48.634872 -3.233713 31,000 261 506 0
2020-12-02 05:53:56 GMT 48.636063 -3.222938 31,000 261 505 0
2020-12-02 05:53:50 GMT 48.638245 -3.203093 31,000 261 505 0
2020-12-02 05:53:47 GMT 48.639496 -3.191951 31,000 261 506 0
2020-12-02 05:53:44 GMT 48.640617 -3.181554 31,000 261 507 0
2020-12-02 05:53:41 GMT 48.641647 -3.172443 31,000 261 506 0
2020-12-02 05:53:38 GMT 48.643890 -3.151949 31,000 261 506 0
2020-12-02 05:53:32 GMT 48.645035 -3.141456 31,000 261 506 0
2020-12-02 05:53:29 GMT 48.646454 -3.128568 31,000 261 506 0
2020-12-02 05:53:26 GMT 48.648651 -3.108708 31,000 261 506 0
2020-12-02 05:53:23 GMT 48.648651 -3.108708 31,000 261 506 0
2020-12-02 05:53:20 GMT 48.649750 -3.098567 31,000 261 506 0
2020-12-02 05:53:17 GMT 48.650906 -3.088098 31,000 261 507 0
2020-12-02 05:53:14 GMT 48.651947 -3.078355 31,000 261 507 0
2020-12-02 05:53:11 GMT 48.653278 -3.066487 31,000 261 507 0
2020-12-02 05:53:08 GMT 48.654236 -3.057368 31,000 261 507 0
2020-12-02 05:53:05 GMT 48.655563 -3.045185 31,000 261 507 0
2020-12-02 05:52:58 GMT 48.658119 -3.021746 31,000 261 507 -64
2020-12-02 05:52:55 GMT 48.659317 -3.010606 31,000 261 507 0
2020-12-02 05:52:52 GMT 48.660416 -3.000465 31,000 261 507 0
2020-12-02 05:52:48 GMT 48.662064 -2.985464 31,000 261 508 -64
2020-12-02 05:52:45 GMT 48.663391 -2.973210 31,000 261 507 0
2020-12-02 05:52:40 GMT 48.666363 -2.945926 31,000 261 507 0
2020-12-02 05:52:37 GMT 48.666363 -2.945926 31,000 261 508 -64
2020-12-02 05:52:34 GMT 48.667061 -2.939638 31,000 261 508 -64
2020-12-02 05:52:30 GMT 48.668877 -2.922869 31,000 261 508 0
2020-12-02 05:52:27 GMT 48.669945 -2.912678 31,000 261 508 0
2020-12-02 05:52:24 GMT 48.670971 -2.903209 31,000 261 508 0
2020-12-02 05:52:20 GMT 48.672501 -2.889263 31,000 261 508 0
2020-12-02 05:52:17 GMT 48.673622 -2.878707 31,000 261 508 0
2020-12-02 05:52:14 GMT 48.674789 -2.867854 31,000 261 508 0
2020-12-02 05:52:10 GMT 48.676414 -2.852831 31,000 261 508 0
2020-12-02 05:52:07 GMT 48.677628 -2.841586 31,000 261 509 0
2020-12-02 05:52:04 GMT 48.678543 -2.833205 31,000 261 509 0
2020-12-02 05:52:00 GMT 48.681305 -2.807224 31,000 261 509 0
2020-12-02 05:51:57 GMT 48.681305 -2.807224 31,000 261 509 0
2020-12-02 05:51:54 GMT 48.682468 -2.796382 31,000 261 509 0
2020-12-02 05:51:51 GMT 48.684677 -2.775668 31,000 261 509 0
2020-12-02 05:51:48 GMT 48.684677 -2.775668 31,000 261 509 0
2020-12-02 05:51:45 GMT 48.685730 -2.765808 31,000 261 509 0
2020-12-02 05:51:42 GMT 48.686752 -2.755978 31,000 261 510 -64
2020-12-02 05:51:39 GMT 48.689034 -2.734873 31,000 261 510 0
2020-12-02 05:51:36 GMT 48.689034 -2.734873 31,000 261 510 0
2020-12-02 05:51:33 GMT 48.689987 -2.725736 31,000 261 510 0
2020-12-02 05:51:30 GMT 48.691589 -2.710595 31,000 261 510 0
2020-12-02 05:51:27 GMT 48.692459 -2.702496 31,000 261 510 0
2020-12-02 05:51:24 GMT 48.693546 -2.691940 31,000 261 510 0
2020-12-02 05:51:20 GMT 48.695084 -2.677556 31,000 261 510 0
2020-12-02 05:51:17 GMT 48.696156 -2.667365 31,000 261 510 0
2020-12-02 05:51:14 GMT 48.697083 -2.658551 31,000 261 511 0
2020-12-02 05:51:11 GMT 48.698296 -2.646910 31,000 261 511 0
2020-12-02 05:51:08 GMT 48.699600 -2.634958 31,000 261 511 0
2020-12-02 05:51:05 GMT 48.700424 -2.626859 31,000 261 511 0
2020-12-02 05:51:02 GMT 48.701836 -2.613445 31,000 261 511 0
2020-12-02 05:50:59 GMT 48.702942 -2.603267 31,000 261 511 0
2020-12-02 05:50:56 GMT 48.704021 -2.592701 31,000 261 511 0
2020-12-02 05:50:52 GMT 48.705746 -2.576439 31,000 261 511 0
2020-12-02 05:50:49 GMT 48.706535 -2.568705 31,000 261 511 0
2020-12-02 05:50:46 GMT 48.707607 -2.558441 31,000 261 511 0
2020-12-02 05:50:43 GMT 48.710121 -2.534445 31,000 262 512 0
2020-12-02 05:50:39 GMT 48.710121 -2.534445 31,000 262 512 0
2020-12-02 05:50:36 GMT 48.711456 -2.522067 31,000 262 512 0
2020-12-02 05:50:33 GMT 48.712463 -2.512207 31,000 262 512 0
2020-12-02 05:50:30 GMT 48.713654 -2.500516 31,000 262 512 0
2020-12-02 05:50:26 GMT 48.715240 -2.485368 31,000 262 513 0
2020-12-02 05:50:23 GMT 48.716171 -2.476477 31,000 262 513 0
2020-12-02 05:50:19 GMT 48.717819 -2.460233 31,000 262 513 0
2020-12-02 05:50:16 GMT 48.718689 -2.452064 31,000 262 513 0
2020-12-02 05:50:13 GMT 48.719833 -2.441148 31,000 262 513 0
2020-12-02 05:50:09 GMT 48.721294 -2.426967 31,000 262 513 0
2020-12-02 05:50:06 GMT 48.722260 -2.417767 31,000 262 513 64
2020-12-02 05:50:03 GMT 48.723576 -2.404994 31,000 262 513 0
2020-12-02 05:50:00 GMT 48.724506 -2.396176 31,000 262 514 0
2020-12-02 05:49:57 GMT 48.725601 -2.385512 31,000 262 514 0
2020-12-02 05:49:54 GMT 48.726833 -2.373481 31,000 262 514 0
2020-12-02 05:49:51 GMT 48.727997 -2.362494 31,000 262 515 -64
2020-12-02 05:49:48 GMT 48.729813 -2.344714 31,000 262 514 64
2020-12-02 05:49:45 GMT 48.729813 -2.344714 31,000 262 514 -64
2020-12-02 05:49:42 GMT 48.731068 -2.332282 31,000 262 515 -64
2020-12-02 05:49:39 GMT 48.732140 -2.322018 31,000 262 515 -64
2020-12-02 05:49:36 GMT 48.733444 -2.309586 31,000 262 515 0
2020-12-02 05:49:33 GMT 48.734528 -2.298889 31,000 262 515 0
2020-12-02 05:49:30 GMT 48.735580 -2.288607 31,000 262 515 0
2020-12-02 05:49:27 GMT 48.736656 -2.277928 31,000 262 515 0
2020-12-02 05:49:24 GMT 48.737957 -2.265497 31,000 262 515 0
2020-12-02 05:49:21 GMT 48.739014 -2.254803 31,000 262 515 0
2020-12-02 05:49:18 GMT 48.740112 -2.244169 31,000 262 515 0
2020-12-02 05:49:15 GMT 48.741302 -2.232408 31,000 262 515 0
2020-12-02 05:49:12 GMT 48.741852 -2.227055 31,000 262 515 -64
2020-12-02 05:49:09 GMT 48.743225 -2.213956 31,000 262 516 0
2020-12-02 05:49:06 GMT 48.745266 -2.193652 31,000 262 516 0
2020-12-02 05:49:03 GMT 48.745266 -2.193652 31,000 262 516 0
2020-12-02 05:49:00 GMT 48.746384 -2.182593 31,000 262 516 0
2020-12-02 05:48:57 GMT 48.748627 -2.160856 31,000 262 515 0
2020-12-02 05:48:54 GMT 48.748627 -2.160856 31,000 262 515 0
2020-12-02 05:48:51 GMT 48.749725 -2.149799 31,000 262 515 0
2020-12-02 05:48:48 GMT 48.750809 -2.139154 31,000 262 515 0
2020-12-02 05:48:45 GMT 48.751831 -2.129164 31,000 262 516 0
2020-12-02 05:48:42 GMT 48.752701 -2.120573 31,000 262 516 0
2020-12-02 05:48:39 GMT 48.754028 -2.107403 31,000 262 516 0
2020-12-02 05:48:36 GMT 48.755127 -2.096346 31,000 262 516 0
2020-12-02 05:48:33 GMT 48.756180 -2.085923 31,000 262 516 0
2020-12-02 05:48:30 GMT 48.757324 -2.074867 31,000 262 516 0
2020-12-02 05:48:27 GMT 48.758423 -2.063810 31,000 262 517 0
2020-12-02 05:48:24 GMT 48.759327 -2.054877 31,000 262 517 0
2020-12-02 05:48:21 GMT 48.760300 -2.044866 31,000 262 517 0
2020-12-02 05:48:18 GMT 48.761627 -2.031626 31,000 262 517 0
2020-12-02 05:48:15 GMT 48.762726 -2.020906 31,000 262 517 0
2020-12-02 05:48:12 GMT 48.763748 -2.010570 31,000 262 517 0
2020-12-02 05:48:09 GMT 48.765144 -1.996548 31,000 262 517 0
2020-12-02 05:48:06 GMT 48.765888 -1.989104 31,000 262 517 0
2020-12-02 05:48:03 GMT 48.767056 -1.977250 31,000 262 517 0
2020-12-02 05:48:00 GMT 48.767944 -1.968665 31,000 262 519 0
2020-12-02 05:47:57 GMT 48.769180 -1.956130 31,000 262 517 0
2020-12-02 05:47:54 GMT 48.770081 -1.946821 31,000 262 518 0
2020-12-02 05:47:51 GMT 48.771286 -1.934650 31,000 262 518 0
2020-12-02 05:47:48 GMT 48.773026 -1.917114 31,000 262 518 0
2020-12-02 05:47:45 GMT 48.773026 -1.917114 31,000 262 518 0
2020-12-02 05:47:42 GMT 48.774353 -1.903804 31,000 262 518 0
2020-12-02 05:47:39 GMT 48.775360 -1.893451 31,000 262 518 64
2020-12-02 05:47:36 GMT 48.776596 -1.880903 31,000 262 518 0
2020-12-02 05:47:33 GMT 48.777573 -1.870856 31,000 262 518 0
2020-12-02 05:47:30 GMT 48.778831 -1.858280 31,000 262 519 0
2020-12-02 05:47:27 GMT 48.779903 -1.847149 31,000 262 519 0
2020-12-02 05:47:24 GMT 48.780647 -1.839559 31,000 262 519 0
2020-12-02 05:47:21 GMT 48.781586 -1.830280 31,000 262 519 0
2020-12-02 05:47:18 GMT 48.783783 -1.807603 31,000 262 519 0
2020-12-02 05:47:15 GMT 48.783783 -1.807603 31,000 262 519 0
2020-12-02 05:47:12 GMT 48.785023 -1.795036 31,000 262 520 0
2020-12-02 05:47:09 GMT 48.786072 -1.784574 31,000 262 520 64
2020-12-02 05:47:06 GMT 48.787262 -1.772320 31,000 262 520 -64
2020-12-02 05:47:03 GMT 48.787994 -1.764432 31,000 262 520 -64
2020-12-02 05:47:00 GMT 48.789120 -1.752898 31,000 262 521 -64
2020-12-02 05:46:55 GMT 48.790890 -1.734828 31,000 262 521 -64
2020-12-02 05:46:52 GMT 48.791931 -1.724008 31,000 262 521 0
2020-12-02 05:46:49 GMT 48.793030 -1.712855 31,000 262 521 64
2020-12-02 05:46:46 GMT 48.795124 -1.691244 31,000 262 522 0
2020-12-02 05:46:43 GMT 48.795124 -1.691244 31,000 262 521 0
2020-12-02 05:46:40 GMT 48.796150 -1.680764 31,000 262 522 0
2020-12-02 05:46:37 GMT 48.797127 -1.670283 31,000 262 523 0
2020-12-02 05:46:34 GMT 48.798290 -1.658357 31,000 262 522 0
2020-12-02 05:46:31 GMT 48.799313 -1.647877 31,000 262 522 0
2020-12-02 05:46:28 GMT 48.800385 -1.636674 31,000 262 522 0
2020-12-02 05:46:25 GMT 48.801407 -1.625765 31,000 262 523 0
2020-12-02 05:46:22 GMT 48.802387 -1.615641 31,000 262 523 0
2020-12-02 05:46:19 GMT 48.803650 -1.602595 31,000 262 523 0
2020-12-02 05:46:15 GMT 48.804977 -1.588510 31,000 262 523 0
2020-12-02 05:46:12 GMT 48.805832 -1.579791 31,000 262 523 0
2020-12-02 05:46:09 GMT 48.808182 -1.555551 31,000 262 523 0
2020-12-02 05:46:06 GMT 48.808182 -1.555551 31,000 262 524 0
2020-12-02 05:46:03 GMT 48.809052 -1.546467 31,000 262 524 64
2020-12-02 05:46:00 GMT 48.811184 -1.524353 31,000 262 524 0
2020-12-02 05:45:57 GMT 48.811184 -1.524353 31,000 262 524 0
2020-12-02 05:45:54 GMT 48.812073 -1.514916 31,000 262 524 0
2020-12-02 05:45:51 GMT 48.814304 -1.491322 31,000 262 524 0
2020-12-02 05:45:48 GMT 48.815376 -1.480046 31,000 262 524 0
2020-12-02 05:45:45 GMT 48.815376 -1.480046 31,000 262 525 0
2020-12-02 05:45:42 GMT 48.816399 -1.469132 31,000 262 525 64
2020-12-02 05:45:39 GMT 48.817142 -1.461471 31,000 262 525 0
2020-12-02 05:45:36 GMT 48.818665 -1.445477 31,000 262 525 0
2020-12-02 05:45:33 GMT 48.819672 -1.434983 31,000 262 525 -64
2020-12-02 05:45:30 GMT 48.820354 -1.427717 31,000 262 525 0
2020-12-02 05:45:27 GMT 48.821686 -1.413856 31,000 262 525 -64
2020-12-02 05:45:23 GMT 48.823708 -1.392373 31,000 262 525 0
2020-12-02 05:45:17 GMT 48.824936 -1.379277 31,000 262 525 -64
2020-12-02 05:45:14 GMT 48.826035 -1.367653 31,000 262 525 0
2020-12-02 05:45:11 GMT 48.827106 -1.356378 31,000 262 525 0
2020-12-02 05:45:08 GMT 48.828129 -1.345102 31,000 262 525 0
2020-12-02 05:45:04 GMT 48.829342 -1.332309 31,000 263 526 0
2020-12-02 05:45:01 GMT 48.830704 -1.317796 31,000 263 525 0
2020-12-02 05:44:58 GMT 48.831345 -1.310894 31,000 263 525 0
2020-12-02 05:44:54 GMT 48.832718 -1.295964 31,000 263 526 0
2020-12-02 05:44:51 GMT 48.833717 -1.285039 31,000 263 526 -64
2020-12-02 05:44:48 GMT 48.834740 -1.273691 31,000 263 526 0
2020-12-02 05:44:44 GMT 48.836288 -1.257371 31,000 263 526 0
2020-12-02 05:44:40 GMT 48.837524 -1.243850 31,000 263 526 0
2020-12-02 05:44:37 GMT 48.838512 -1.232926 31,000 263 526 0
2020-12-02 05:44:34 GMT 48.839535 -1.222374 31,000 263 526 0
2020-12-02 05:44:31 GMT 48.840683 -1.209975 31,000 263 526 0
2020-12-02 05:44:28 GMT 48.841679 -1.199028 31,000 263 526 0
2020-12-02 05:44:24 GMT 48.842972 -1.185185 31,000 263 526 0
2020-12-02 05:44:21 GMT 48.844936 -1.163611 31,000 263 526 0
2020-12-02 05:44:18 GMT 48.844936 -1.163611 31,000 263 526 0
2020-12-02 05:44:15 GMT 48.846130 -1.150466 31,000 263 525 0
2020-12-02 05:44:12 GMT 48.847870 -1.131520 31,000 263 526 0
2020-12-02 05:44:09 GMT 48.847870 -1.131520 31,000 263 526 0
2020-12-02 05:44:06 GMT 48.849243 -1.116521 31,000 263 526 0
2020-12-02 05:44:03 GMT 48.849792 -1.110676 31,000 263 526 0
2020-12-02 05:44:00 GMT 48.850891 -1.098633 31,000 263 526 0
2020-12-02 05:43:57 GMT 48.851730 -1.089164 31,000 263 526 0
2020-12-02 05:43:53 GMT 48.853130 -1.074203 31,000 263 526 0
2020-12-02 05:43:50 GMT 48.854416 -1.059969 31,000 263 526 0
2020-12-02 05:43:47 GMT 48.855129 -1.052302 31,000 263 526 0
2020-12-02 05:43:43 GMT 48.856705 -1.035109 31,000 263 526 0
2020-12-02 05:43:40 GMT 48.857529 -1.025954 31,000 263 526 0
2020-12-02 05:43:37 GMT 48.858482 -1.015729 31,000 263 526 64
2020-12-02 05:43:34 GMT 48.859787 -1.001491 31,000 263 526 64
2020-12-02 05:43:31 GMT 48.860435 -0.994190 31,000 263 527 0
2020-12-02 05:43:28 GMT 48.861835 -0.979156 31,000 263 527 0
2020-12-02 05:43:22 GMT 48.863369 -0.962388 31,000 263 527 0
2020-12-02 05:43:19 GMT 48.864532 -0.949543 31,000 263 527 -64
2020-12-02 05:43:16 GMT 48.865372 -0.940054 31,000 263 527 0
2020-12-02 05:43:13 GMT 48.866814 -0.923936 31,000 263 527 0
2020-12-02 05:43:09 GMT 48.867744 -0.914034 31,000 263 527 0
2020-12-02 05:43:06 GMT 48.868862 -0.901168 31,000 263 527 0
2020-12-02 05:43:02 GMT 48.870026 -0.888375 31,000 263 527 0
2020-12-02 05:42:59 GMT 48.871262 -0.874469 31,000 263 527 0
2020-12-02 05:42:56 GMT 48.872498 -0.860877 31,000 263 527 0
2020-12-02 05:42:53 GMT 48.874310 -0.840743 31,000 263 527 0
2020-12-02 05:42:50 GMT 48.874310 -0.840743 31,000 263 527 0
2020-12-02 05:42:47 GMT 48.875053 -0.831925 31,000 263 527 0
2020-12-02 05:42:44 GMT 48.876080 -0.820578 31,000 263 527 0
2020-12-02 05:42:41 GMT 48.877151 -0.808507 31,000 263 527 0
2020-12-02 05:42:38 GMT 48.877850 -0.800845 31,000 263 526 0
2020-12-02 05:42:35 GMT 48.879089 -0.786931 31,000 263 527 -64
2020-12-02 05:42:32 GMT 48.880051 -0.776297 31,000 263 527 0
2020-12-02 05:42:28 GMT 48.881104 -0.764184 31,000 263 527 0
2020-12-02 05:42:25 GMT 48.882568 -0.747704 31,000 263 527 0
2020-12-02 05:42:21 GMT 48.883713 -0.734887 31,000 263 527 0
2020-12-02 05:42:18 GMT 48.884506 -0.726110 31,000 263 527 0
2020-12-02 05:42:15 GMT 48.885574 -0.714039 31,000 263 527 0
2020-12-02 05:42:12 GMT 48.886505 -0.703414 31,000 263 527 0
2020-12-02 05:42:09 GMT 48.888229 -0.683610 31,000 263 527 0
2020-12-02 05:42:03 GMT 48.889439 -0.670094 31,000 263 526 0
2020-12-02 05:41:59 GMT 48.890717 -0.655447 31,000 263 526 0
2020-12-02 05:41:56 GMT 48.891674 -0.644507 31,000 263 526 0
2020-12-02 05:41:53 GMT 48.892792 -0.631642 31,000 263 526 0
2020-12-02 05:41:50 GMT 48.893646 -0.622136 31,000 263 525 0
2020-12-02 05:41:47 GMT 48.894379 -0.613755 31,000 263 526 0
2020-12-02 05:41:43 GMT 48.896004 -0.594780 31,000 263 526 0
2020-12-02 05:41:39 GMT 48.897213 -0.580902 31,000 263 525 0
2020-12-02 05:41:36 GMT 48.898224 -0.569528 31,000 263 525 0
2020-12-02 05:41:33 GMT 48.899075 -0.559363 31,000 263 525 0
2020-12-02 05:41:30 GMT 48.899780 -0.551288 31,000 263 525 0
2020-12-02 05:41:27 GMT 48.901077 -0.536740 31,000 263 525 64
2020-12-02 05:41:23 GMT 48.902149 -0.523947 31,000 263 525 64
2020-12-02 05:41:20 GMT 48.904037 -0.502413 31,000 263 524 64
2020-12-02 05:41:17 GMT 48.904037 -0.502413 31,000 263 524 0
2020-12-02 05:41:13 GMT 48.905548 -0.484916 31,000 263 524 64
2020-12-02 05:41:10 GMT 48.906235 -0.476919 31,000 263 524 64
2020-12-02 05:41:07 GMT 48.907177 -0.465979 30,975 263 524 0
2020-12-02 05:41:04 GMT 48.908199 -0.453981 31,000 263 524 0
2020-12-02 05:41:01 GMT 48.908993 -0.444874 30,975 263 524 0
2020-12-02 05:40:57 GMT 48.910400 -0.428819 30,975 263 524 0
2020-12-02 05:40:54 GMT 48.911320 -0.417914 31,000 263 524 0
2020-12-02 05:40:51 GMT 48.912109 -0.408373 31,000 263 524 0
2020-12-02 05:40:47 GMT 48.913460 -0.393123 31,000 263 523 0
2020-12-02 05:40:44 GMT 48.914391 -0.381847 30,975 263 523 64
2020-12-02 05:40:41 GMT 48.915298 -0.371282 30,975 263 523 64
2020-12-02 05:40:38 GMT 48.917130 -0.349450 30,975 263 523 0
2020-12-02 05:40:35 GMT 48.917130 -0.349450 30,975 263 523 -64
2020-12-02 05:40:32 GMT 48.918091 -0.338182 31,000 263 522 -128
2020-12-02 05:40:28 GMT 48.919235 -0.324731 31,000 263 522 -128
2020-12-02 05:40:25 GMT 48.920242 -0.312758 31,000 263 522 0
2020-12-02 05:40:22 GMT 48.921249 -0.300786 31,000 263 521 0
2020-12-02 05:40:19 GMT 48.921886 -0.293523 31,000 263 521 0
2020-12-02 05:40:16 GMT 48.922806 -0.282687 31,000 263 521 0
2020-12-02 05:40:13 GMT 48.923889 -0.269599 31,000 263 521 0
2020-12-02 05:40:10 GMT 48.924633 -0.260564 31,000 263 514 0
2020-12-02 05:40:07 GMT 48.925842 -0.246470 31,000 263 520 0
2020-12-02 05:40:04 GMT 48.926605 -0.237051 31,000 263 520 0
2020-12-02 05:40:01 GMT 48.927799 -0.222545 31,000 263 519 0
2020-12-02 05:39:58 GMT 48.928543 -0.213511 31,000 263 519 0
2020-12-02 05:39:55 GMT 48.929169 -0.206275 31,000 263 519 0
2020-12-02 05:39:52 GMT 48.930405 -0.191104 31,000 263 519 0
2020-12-02 05:39:49 GMT 48.931011 -0.183949 31,000 263 519 0
2020-12-02 05:39:46 GMT 48.932129 -0.170216 31,000 263 519 0
2020-12-02 05:39:42 GMT 48.933151 -0.157964 31,000 263 517 0
2020-12-02 05:39:39 GMT 48.934177 -0.145713 31,000 263 517 0
2020-12-02 05:39:36 GMT 48.934875 -0.137040 31,000 263 517 0
2020-12-02 05:39:33 GMT 48.935760 -0.126202 31,000 263 516 0
2020-12-02 05:39:30 GMT 48.936642 -0.115429 31,000 263 516 0
2020-12-02 05:39:27 GMT 48.937866 -0.100708 31,000 263 516 0
2020-12-02 05:39:24 GMT 48.938644 -0.091341 31,000 263 515 0
2020-12-02 05:39:21 GMT 48.939789 -0.076975 31,000 263 515 0
2020-12-02 05:39:18 GMT 48.940369 -0.070182 31,000 263 515 0
2020-12-02 05:39:12 GMT 48.942078 -0.049016 31,000 263 514 0
2020-12-02 05:39:09 GMT 48.942764 -0.040424 31,000 263 514 0
2020-12-02 05:39:06 GMT 48.943672 -0.028911 31,000 263 514 0
2020-12-02 05:39:03 GMT 48.944641 -0.017465 31,000 263 514 0
2020-12-02 05:39:00 GMT 48.945675 -0.004915 31,000 263 514 0
2020-12-02 05:38:57 GMT 48.946381 0.004014 31,000 263 514 0
2020-12-02 05:38:54 GMT 48.947632 0.019082 31,000 263 514 0
2020-12-02 05:38:51 GMT 48.948189 0.025876 31,000 263 514 0
2020-12-02 05:38:48 GMT 48.949036 0.036621 31,000 263 514 0
2020-12-02 05:38:45 GMT 48.949909 0.047415 31,000 263 514 64
2020-12-02 05:38:42 GMT 48.950748 0.057823 31,000 263 515 64
2020-12-02 05:38:39 GMT 48.951866 0.071773 31,000 263 515 64
2020-12-02 05:38:36 GMT 48.952606 0.080426 31,000 263 515 64
2020-12-02 05:38:32 GMT 48.953476 0.091553 31,000 263 515 64
2020-12-02 05:38:29 GMT 48.954472 0.103720 31,000 263 515 0
2020-12-02 05:38:26 GMT 48.955498 0.115935 31,000 263 515 0
2020-12-02 05:38:23 GMT 48.956314 0.126413 31,000 263 515 0
2020-12-02 05:38:20 GMT 48.957127 0.136462 31,000 263 515 0
2020-12-02 05:38:17 GMT 48.958012 0.147593 31,000 263 515 0
2020-12-02 05:38:14 GMT 48.958942 0.158724 31,000 263 515 0
2020-12-02 05:38:11 GMT 48.959702 0.168105 31,000 263 515 -64
2020-12-02 05:38:08 GMT 48.960712 0.180985 31,000 263 515 0
2020-12-02 05:38:05 GMT 48.961502 0.190743 31,000 263 515 64
2020-12-02 05:38:01 GMT 48.963692 0.217341 31,000 263 516 64
2020-12-02 05:37:58 GMT 48.963692 0.217341 31,000 263 516 64
2020-12-02 05:37:54 GMT 48.964966 0.233178 30,975 263 516 64
2020-12-02 05:37:51 GMT 48.965698 0.242192 30,975 263 516 0
2020-12-02 05:37:48 GMT 48.966343 0.250084 31,000 264 517 0
2020-12-02 05:37:45 GMT 48.967648 0.266346 31,000 264 517 0
2020-12-02 05:37:41 GMT 48.968346 0.274947 31,000 264 517 0
2020-12-02 05:37:38 GMT 48.969276 0.286873 31,000 264 517 64
2020-12-02 05:37:35 GMT 48.970276 0.299518 31,000 264 517 0
2020-12-02 05:37:32 GMT 48.972015 0.321139 31,000 264 517 -64
2020-12-02 05:37:29 GMT 48.972015 0.321139 31,000 264 517 0
2020-12-02 05:37:26 GMT 48.972721 0.330168 31,000 264 517 0
2020-12-02 05:37:23 GMT 48.973801 0.344238 31,000 264 517 0
2020-12-02 05:37:20 GMT 48.975357 0.364450 31,000 264 517 -64
2020-12-02 05:37:17 GMT 48.975357 0.364450 31,000 264 517 0
2020-12-02 05:37:14 GMT 48.976212 0.375270 31,000 264 518 0
2020-12-02 05:37:10 GMT 48.977379 0.390015 31,000 264 517 0
2020-12-02 05:37:07 GMT 48.978195 0.400156 31,000 264 518 0
2020-12-02 05:37:04 GMT 48.978882 0.409170 31,000 264 518 0
2020-12-02 05:37:01 GMT 48.979843 0.421456 31,000 264 518 0
2020-12-02 05:36:58 GMT 48.980961 0.435550 31,000 264 518 -64
2020-12-02 05:36:55 GMT 48.981522 0.443139 31,000 264 518 -64
2020-12-02 05:36:52 GMT 48.982590 0.456511 31,000 264 518 0
2020-12-02 05:36:49 GMT 48.983093 0.463398 31,000 264 518 0
2020-12-02 05:36:46 GMT 48.984146 0.476356 31,000 264 518 64
2020-12-02 05:36:43 GMT 48.984966 0.487229 31,000 264 519 0
2020-12-02 05:36:37 GMT 48.986618 0.508259 31,000 264 519 0
2020-12-02 05:36:33 GMT 48.988598 0.533921 31,000 264 519 -64
2020-12-02 05:36:30 GMT 48.988598 0.533921 31,000 264 519 0
2020-12-02 05:36:27 GMT 48.989456 0.544809 31,000 264 519 0
2020-12-02 05:36:24 GMT 48.990143 0.553824 31,000 264 519 0
2020-12-02 05:36:21 GMT 48.991287 0.568683 31,000 264 519 0
2020-12-02 05:36:17 GMT 48.992180 0.580324 31,000 264 519 0
2020-12-02 05:36:14 GMT 48.993210 0.593684 31,000 264 519 0
2020-12-02 05:36:11 GMT 48.993950 0.603525 31,000 264 519 0
2020-12-02 05:36:08 GMT 48.994740 0.614006 31,000 264 519 -64
2020-12-02 05:36:05 GMT 48.995590 0.624883 31,000 264 520 0
2020-12-02 05:36:02 GMT 48.996368 0.634672 31,000 264 520 0
2020-12-02 05:35:59 GMT 48.997284 0.646644 31,000 264 520 64
2020-12-02 05:35:56 GMT 48.998016 0.656433 31,000 264 520 64
2020-12-02 05:35:53 GMT 48.999115 0.670589 31,000 264 520 0
2020-12-02 05:35:50 GMT 49.000931 0.694885 31,000 264 520 0
2020-12-02 05:35:46 GMT 49.000931 0.694885 31,000 264 520 0
2020-12-02 05:35:43 GMT 49.001492 0.701824 31,000 264 520 0
2020-12-02 05:35:40 GMT 49.002655 0.717436 31,000 264 520 0
2020-12-02 05:35:37 GMT 49.003262 0.725387 31,000 264 521 -64
2020-12-02 05:35:34 GMT 49.004097 0.736662 31,000 264 521 -64
2020-12-02 05:35:31 GMT 49.005112 0.750099 31,000 264 521 0
2020-12-02 05:35:28 GMT 49.006073 0.762846 31,000 264 521 0
2020-12-02 05:35:25 GMT 49.006577 0.769395 31,000 264 521 0
2020-12-02 05:35:22 GMT 49.007401 0.780663 31,000 264 521 0
2020-12-02 05:35:19 GMT 49.008102 0.790076 31,000 264 521 0
2020-12-02 05:35:16 GMT 49.008957 0.801016 31,000 264 521 64
2020-12-02 05:35:13 GMT 49.009918 0.813693 31,000 264 521 64
2020-12-02 05:35:10 GMT 49.010708 0.824625 31,000 264 521 0
2020-12-02 05:35:07 GMT 49.011475 0.834820 31,000 264 522 -64
2020-12-02 05:35:04 GMT 49.012478 0.848694 31,000 264 522 0
2020-12-02 05:35:01 GMT 49.012989 0.855560 31,000 264 522 0
2020-12-02 05:34:58 GMT 49.013947 0.867990 31,000 264 522 64
2020-12-02 05:34:55 GMT 49.014572 0.876738 31,000 264 522 64
2020-12-02 05:34:52 GMT 49.015549 0.889822 31,000 264 522 0
2020-12-02 05:34:48 GMT 49.016830 0.907006 31,000 264 522 0
2020-12-02 05:34:45 GMT 49.017460 0.915696 31,000 264 522 0
2020-12-02 05:34:42 GMT 49.018250 0.926655 31,000 264 522 0
2020-12-02 05:34:39 GMT 49.018936 0.935810 31,000 264 523 0
2020-12-02 05:34:36 GMT 49.020630 0.959121 31,000 264 523 0
2020-12-02 05:34:33 GMT 49.020630 0.959121 31,000 264 523 0
2020-12-02 05:34:30 GMT 49.021416 0.970122 31,000 264 523 0
2020-12-02 05:34:27 GMT 49.022251 0.981397 31,000 264 523 0
2020-12-02 05:34:24 GMT 49.022903 0.990576 31,000 264 523 0
2020-12-02 05:34:21 GMT 49.023834 1.003700 31,000 264 523 0
2020-12-02 05:34:18 GMT 49.024582 1.013922 31,000 264 523 0
2020-12-02 05:34:15 GMT 49.025326 1.024186 31,000 264 523 0
2020-12-02 05:34:12 GMT 49.026077 1.034405 31,000 264 523 0
2020-12-02 05:34:09 GMT 49.026947 1.047152 31,000 264 523 0
2020-12-02 05:34:06 GMT 49.027794 1.058880 31,000 264 524 0
2020-12-02 05:34:03 GMT 49.028538 1.069505 31,000 264 524 0
2020-12-02 05:34:00 GMT 49.029236 1.078984 31,000 264 524 0
2020-12-02 05:33:57 GMT 49.030121 1.091405 31,000 264 524 0
2020-12-02 05:33:54 GMT 49.030792 1.100957 31,000 264 524 0
2020-12-02 05:33:51 GMT 49.031658 1.113378 31,000 264 524 0
2020-12-02 05:33:48 GMT 49.032169 1.120750 31,000 264 524 0
2020-12-02 05:33:45 GMT 49.033401 1.137930 31,000 264 524 0
2020-12-02 05:33:39 GMT 49.034729 1.157015 31,000 265 524 0
2020-12-02 05:33:36 GMT 49.035461 1.168002 31,000 265 524 0
2020-12-02 05:33:33 GMT 49.036148 1.177932 31,000 264 524 0
2020-12-02 05:33:30 GMT 49.037018 1.190749 31,000 264 524 0
2020-12-02 05:33:27 GMT 49.037754 1.201702 31,000 264 524 0
2020-12-02 05:33:24 GMT 49.038391 1.210538 31,000 264 524 64
2020-12-02 05:33:21 GMT 49.039150 1.221578 31,000 265 525 64
2020-12-02 05:33:18 GMT 49.039989 1.234372 31,000 265 525 0
2020-12-02 05:33:15 GMT 49.040688 1.244346 31,000 265 525 0
2020-12-02 05:33:12 GMT 49.041477 1.255694 31,000 265 525 0
2020-12-02 05:33:09 GMT 49.042130 1.265668 31,000 265 525 0
2020-12-02 05:33:06 GMT 49.042969 1.278534 31,000 265 525 0
2020-12-02 05:33:03 GMT 49.043839 1.291034 31,000 265 526 0
2020-12-02 05:33:00 GMT 49.044319 1.298772 31,000 265 526 0
2020-12-02 05:32:57 GMT 49.045063 1.310120 31,000 265 526 0
2020-12-02 05:32:54 GMT 49.045902 1.322624 31,000 265 526 -64
2020-12-02 05:32:51 GMT 49.046356 1.329627 31,000 265 526 0
2020-12-02 05:32:48 GMT 49.047272 1.343290 31,000 265 526 0
2020-12-02 05:32:45 GMT 49.048004 1.353924 31,000 265 526 0
2020-12-02 05:32:42 GMT 49.048973 1.369027 31,000 265 526 0
2020-12-02 05:32:39 GMT 49.049438 1.376399 31,000 265 526 0
2020-12-02 05:32:36 GMT 49.050045 1.385578 31,000 265 526 0
2020-12-02 05:32:33 GMT 49.051025 1.400334 31,000 265 526 0
2020-12-02 05:32:30 GMT 49.051895 1.413926 31,000 265 526 0
2020-12-02 05:32:27 GMT 49.052353 1.420969 31,000 265 527 0
2020-12-02 05:32:24 GMT 49.053040 1.431603 31,000 265 527 0
2020-12-02 05:32:21 GMT 49.053814 1.443040 31,000 265 527 0
2020-12-02 05:32:18 GMT 49.054699 1.456339 31,000 265 527 0
2020-12-02 05:32:15 GMT 49.055164 1.463711 31,000 265 527 0
2020-12-02 05:32:12 GMT 49.056061 1.477027 31,000 265 528 0
2020-12-02 05:32:09 GMT 49.056747 1.487732 31,000 265 527 -64
2020-12-02 05:32:06 GMT 49.057632 1.501007 31,000 265 528 0
2020-12-02 05:32:03 GMT 49.058121 1.509141 31,000 265 528 0
2020-12-02 05:32:00 GMT 49.058945 1.521325 31,000 265 528 0
2020-12-02 05:31:57 GMT 49.059635 1.532448 31,000 265 528 0
2020-12-02 05:31:54 GMT 49.060379 1.543868 31,000 265 528 0
2020-12-02 05:31:51 GMT 49.061871 1.566419 31,000 265 528 0
2020-12-02 05:31:48 GMT 49.061871 1.566419 31,000 265 528 0
2020-12-02 05:31:45 GMT 49.062515 1.576045 31,000 265 529 0
2020-12-02 05:31:42 GMT 49.063568 1.591257 31,000 265 529 0
2020-12-02 05:31:39 GMT 49.064072 1.599004 31,000 265 529 0
2020-12-02 05:31:36 GMT 49.064709 1.608268 31,000 265 529 0
2020-12-02 05:31:33 GMT 49.066315 1.631611 31,000 264 529 0
2020-12-02 05:31:30 GMT 49.066315 1.631611 31,000 264 529 0
2020-12-02 05:31:27 GMT 49.067001 1.640836 31,000 264 530 0
2020-12-02 05:31:24 GMT 49.068146 1.657175 31,000 264 530 0
2020-12-02 05:31:21 GMT 49.068604 1.663865 31,000 264 531 0
2020-12-02 05:31:18 GMT 49.069427 1.674640 31,000 264 531 0
2020-12-02 05:31:15 GMT 49.070343 1.686120 31,000 264 531 0
2020-12-02 05:31:12 GMT 49.071533 1.700627 31,000 263 532 0
2020-12-02 05:31:09 GMT 49.072392 1.710253 31,000 263 534 0
2020-12-02 05:31:06 GMT 49.073273 1.720300 31,000 263 534 0
2020-12-02 05:31:03 GMT 49.074436 1.732587 31,000 262 534 0
2020-12-02 05:31:00 GMT 49.075241 1.741474 31,000 262 534 0
2020-12-02 05:30:57 GMT 49.076767 1.757885 31,000 262 534 0
2020-12-02 05:30:54 GMT 49.077530 1.766052 31,000 262 535 0
2020-12-02 05:30:51 GMT 49.078583 1.777183 31,000 262 535 0
2020-12-02 05:30:48 GMT 49.079746 1.789470 31,000 262 535 0
2020-12-02 05:30:45 GMT 49.080597 1.798800 31,000 262 535 0
2020-12-02 05:30:42 GMT 49.081604 1.809645 31,000 262 535 64
2020-12-02 05:30:39 GMT 49.082703 1.821195 31,000 262 535 64
2020-12-02 05:30:36 GMT 49.083843 1.833488 31,000 263 535 64
2020-12-02 05:30:33 GMT 49.084679 1.842451 31,000 263 534 64
2020-12-02 05:30:30 GMT 49.085815 1.855140 31,000 263 535 64
2020-12-02 05:30:27 GMT 49.087055 1.870422 31,000 264 533 -64
2020-12-02 05:30:24 GMT 49.087692 1.879014 31,000 265 532 -64
2020-12-02 05:30:21 GMT 49.088379 1.889085 31,000 265 532 -64
2020-12-02 05:30:18 GMT 49.089020 1.900635 31,000 266 530 0
2020-12-02 05:30:15 GMT 49.089615 1.912889 31,000 266 530 0
2020-12-02 05:30:12 GMT 49.090034 1.921451 31,000 266 531 -64
2020-12-02 05:30:09 GMT 49.090759 1.935988 31,000 265 532 0
2020-12-02 05:30:06 GMT 49.091309 1.945355 31,000 264 534 0
2020-12-02 05:30:03 GMT 49.091812 1.953524 31,000 264 534 0
2020-12-02 05:30:00 GMT 49.093781 1.981201 31,000 264 535 0
2020-12-02 05:29:56 GMT 49.093781 1.981201 31,000 263 536 0
2020-12-02 05:29:53 GMT 49.094643 1.991633 31,000 263 536 0
2020-12-02 05:29:50 GMT 49.095665 2.003270 31,000 263 537 0
2020-12-02 05:29:46 GMT 49.098366 2.031387 31,000 262 539 0
2020-12-02 05:29:43 GMT 49.098366 2.031387 31,000 261 541 0
2020-12-02 05:29:39 GMT 49.100925 2.055383 31,000 261 540 0
2020-12-02 05:29:33 GMT 49.102249 2.066627 31,000 260 541 64
2020-12-02 05:29:30 GMT 49.103851 2.079726 31,000 259 543 0
2020-12-02 05:29:26 GMT 49.105999 2.096293 31,000 257 549 0
2020-12-02 05:29:23 GMT 49.107330 2.105995 31,000 258 545 0
2020-12-02 05:29:19 GMT 49.109116 2.118389 31,000 258 546 0
2020-12-02 05:29:16 GMT 49.111084 2.131559 31,000 257 547 0
2020-12-02 05:29:13 GMT 49.112938 2.143563 31,000 257 547 0
2020-12-02 05:29:10 GMT 49.114521 2.153682 31,000 257 547 0
2020-12-02 05:29:07 GMT 49.116211 2.164518 31,000 257 548 0
2020-12-02 05:29:04 GMT 49.118317 2.178040 31,000 257 548 0
2020-12-02 05:29:01 GMT 49.120293 2.190833 31,000 257 548 0
2020-12-02 05:28:58 GMT 49.121429 2.197970 31,000 257 548 0
2020-12-02 05:28:55 GMT 49.123878 2.213745 31,000 257 548 0
2020-12-02 05:28:52 GMT 49.125088 2.221696 31,000 257 548 0
2020-12-02 05:28:49 GMT 49.126968 2.233675 31,000 257 548 0
2020-12-02 05:28:46 GMT 49.128952 2.246487 31,000 257 549 0
2020-12-02 05:28:43 GMT 49.130768 2.258124 31,000 257 549 0
2020-12-02 05:28:40 GMT 49.132488 2.269038 31,000 257 549 0
2020-12-02 05:28:37 GMT 49.133930 2.278434 31,000 257 549 0
2020-12-02 05:28:34 GMT 49.135796 2.290143 31,000 257 549 0
2020-12-02 05:28:28 GMT 49.138958 2.310887 31,000 257 549 0
2020-12-02 05:28:25 GMT 49.141159 2.324806 31,000 257 549 -64
2020-12-02 05:28:22 GMT 49.142776 2.335318 31,000 257 549 0
2020-12-02 05:28:19 GMT 49.144360 2.345509 31,000 257 550 0
2020-12-02 05:28:16 GMT 49.146240 2.357553 31,000 257 550 0
2020-12-02 05:28:13 GMT 49.147751 2.367413 31,000 257 550 0
2020-12-02 05:28:10 GMT 49.150272 2.383600 31,000 257 550 0
2020-12-02 05:28:06 GMT 49.151947 2.394586 31,000 257 550 0
2020-12-02 05:28:03 GMT 49.153671 2.405500 31,000 257 550 0
2020-12-02 05:28:00 GMT 49.155304 2.416077 31,000 257 550 0
2020-12-02 05:27:57 GMT 49.159023 2.440266 31,000 257 550 0
2020-12-02 05:27:54 GMT 49.159023 2.440266 31,000 257 550 0
2020-12-02 05:27:51 GMT 49.161163 2.454216 31,000 257 550 0
2020-12-02 05:27:48 GMT 49.162609 2.463684 31,000 257 550 0
2020-12-02 05:27:45 GMT 49.164139 2.473544 31,000 257 551 0
2020-12-02 05:27:42 GMT 49.166145 2.486380 31,000 257 551 0
2020-12-02 05:27:39 GMT 49.167526 2.495446 31,000 257 551 0
2020-12-02 05:27:36 GMT 49.169498 2.508280 31,000 257 551 0
2020-12-02 05:27:33 GMT 49.171234 2.519602 31,000 257 551 0
2020-12-02 05:27:30 GMT 49.173248 2.532842 31,000 257 551 0
2020-12-02 05:27:26 GMT 49.175537 2.547631 31,000 257 551 0
2020-12-02 05:27:23 GMT 49.177086 2.557502 31,000 257 551 0
2020-12-02 05:27:19 GMT 49.179321 2.572246 31,000 257 551 0
2020-12-02 05:27:16 GMT 49.181213 2.584322 31,000 257 551 0
2020-12-02 05:27:13 GMT 49.182999 2.596083 31,000 257 552 0
2020-12-02 05:27:10 GMT 49.187073 2.622634 31,000 257 552 0
2020-12-02 05:27:07 GMT 49.187073 2.622634 31,000 257 552 0
2020-12-02 05:27:04 GMT 49.188583 2.632454 31,000 257 552 0
2020-12-02 05:27:01 GMT 49.190025 2.641923 31,000 257 552 0
2020-12-02 05:26:58 GMT 49.191650 2.652564 31,000 257 552 0
2020-12-02 05:26:55 GMT 49.193333 2.663534 30,975 257 552 -64
2020-12-02 05:26:52 GMT 49.195587 2.678340 31,000 257 553 0
2020-12-02 05:26:48 GMT 49.197662 2.692012 31,000 258 553 0
2020-12-02 05:26:45 GMT 49.199104 2.701553 31,000 258 553 0
2020-12-02 05:26:41 GMT 49.202133 2.721652 31,000 258 553 0
2020-12-02 05:26:37 GMT 49.203964 2.733835 31,000 258 553 0
2020-12-02 05:26:34 GMT 49.205200 2.741793 31,000 258 552 0
2020-12-02 05:26:31 GMT 49.207169 2.755103 31,000 258 553 0
2020-12-02 05:26:28 GMT 49.208496 2.763836 31,000 258 553 -64
2020-12-02 05:26:25 GMT 49.210922 2.780245 31,000 258 554 -64
2020-12-02 05:26:22 GMT 49.212387 2.789753 31,000 258 554 0
2020-12-02 05:26:19 GMT 49.216328 2.816042 31,000 258 554 0
2020-12-02 05:26:16 GMT 49.216328 2.816042 31,000 258 554 0
2020-12-02 05:26:13 GMT 49.217697 2.825177 31,000 258 554 0
2020-12-02 05:26:10 GMT 49.219345 2.836233 31,000 258 554 0
2020-12-02 05:26:06 GMT 49.221497 2.850663 31,000 258 552 0
2020-12-02 05:26:03 GMT 49.223465 2.863629 31,000 258 552 0
2020-12-02 05:26:00 GMT 49.224884 2.873136 31,000 258 552 0
2020-12-02 05:25:57 GMT 49.226532 2.884122 31,000 258 552 0
2020-12-02 05:25:54 GMT 49.228271 2.895883 31,000 258 552 0
2020-12-02 05:25:51 GMT 49.229965 2.906940 31,000 258 552 0
2020-12-02 05:25:48 GMT 49.231876 2.919834 31,000 258 551 0
2020-12-02 05:25:45 GMT 49.233555 2.930820 31,000 258 551 0
2020-12-02 05:25:42 GMT 49.234905 2.939927 31,000 258 551 0
2020-12-02 05:25:39 GMT 49.236603 2.951308 31,000 258 550 0
2020-12-02 05:25:36 GMT 49.238571 2.964548 31,000 258 550 0
2020-12-02 05:25:33 GMT 49.241959 2.987295 31,000 258 550 0
2020-12-02 05:25:30 GMT 49.241959 2.987295 31,000 258 549 0
2020-12-02 05:25:27 GMT 49.243515 2.997507 31,000 258 549 0
2020-12-02 05:25:24 GMT 49.245941 3.013775 31,000 258 549 0
2020-12-02 05:25:21 GMT 49.246994 3.020959 31,000 258 549 0
2020-12-02 05:25:18 GMT 49.248962 3.034198 31,000 258 549 0
2020-12-02 05:25:15 GMT 49.250015 3.041382 31,000 258 549 0
2020-12-02 05:25:12 GMT 49.252129 3.055717 31,000 258 549 0
2020-12-02 05:25:09 GMT 49.253815 3.067087 31,000 258 548 0
2020-12-02 05:25:06 GMT 49.255482 3.078413 31,000 258 548 0
2020-12-02 05:25:03 GMT 49.257294 3.090468 31,000 258 548 0
2020-12-02 05:25:00 GMT 49.259262 3.103708 31,000 258 547 -64
2020-12-02 05:24:57 GMT 49.260315 3.110821 31,000 258 547 -64
2020-12-02 05:24:54 GMT 49.261917 3.121807 31,000 258 539 512
2020-12-02 05:24:51 GMT 49.263885 3.134977 31,000 258 547 0
2020-12-02 05:24:48 GMT 49.265533 3.146282 31,000 258 546 0
2020-12-02 05:24:45 GMT 49.267258 3.157919 31,000 258 546 0
2020-12-02 05:24:42 GMT 49.268967 3.169556 30,775 258 543 512
2020-12-02 05:24:39 GMT 49.270798 3.182021 31,000 258 545 -64
2020-12-02 05:24:36 GMT 49.273869 3.202659 31,025 258 545 -64
2020-12-02 05:24:33 GMT 49.273869 3.202659 31,025 258 545 -64
2020-12-02 05:24:30 GMT 49.275513 3.213924 31,025 258 544 -64
2020-12-02 05:24:27 GMT 49.277298 3.226318 31,025 258 544 -64
2020-12-02 05:24:24 GMT 49.278568 3.234968 31,025 258 544 0
2020-12-02 05:24:21 GMT 49.280617 3.248773 31,025 258 543 128
2020-12-02 05:24:18 GMT 49.281876 3.257374 31,025 258 543 192
2020-12-02 05:24:15 GMT 49.283459 3.268216 31,000 258 542 512
2020-12-02 05:24:12 GMT 49.285583 3.282447 30,950 258 543 768
2020-12-02 05:24:09 GMT 49.288467 3.301885 30,550 258 543 512
2020-12-02 05:24:06 GMT 49.290115 3.313082 30,875 258 543 512
2020-12-02 05:24:03 GMT 49.290115 3.313082 30,850 258 543 512
2020-12-02 05:24:00 GMT 49.291718 3.323998 30,775 258 543 512
2020-12-02 05:23:57 GMT 49.293686 3.337449 30,800 258 543 512
2020-12-02 05:23:54 GMT 49.295334 3.348647 30,775 258 543 576
2020-12-02 05:23:51 GMT 49.296772 3.358419 30,750 258 543 576
2020-12-02 05:23:48 GMT 49.298538 3.370338 30,725 258 543 576
2020-12-02 05:23:45 GMT 49.300076 3.380826 30,700 258 543 512
2020-12-02 05:23:42 GMT 49.301754 3.392462 30,675 258 542 512
2020-12-02 05:23:39 GMT 49.303894 3.407063 30,650 258 542 448
2020-12-02 05:23:36 GMT 49.305244 3.416387 30,625 258 542 384
2020-12-02 05:23:33 GMT 49.307419 3.431326 30,600 258 541 384
2020-12-02 05:23:30 GMT 49.308380 3.437664 30,600 258 541 448
2020-12-02 05:23:26 GMT 49.310257 3.450763 30,550 258 540 448
2020-12-02 05:23:23 GMT 49.312271 3.464567 30,550 258 540 448
2020-12-02 05:23:20 GMT 49.313599 3.473863 30,500 258 540 448
2020-12-02 05:23:17 GMT 49.315437 3.486569 30,500 258 539 448
2020-12-02 05:23:14 GMT 49.318954 3.510766 30,450 258 539 512
2020-12-02 05:23:11 GMT 49.320831 3.523794 30,425 258 539 640
2020-12-02 05:23:08 GMT 49.320831 3.523794 30,275 258 539 384
2020-12-02 05:23:05 GMT 49.321911 3.531309 30,400 258 539 640
2020-12-02 05:23:02 GMT 49.323532 3.542457 30,350 258 539 384
2020-12-02 05:22:58 GMT 49.325588 3.556607 30,325 258 539 384
2020-12-02 05:22:55 GMT 49.327637 3.571135 30,300 258 538 320
2020-12-02 05:22:52 GMT 49.329163 3.581543 30,300 258 535 576
2020-12-02 05:22:46 GMT 49.331955 3.601192 30,175 258 536 384
2020-12-02 05:22:43 GMT 49.333549 3.612334 30,250 258 537 320
2020-12-02 05:22:40 GMT 49.335178 3.623826 30,225 258 536 384
2020-12-02 05:22:36 GMT 49.337364 3.639004 30,200 258 536 448
2020-12-02 05:22:33 GMT 49.338902 3.649774 30,175 258 536 512
2020-12-02 05:22:29 GMT 49.340858 3.663434 30,175 258 535 576
2020-12-02 05:22:26 GMT 49.342953 3.678252 30,100 258 535 576
2020-12-02 05:22:22 GMT 49.344452 3.688941 30,075 258 535 576
2020-12-02 05:22:19 GMT 49.346100 3.700421 30,050 258 534 512
2020-12-02 05:22:16 GMT 49.347794 3.712604 30,025 258 533 448
2020-12-02 05:22:13 GMT 49.349579 3.725562 30,000 258 533 512
2020-12-02 05:22:09 GMT 49.351181 3.736971 29,975 258 533 640
2020-12-02 05:22:06 GMT 49.353378 3.752817 29,925 258 532 832
2020-12-02 05:22:03 GMT 49.354404 3.760215 29,850 259 533 896
2020-12-02 05:22:00 GMT 49.355892 3.770913 29,825 259 533 896
2020-12-02 05:21:57 GMT 49.357384 3.781610 29,800 259 533 896
2020-12-02 05:21:54 GMT 49.359283 3.795636 29,750 259 533 768
2020-12-02 05:21:51 GMT 49.361069 3.808523 29,725 259 533 704
2020-12-02 05:21:48 GMT 49.361847 3.814087 29,675 259 533 640
2020-12-02 05:21:45 GMT 49.365051 3.837679 29,625 259 532 640
2020-12-02 05:21:42 GMT 49.365051 3.837679 29,600 259 531 768
2020-12-02 05:21:39 GMT 49.367065 3.852750 29,550 259 531 768
2020-12-02 05:21:35 GMT 49.368301 3.861976 29,500 259 531 704
2020-12-02 05:21:32 GMT 49.370224 3.876343 29,500 259 531 640
2020-12-02 05:21:29 GMT 49.371395 3.884823 29,475 259 530 576
2020-12-02 05:21:26 GMT 49.373291 3.899161 29,425 259 530 640
2020-12-02 05:21:23 GMT 49.374847 3.910922 29,375 259 530 768
2020-12-02 05:21:20 GMT 49.376236 3.921252 29,350 259 530 832
2020-12-02 05:21:17 GMT 49.377121 3.928191 29,325 259 530 832
2020-12-02 05:21:14 GMT 49.380333 3.952476 29,275 259 530 768
2020-12-02 05:21:11 GMT 49.380333 3.952476 29,075 259 528 768
2020-12-02 05:21:08 GMT 49.381622 3.962825 29,200 259 529 768
2020-12-02 05:21:05 GMT 49.383125 3.974593 29,150 259 528 768
2020-12-02 05:21:02 GMT 49.384617 3.985941 29,125 259 528 768
2020-12-02 05:20:59 GMT 49.386013 3.996638 29,100 259 528 768
2020-12-02 05:20:56 GMT 49.387222 4.006179 28,950 259 527 576
2020-12-02 05:20:53 GMT 49.388664 4.017527 29,025 259 528 704
2020-12-02 05:20:50 GMT 49.390182 4.029306 28,975 259 527 576
2020-12-02 05:20:47 GMT 49.391598 4.040294 28,925 260 527 576
2020-12-02 05:20:44 GMT 49.393021 4.051279 28,925 260 527 576
2020-12-02 05:20:41 GMT 49.394623 4.064096 28,900 260 526 576
2020-12-02 05:20:38 GMT 49.396999 4.082722 28,850 260 525 512
2020-12-02 05:20:35 GMT 49.396999 4.082722 28,825 260 525 448
2020-12-02 05:20:32 GMT 49.398468 4.094450 28,775 259 523 512
2020-12-02 05:20:29 GMT 49.400024 4.106863 28,525 259 522 1280
2020-12-02 05:20:26 GMT 49.401375 4.117416 28,775 259 523 512
2020-12-02 05:20:23 GMT 49.402954 4.129733 28,725 259 523 704
2020-12-02 05:20:20 GMT 49.404099 4.138465 28,700 259 523 832
2020-12-02 05:20:17 GMT 49.405380 4.148254 28,700 259 523 960
2020-12-02 05:20:14 GMT 49.406773 4.159193 28,600 258 524 1216
2020-12-02 05:20:11 GMT 49.408310 4.170790 28,550 259 522 1216
2020-12-02 05:20:08 GMT 49.409958 4.183115 28,500 259 522 1280
2020-12-02 05:20:05 GMT 49.412827 4.204150 28,400 258 524 1216
2020-12-02 05:20:02 GMT 49.412827 4.204150 28,350 257 524 1280
2020-12-02 05:19:59 GMT 49.414261 4.213539 28,300 257 524 1280
2020-12-02 05:19:56 GMT 49.416782 4.229447 28,200 255 527 1472
2020-12-02 05:19:53 GMT 49.418598 4.239855 28,125 255 526 1472
2020-12-02 05:19:50 GMT 49.419857 4.246649 28,075 255 527 1408
2020-12-02 05:19:47 GMT 49.421906 4.257780 28,050 254 527 1408
2020-12-02 05:19:44 GMT 49.424057 4.269245 27,950 254 527 1408
2020-12-02 05:19:41 GMT 49.426025 4.279668 27,875 254 527 1408
2020-12-02 05:19:38 GMT 49.429913 4.300554 27,500 254 526 960
2020-12-02 05:19:35 GMT 49.432434 4.313868 27,700 254 528 896
2020-12-02 05:19:32 GMT 49.432434 4.313868 27,700 254 528 896
2020-12-02 05:19:29 GMT 49.434357 4.324277 27,675 254 528 896
2020-12-02 05:19:26 GMT 49.436054 4.333290 27,600 254 527 896
2020-12-02 05:19:23 GMT 49.438152 4.344425 27,525 254 527 896
2020-12-02 05:19:19 GMT 49.440804 4.358380 27,475 254 526 960
2020-12-02 05:19:16 GMT 49.442825 4.369162 27,450 255 526 960
2020-12-02 05:19:13 GMT 49.444885 4.380292 27,425 255 526 960
2020-12-02 05:19:10 GMT 49.446762 4.390300 27,250 255 526 896
2020-12-02 05:19:07 GMT 49.449051 4.402482 27,325 255 526 896
2020-12-02 05:19:04 GMT 49.450626 4.411085 27,250 255 525 896
2020-12-02 05:19:01 GMT 49.453171 4.424671 27,225 255 525 832
2020-12-02 05:18:58 GMT 49.454819 4.433634 27,200 255 524 832
2020-12-02 05:18:55 GMT 49.456959 4.445083 27,150 254 524 832
2020-12-02 05:18:52 GMT 49.459213 4.457197 27,100 255 523 832
2020-12-02 05:18:49 GMT 49.460960 4.466462 27,100 255 523 832
2020-12-02 05:18:46 GMT 49.463009 4.477523 27,000 255 522 896
2020-12-02 05:18:43 GMT 49.465199 4.489251 26,975 255 522 960
2020-12-02 05:18:39 GMT 49.467178 4.499986 26,925 255 521 1024
2020-12-02 05:18:36 GMT 49.469467 4.512417 26,725 255 521 1024
2020-12-02 05:18:33 GMT 49.471115 4.521308 26,825 255 521 1024
2020-12-02 05:18:30 GMT 49.473175 4.532366 26,750 255 521 960
2020-12-02 05:18:27 GMT 49.475510 4.544798 26,725 255 521 960
2020-12-02 05:18:24 GMT 49.477295 4.554339 26,675 255 520 960
2020-12-02 05:18:21 GMT 49.479584 4.566771 26,625 255 520 960
2020-12-02 05:18:18 GMT 49.481815 4.578849 26,600 255 519 960
2020-12-02 05:18:15 GMT 49.483028 4.585233 26,550 255 518 960
2020-12-02 05:18:12 GMT 49.485214 4.597272 26,425 255 518 960
2020-12-02 05:18:09 GMT 49.487366 4.608909 26,425 255 518 960
2020-12-02 05:18:06 GMT 49.489220 4.618786 26,375 255 517 896
2020-12-02 05:18:03 GMT 49.491028 4.628714 26,375 255 515 896
2020-12-02 05:18:00 GMT 49.493317 4.641073 26,275 255 516 896
2020-12-02 05:17:57 GMT 49.495132 4.650928 26,250 255 516 896
2020-12-02 05:17:54 GMT 49.496944 4.660801 26,125 255 515 896
2020-12-02 05:17:49 GMT 49.500549 4.680176 26,100 255 514 896
2020-12-02 05:17:45 GMT 49.502720 4.692053 26,050 255 514 1024
2020-12-02 05:17:42 GMT 49.504719 4.702965 25,975 255 512 896
2020-12-02 05:17:39 GMT 49.506317 4.711761 25,925 255 514 1088
2020-12-02 05:17:36 GMT 49.510300 4.733517 25,850 255 513 1088
2020-12-02 05:17:29 GMT 49.513008 4.748172 25,800 255 512 1088
2020-12-02 05:17:26 GMT 49.514587 4.756932 25,700 255 512 960
2020-12-02 05:17:23 GMT 49.516731 4.768512 25,675 255 511 896
2020-12-02 05:17:20 GMT 49.518906 4.780354 25,650 255 511 896
2020-12-02 05:17:17 GMT 49.521606 4.795026 25,575 255 510 960
2020-12-02 05:17:13 GMT 49.523254 4.804061 25,550 255 510 1024
2020-12-02 05:17:10 GMT 49.525295 4.815204 25,450 255 509 960
2020-12-02 05:17:07 GMT 49.527622 4.828120 25,400 255 508 960
2020-12-02 05:17:04 GMT 49.529442 4.838216 25,400 255 508 960
2020-12-02 05:17:01 GMT 49.530853 4.845838 25,350 255 508 896
2020-12-02 05:16:58 GMT 49.533398 4.859743 25,250 255 507 1088
2020-12-02 05:16:55 GMT 49.534981 4.868354 25,225 255 506 1088
2020-12-02 05:16:52 GMT 49.536327 4.875628 25,200 255 506 1152
2020-12-02 05:16:49 GMT 49.538544 4.887760 25,100 255 506 1216
2020-12-02 05:16:45 GMT 49.541264 4.902649 25,000 255 505 1152
2020-12-02 05:16:42 GMT 49.543121 4.913057 24,925 255 505 1088
2020-12-02 05:16:38 GMT 49.545090 4.923754 24,000 255 499 1152
2020-12-02 05:16:35 GMT 49.547829 4.938948 24,825 255 504 1024
2020-12-02 05:16:32 GMT 49.548992 4.945481 24,700 255 502 1088
2020-12-02 05:16:29 GMT 49.551552 4.959659 24,725 255 503 1024
2020-12-02 05:16:25 GMT 49.554111 4.973763 24,650 255 502 1152
2020-12-02 05:16:22 GMT 49.555389 4.980637 24,625 255 502 1152
2020-12-02 05:16:19 GMT 49.557278 4.990911 24,575 255 502 1216
2020-12-02 05:16:16 GMT 49.559189 5.001600 24,500 255 501 1216
2020-12-02 05:16:13 GMT 49.561066 5.011862 24,425 255 501 1216
2020-12-02 05:16:10 GMT 49.563049 5.022905 24,350 255 501 1216
2020-12-02 05:16:07 GMT 49.565098 5.034188 24,275 255 500 1216
2020-12-02 05:16:04 GMT 49.567005 5.044803 24,225 255 500 1216
2020-12-02 05:16:01 GMT 49.569195 5.056754 24,200 255 500 1216
2020-12-02 05:15:58 GMT 49.570358 5.063324 24,150 255 500 1216
2020-12-02 05:15:55 GMT 49.572361 5.074570 24,025 255 499 1152
2020-12-02 05:15:52 GMT 49.574409 5.085853 24,000 255 499 1152
2020-12-02 05:15:48 GMT 49.576550 5.097805 23,925 255 498 1088
2020-12-02 05:15:44 GMT 49.578972 5.111092 23,900 255 498 1088
2020-12-02 05:15:41 GMT 49.580742 5.121039 23,775 255 497 1152
2020-12-02 05:15:38 GMT 49.582649 5.131580 23,750 255 497 1152
2020-12-02 05:15:35 GMT 49.584457 5.141818 23,700 255 496 1216
2020-12-02 05:15:32 GMT 49.586048 5.150584 23,625 255 496 1280
2020-12-02 05:15:29 GMT 49.587982 5.161117 23,575 255 496 1344
2020-12-02 05:15:26 GMT 49.592007 5.183543 23,450 255 494 1280
2020-12-02 05:15:23 GMT 49.592007 5.183543 23,375 255 494 1280
2020-12-02 05:15:20 GMT 49.593384 5.191329 23,350 255 494 1280
2020-12-02 05:15:17 GMT 49.595261 5.201882 23,325 255 494 1216
2020-12-02 05:15:14 GMT 49.597137 5.212362 23,250 255 493 1216
2020-12-02 05:15:11 GMT 49.598648 5.220819 23,250 255 493 1216
2020-12-02 05:15:08 GMT 49.601086 5.234688 23,125 255 492 1216
2020-12-02 05:15:05 GMT 49.602528 5.242780 23,100 255 492 1280
2020-12-02 05:15:02 GMT 49.604576 5.254286 23,000 255 492 1408
2020-12-02 05:14:58 GMT 49.606716 5.266460 22,925 255 492 1408
2020-12-02 05:14:55 GMT 49.608627 5.277268 22,825 255 491 1408
2020-12-02 05:14:52 GMT 49.610779 5.289411 22,725 255 491 1408
2020-12-02 05:14:49 GMT 49.612350 5.298157 22,625 255 491 1344
2020-12-02 05:14:46 GMT 49.614117 5.308252 22,600 255 490 1344
2020-12-02 05:14:43 GMT 49.615952 5.318322 22,550 255 490 1280
2020-12-02 05:14:40 GMT 49.617470 5.327107 22,525 255 490 1280
2020-12-02 05:14:37 GMT 49.619190 5.336832 22,450 255 489 1344
2020-12-02 05:14:34 GMT 49.621216 5.348246 22,375 255 489 1408
2020-12-02 05:14:31 GMT 49.623047 5.358654 22,300 255 488 1408
2020-12-02 05:14:28 GMT 49.624741 5.368411 22,225 255 488 1472
2020-12-02 05:14:25 GMT 49.626499 5.378476 22,150 255 487 1472
2020-12-02 05:14:22 GMT 49.628922 5.392209 22,050 255 487 1408
2020-12-02 05:14:19 GMT 49.629913 5.397901 22,025 255 487 1344
2020-12-02 05:14:16 GMT 49.631344 5.405942 21,925 255 486 1216
2020-12-02 05:14:13 GMT 49.633484 5.418338 21,850 255 486 1152
2020-12-02 05:14:10 GMT 49.635300 5.428657 21,825 255 485 1152
2020-12-02 05:14:07 GMT 49.637115 5.439049 21,775 255 485 1152
2020-12-02 05:14:03 GMT 49.639397 5.452040 21,700 256 484 1280
2020-12-02 05:14:00 GMT 49.641724 5.465698 21,600 256 484 1344
2020-12-02 05:13:57 GMT 49.643234 5.474299 21,525 256 484 1344
2020-12-02 05:13:54 GMT 49.644653 5.482611 21,475 256 483 1408
2020-12-02 05:13:51 GMT 49.647629 5.499886 19,375 255 466 1344
2020-12-02 05:13:45 GMT 49.649734 5.512173 21,250 256 482 1408
2020-12-02 05:13:42 GMT 49.651886 5.524461 21,175 255 481 1344
2020-12-02 05:13:39 GMT 49.653316 5.532730 21,050 256 481 1280
2020-12-02 05:13:33 GMT 49.656528 5.551213 21,025 256 480 1280
2020-12-02 05:13:30 GMT 49.658062 5.560196 20,950 256 480 1344
2020-12-02 05:13:27 GMT 49.659645 5.569103 20,850 256 479 1408
2020-12-02 05:13:24 GMT 49.661407 5.579320 20,775 256 479 1408
2020-12-02 05:13:21 GMT 49.663322 5.590482 20,725 255 478 1472
2020-12-02 05:13:18 GMT 49.665092 5.600726 20,700 255 478 1408
2020-12-02 05:13:15 GMT 49.666817 5.610228 20,550 255 477 1344
2020-12-02 05:13:12 GMT 49.668457 5.619435 20,450 255 477 1216
2020-12-02 05:13:09 GMT 49.670563 5.630855 20,475 255 477 1216
2020-12-02 05:13:06 GMT 49.672302 5.640323 20,425 255 476 1216
2020-12-02 05:13:03 GMT 49.674179 5.650442 20,300 255 475 1216
2020-12-02 05:13:00 GMT 49.676170 5.661151 20,250 254 474 1280
2020-12-02 05:12:57 GMT 49.677658 5.669018 20,100 254 473 1408
2020-12-02 05:12:54 GMT 49.679852 5.680674 20,125 254 474 1408
2020-12-02 05:12:51 GMT 49.681480 5.689433 19,975 254 472 1408
2020-12-02 05:12:48 GMT 49.683289 5.699158 20,000 254 472 1408
2020-12-02 05:12:44 GMT 49.685898 5.713035 19,900 254 472 1408
2020-12-02 05:12:41 GMT 49.687389 5.720833 19,475 254 471 1344
2020-12-02 05:12:38 GMT 49.690750 5.738911 19,600 254 470 1408
2020-12-02 05:12:32 GMT 49.692856 5.750186 19,575 255 470 1344
2020-12-02 05:12:29 GMT 49.694595 5.759510 19,575 255 470 1344
2020-12-02 05:12:26 GMT 49.696838 5.771725 19,475 255 469 1344
2020-12-02 05:12:22 GMT 49.698669 5.781700 19,350 255 467 1344
2020-12-02 05:12:19 GMT 49.700844 5.793210 19,275 255 466 1344
2020-12-02 05:12:13 GMT 49.704243 5.811768 19,175 255 465 1408
2020-12-02 05:12:10 GMT 49.706039 5.821381 19,100 255 465 1408
2020-12-02 05:12:07 GMT 49.707458 5.829042 19,000 255 464 1472
2020-12-02 05:12:04 GMT 49.709656 5.840824 18,975 254 464 1472
2020-12-02 05:12:01 GMT 49.711411 5.850368 18,675 255 462 1344
2020-12-02 05:11:58 GMT 49.713409 5.861134 18,800 255 463 1408
2020-12-02 05:11:55 GMT 49.714718 5.868184 18,725 255 462 1344
2020-12-02 05:11:52 GMT 49.716438 5.877686 18,700 255 461 1280
2020-12-02 05:11:49 GMT 49.718491 5.888744 18,650 255 461 1280
2020-12-02 05:11:46 GMT 49.719910 5.896333 18,575 255 460 1216
2020-12-02 05:11:43 GMT 49.721832 5.906741 18,525 255 459 1216
2020-12-02 05:11:40 GMT 49.723560 5.916138 18,450 255 458 1152
2020-12-02 05:11:37 GMT 49.725613 5.927198 18,375 255 456 1152
2020-12-02 05:11:34 GMT 49.727146 5.935586 18,325 255 456 1152
2020-12-02 05:11:31 GMT 49.728653 5.943748 18,300 255 455 1216
2020-12-02 05:11:28 GMT 49.730732 5.954961 18,200 255 454 1344
2020-12-02 05:11:25 GMT 49.734238 5.973960 18,125 255 453 1408
2020-12-02 05:11:22 GMT 49.734238 5.973960 18,075 255 453 1408
2020-12-02 05:11:19 GMT 49.737434 5.991632 17,950 255 452 1408
2020-12-02 05:11:16 GMT 49.737434 5.991632 17,925 255 451 1408
2020-12-02 05:11:13 GMT 49.738998 5.999981 17,875 255 451 1344
2020-12-02 05:11:10 GMT 49.740692 6.009299 17,575 255 449 1344
2020-12-02 05:11:07 GMT 49.742386 6.018556 17,700 255 448 1344
2020-12-02 05:11:04 GMT 49.743999 6.027114 17,675 255 446 1408
2020-12-02 05:11:01 GMT 49.746140 6.038794 17,625 255 446 1344
2020-12-02 05:10:58 GMT 49.747513 6.046456 17,275 255 442 1728
2020-12-02 05:10:55 GMT 49.749119 6.055026 17,200 255 443 1664
2020-12-02 05:10:52 GMT 49.750843 6.064527 17,375 255 444 1536
2020-12-02 05:10:49 GMT 49.752594 6.074283 17,350 255 443 1600
2020-12-02 05:10:46 GMT 49.754055 6.082195 17,225 255 443 1664
2020-12-02 05:10:43 GMT 49.755661 6.091052 17,125 255 442 1728
2020-12-02 05:10:40 GMT 49.757492 6.101098 17,125 255 442 1728
2020-12-02 05:10:37 GMT 49.759781 6.113520 16,925 255 441 1728
2020-12-02 05:10:34 GMT 49.761566 6.123216 16,850 255 440 1728
2020-12-02 05:10:31 GMT 49.762436 6.128058 16,825 255 440 1728
2020-12-02 05:10:28 GMT 49.765732 6.146200 16,650 255 439 1664
2020-12-02 05:10:25 GMT 49.765732 6.146200 16,600 255 439 1664
2020-12-02 05:10:22 GMT 49.767368 6.155239 16,475 255 438 1664
2020-12-02 05:10:19 GMT 49.769093 6.164592 16,475 255 438 1664
2020-12-02 05:10:16 GMT 49.771000 6.175059 16,375 255 435 1728
2020-12-02 05:10:13 GMT 49.772305 6.182333 16,200 255 435 1728
2020-12-02 05:10:09 GMT 49.774292 6.193398 16,200 255 435 1728
2020-12-02 05:10:06 GMT 49.776119 6.203564 16,075 255 435 1792
2020-12-02 05:10:03 GMT 49.777889 6.213437 16,000 255 434 1792
2020-12-02 05:09:59 GMT 49.780125 6.225685 15,875 255 434 1792
2020-12-02 05:09:55 GMT 49.781891 6.235484 15,800 255 433 1792
2020-12-02 05:09:52 GMT 49.783630 6.245005 15,625 255 431 1792
2020-12-02 05:09:49 GMT 49.785278 6.254184 15,600 255 431 1792
2020-12-02 05:09:45 GMT 49.787933 6.268784 15,300 255 429 1856
2020-12-02 05:09:42 GMT 49.788967 6.274678 15,375 255 429 1856
2020-12-02 05:09:39 GMT 49.790680 6.284107 15,250 255 429 1856
2020-12-02 05:09:36 GMT 49.792507 6.294201 15,175 255 428 1856
2020-12-02 05:09:33 GMT 49.794205 6.303623 15,075 255 428 1856
2020-12-02 05:09:30 GMT 49.795441 6.310384 15,025 255 427 1856
2020-12-02 05:09:27 GMT 49.798874 6.329498 14,675 255 426 1792
2020-12-02 05:09:24 GMT 49.798874 6.329498 14,750 255 426 1792
2020-12-02 05:09:21 GMT 49.799881 6.335064 14,700 255 425 1856
2020-12-02 05:09:18 GMT 49.802032 6.347062 14,500 255 424 1856
2020-12-02 05:09:15 GMT 49.804733 6.362240 14,525 255 424 1856
2020-12-02 05:09:12 GMT 49.804733 6.362240 14,425 255 424 1856
2020-12-02 05:09:09 GMT 49.806335 6.371275 14,375 255 422 1856
2020-12-02 05:09:06 GMT 49.807728 6.379197 14,325 255 422 1856
2020-12-02 05:09:03 GMT 49.809406 6.388773 14,100 255 420 1920
2020-12-02 05:08:59 GMT 49.811737 6.401849 14,000 255 419 1984
2020-12-02 05:08:55 GMT 49.813705 6.413124 13,925 255 419 1984
2020-12-02 05:08:52 GMT 49.817001 6.431628 13,300 255 418 1856
2020-12-02 05:08:49 GMT 49.817001 6.431628 13,675 255 417 1856
2020-12-02 05:08:46 GMT 49.818295 6.439102 13,625 255 417 1792
2020-12-02 05:08:43 GMT 49.819740 6.447193 13,550 255 416 1728
2020-12-02 05:08:40 GMT 49.822998 6.466105 13,400 256 415 1664
2020-12-02 05:08:37 GMT 49.822998 6.466105 12,750 256 405 1536
2020-12-02 05:08:34 GMT 49.825699 6.481789 13,225 256 412 1664
2020-12-02 05:08:31 GMT 49.825699 6.481789 13,175 256 411 1664
2020-12-02 05:08:28 GMT 49.827187 6.490322 13,075 256 410 1600
2020-12-02 05:08:25 GMT 49.828629 6.498847 13,050 256 409 1600
2020-12-02 05:08:22 GMT 49.829727 6.505063 12,950 256 408 1600
2020-12-02 05:08:19 GMT 49.831612 6.516080 12,825 256 406 1600
2020-12-02 05:08:16 GMT 49.833145 6.525062 12,775 256 405 1600
2020-12-02 05:08:12 GMT 49.835011 6.535752 12,675 255 403 1408
2020-12-02 05:08:09 GMT 49.836456 6.544093 12,625 256 402 1344
2020-12-02 05:08:06 GMT 49.837894 6.552454 12,550 256 400 1216
2020-12-02 05:08:03 GMT 49.839432 6.561288 12,500 256 398 1088
2020-12-02 05:08:00 GMT 49.840687 6.568711 12,425 256 395 1024
2020-12-02 05:07:57 GMT 49.841850 6.575540 12,400 256 395 1024
2020-12-02 05:07:54 GMT 49.843918 6.587532 12,325 256 391 1024
2020-12-02 05:07:51 GMT 49.844646 6.591871 12,300 256 390 1024
2020-12-02 05:07:48 GMT 49.845997 6.599665 12,175 255 385 1088
2020-12-02 05:07:44 GMT 49.847809 6.610058 12,100 255 383 1216
2020-12-02 05:07:41 GMT 49.849442 6.619337 12,125 255 383 1152
2020-12-02 05:07:38 GMT 49.851105 6.628876 12,050 255 380 1152
2020-12-02 05:07:34 GMT 49.852791 6.638266 11,975 255 376 1088
2020-12-02 05:07:31 GMT 49.855270 6.652583 11,900 255 373 1088
2020-12-02 05:07:28 GMT 49.855270 6.652583 11,850 255 373 1088
2020-12-02 05:07:25 GMT 49.857010 6.662052 11,825 255 371 1088
2020-12-02 05:07:22 GMT 49.859402 6.675308 11,725 255 367 1024
2020-12-02 05:07:16 GMT 49.861084 6.684675 11,575 254 364 896
2020-12-02 05:07:13 GMT 49.862801 6.693643 11,600 254 360 896
2020-12-02 05:07:10 GMT 49.863918 6.699582 11,550 254 359 832
2020-12-02 05:07:07 GMT 49.865295 6.707009 11,525 254 356 896
2020-12-02 05:07:04 GMT 49.866570 6.713834 11,475 254 355 896
2020-12-02 05:07:01 GMT 49.867676 6.719657 11,450 254 353 960
2020-12-02 05:06:58 GMT 49.869316 6.728309 11,375 254 348 1088
2020-12-02 05:06:55 GMT 49.870480 6.734322 11,325 254 348 1088
2020-12-02 05:06:52 GMT 49.872532 6.745012 11,250 254 342 1152
2020-12-02 05:06:49 GMT 49.873413 6.749466 11,225 253 342 1152
2020-12-02 05:06:45 GMT 49.875092 6.757893 11,150 253 341 1152
2020-12-02 05:06:42 GMT 49.876953 6.767133 11,050 253 335 1088
2020-12-02 05:06:39 GMT 49.877884 6.771661 11,025 253 334 1024
2020-12-02 05:06:36 GMT 49.881886 6.790961 10,950 253 330 960
2020-12-02 05:06:32 GMT 49.881886 6.790961 10,875 253 326 1088
2020-12-02 05:06:29 GMT 49.882874 6.795839 10,875 253 326 1088
2020-12-02 05:06:25 GMT 49.884399 6.803209 10,775 253 324 1344
2020-12-02 05:06:22 GMT 49.885983 6.810855 10,700 253 322 1344
2020-12-02 05:06:19 GMT 49.887287 6.817239 10,675 253 321 1280
2020-12-02 05:06:15 GMT 49.889008 6.825776 10,575 253 317 1344
2020-12-02 05:06:12 GMT 49.890545 6.833793 10,425 255 314 1600
2020-12-02 05:06:09 GMT 49.891571 6.839423 10,375 256 313 1408
2020-12-02 05:06:06 GMT 49.893059 6.848120 10,300 257 312 1088
2020-12-02 05:06:03 GMT 49.893814 6.852867 10,250 257 311 1024
2020-12-02 05:06:00 GMT 49.894550 6.857844 10,200 258 308 1216
2020-12-02 05:05:57 GMT 49.895508 6.864359 10,150 259 308 1472
2020-12-02 05:05:54 GMT 49.896606 6.873177 9,775 280 301 1472
2020-12-02 05:05:51 GMT 49.897156 6.878598 10,000 265 306 1536
2020-12-02 05:05:48 GMT 49.897434 6.883825 9,925 268 305 1536
2020-12-02 05:05:45 GMT 49.897522 6.890813 9,900 272 304 1472
2020-12-02 05:05:42 GMT 49.897156 6.897679 9,775 277 302 1472
2020-12-02 05:05:39 GMT 49.896561 6.903462 9,450 285 300 1536
2020-12-02 05:05:35 GMT 49.895004 6.912786 9,575 294 296 1728
2020-12-02 05:05:32 GMT 49.893768 6.917701 9,500 299 294 1792
2020-12-02 05:05:29 GMT 49.891754 6.924422 9,400 297 295 1792
2020-12-02 05:05:25 GMT 49.889568 6.930220 9,275 306 292 1792
2020-12-02 05:05:22 GMT 49.886681 6.936530 9,225 309 290 1792
2020-12-02 05:05:19 GMT 49.883564 6.942023 9,100 316 288 1792
2020-12-02 05:05:15 GMT 49.880676 6.946251 8,975 322 285 1728
2020-12-02 05:05:12 GMT 49.877186 6.950634 8,875 330 283 1600
2020-12-02 05:05:09 GMT 49.873672 6.954201 8,825 332 281 1536
2020-12-02 05:05:04 GMT 49.868454 6.958249 8,725 339 278 1472
2020-12-02 05:05:01 GMT 49.863640 6.961101 8,600 344 276 1856
2020-12-02 05:04:55 GMT 49.856281 6.964367 8,425 347 275 1856
2020-12-02 05:04:51 GMT 49.852699 6.965703 8,375 347 275 1856
2020-12-02 05:04:48 GMT 49.849113 6.967039 8,250 348 273 1984
2020-12-02 05:04:45 GMT 49.845158 6.968450 7,950 348 273 1984
2020-12-02 05:04:42 GMT 49.840347 6.970175 8,025 348 273 1984
2020-12-02 05:04:38 GMT 49.836868 6.971403 7,950 348 273 1984
2020-12-02 05:04:32 GMT 49.828632 6.974091 7,725 348 273 2048
2020-12-02 05:04:28 GMT 49.823593 6.975812 7,575 348 272 1984
2020-12-02 05:04:24 GMT 49.819427 6.977330 7,475 347 273 1920
2020-12-02 05:04:21 GMT 49.816132 6.978559 7,400 345 272 1920
2020-12-02 05:04:18 GMT 49.811779 6.980475 7,225 343 272 2048
2020-12-02 05:04:14 GMT 49.803452 6.984414 7,100 343 272 2176
2020-12-02 05:04:11 GMT 49.803452 6.984414 6,950 342 272 2112
2020-12-02 05:04:08 GMT 49.799908 6.986265 6,925 342 272 2112
2020-12-02 05:04:05 GMT 49.795952 6.988418 6,775 336 273 1792
2020-12-02 05:04:01 GMT 49.792133 6.991016 6,650 331 274 1728
2020-12-02 05:03:58 GMT 49.788620 6.994027 6,625 327 275 1728
2020-12-02 05:03:52 GMT 49.782452 7.001335 6,400 313 278 1728
2020-12-02 05:03:48 GMT 49.779144 7.006605 6,325 308 279 1664
2020-12-02 05:03:45 GMT 49.775841 7.013434 6,200 301 279 1536
2020-12-02 05:03:41 GMT 49.773327 7.020189 6,125 294 280 1728
2020-12-02 05:03:38 GMT 49.772118 7.024346 6,050 286 281 1728
2020-12-02 05:03:33 GMT 49.770264 7.032696 5,925 283 281 1664
2020-12-02 05:03:30 GMT 49.769440 7.039634 5,825 279 282 1472
2020-12-02 05:03:27 GMT 49.769073 7.045055 5,750 272 282 1152
2020-12-02 05:03:24 GMT 49.769119 7.052066 5,650 265 281 1088
2020-12-02 05:03:21 GMT 49.770348 7.064506 5,600 256 280 960
2020-12-02 05:03:17 GMT 49.770348 7.064506 5,600 254 279 960
2020-12-02 05:03:13 GMT 49.772118 7.072671 5,525 246 277 960
2020-12-02 05:03:10 GMT 49.773560 7.077497 5,450 236 275 704
2020-12-02 05:03:07 GMT 49.775848 7.083218 5,450 236 275 704
2020-12-02 05:03:03 GMT 49.778866 7.089002 5,425 228 272 384
2020-12-02 05:03:00 GMT 49.782219 7.093976 5,400 224 270 448
2020-12-02 05:02:57 GMT 49.784920 7.097242 5,350 214 261 704
2020-12-02 05:02:52 GMT 49.790085 7.102661 5,300 214 261 704
2020-12-02 05:02:48 GMT 49.794693 7.107338 5,225 214 258 768
2020-12-02 05:02:41 GMT 49.800385 7.113069 5,150 214 254 896
2020-12-02 05:02:38 GMT 49.803589 7.116394 5,075 214 247 448
2020-12-02 05:02:34 GMT 49.808350 7.121237 5,050 214 245 512
2020-12-02 05:02:31 GMT 49.810318 7.123260 5,000 214 242 768
2020-12-02 05:02:27 GMT 49.814106 7.127083 4,975 214 241 768
2020-12-02 05:02:22 GMT 49.819180 7.132205 4,900 214 236 576
2020-12-02 05:02:19 GMT 49.821030 7.134102 4,900 214 234 320
2020-12-02 05:02:16 GMT 49.824554 7.137644 4,875 214 229 128
2020-12-02 05:02:12 GMT 49.827667 7.140824 4,875 213 224 384
2020-12-02 05:02:09 GMT 49.829983 7.143043 4,875 213 222 384
2020-12-02 05:02:06 GMT 49.833206 7.146317 4,825 213 219 512
2020-12-02 05:02:03 GMT 49.835709 7.148833 4,800 213 214 576
2020-12-02 05:02:00 GMT 49.837803 7.150912 4,800 213 216 576
2020-12-02 05:01:57 GMT 49.840919 7.153955 4,750 213 212 640
2020-12-02 05:01:50 GMT 49.846252 7.159327 4,700 214 208 640
2020-12-02 05:01:47 GMT 49.849159 7.162195 4,650 214 206 960
2020-12-02 05:01:41 GMT 49.853676 7.166798 4,575 214 205 1216
2020-12-02 05:01:38 GMT 49.856518 7.169693 4,350 214 203 1280
2020-12-02 05:01:33 GMT 49.860168 7.173422 4,375 214 203 1280
2020-12-02 05:01:30 GMT 49.862137 7.175373 4,250 214 204 1216
2020-12-02 05:01:27 GMT 49.864655 7.177903 4,225 214 203 1152
2020-12-02 05:01:20 GMT 49.869919 7.183252 4,125 214 202 1408
2020-12-02 05:01:16 GMT 49.873123 7.186504 4,025 214 202 1664
2020-12-02 05:01:13 GMT 49.876392 7.189884 3,900 214 202 1856
2020-12-02 05:01:10 GMT 49.877563 7.191058 3,850 214 202 1792
2020-12-02 05:01:06 GMT 49.880722 7.194189 3,725 214 201 1728
2020-12-02 05:01:00 GMT 49.885517 7.199088 3,550 214 199 1920
2020-12-02 05:00:56 GMT 49.888824 7.202503 3,400 214 199 1856
2020-12-02 05:00:50 GMT 49.893620 7.207402 3,250 214 199 1664
2020-12-02 05:00:46 GMT 49.896271 7.210149 3,150 214 198 1600
2020-12-02 05:00:41 GMT 49.900181 7.214158 2,950 214 196 1536
2020-12-02 05:00:32 GMT 49.907730 7.221921 2,750 214 194 1664
2020-12-02 05:00:21 GMT 49.915421 7.229799 2,475 214 191 1664

Making use of Plane Finder data

You are free to use the raw flight data, aircraft information and images provided in this report for your own purposes provided the data is correctly attributed to Plane Finder. We ask that you please credit Plane Finder and link to planefinder.net in close proximity to the content.

Optionally one of the following logos (no smaller then 150x24px) can be used and must link to planefinder.net

Embedding the Plane Finder map

You are welcome to embed the Plane Finder playback map on your website to offer visitors a more interactive experience. We suggest using the following HTML code:

<iframe src="//planefinder.net/data/report/CC702-TF-AMC-7700-squawk-2020-12-02/map" width="800" height="600" seamless="seamless"></iframe>

Where our data comes from

Plane Finder has a global network of data feeds and antenna radars that receive data broadcast directly from aircraft. The primary technologies used are ADS-B and MLAT. We also show feeds from the FAA and a FLARM glider feed.

Click here to find out more about the Plane Finder network.

How we collect our data